<?xml version="1.0" encoding="UTF-8" standalone="no" ?>
<gpx xmlns="http://www.topografix.com/GPX/1/1" xmlns:xsi="http://www.w3.org/2001/XMLSchema-instance" xsi:schemaLocation="http://www.topografix.com/GPX/1/1 http://www.topografix.com/GPX/1/1/gpx.xsd" version="1.1" creator="VisuGPX - https://www.visugpx.com">
  <metadata>
    <name>Vallée du Drugeon - Croix de la Bèche - Lac de L'Entonnoir - Bouverans - La Rivière Drugeon </name>
    <desc><![CDATA[Randonnée pédestre effectuée le 1er septembre 2021]]></desc>
  </metadata>
  <trk>
    <name><![CDATA[1 sept. 2021 à 09:33:28]]></name>
    <extensions>
      <line xmlns="http://www.topografix.com/GPX/gpx_style/0/2">
        <color>0000FF</color>
        <width>4</width>
      </line>
    </extensions>
    <trkseg>
      <trkpt lat="46.86634" lon="6.21843">
        <ele>819</ele>
        <time>2021-09-01T07:33:29Z</time>
      </trkpt>
      <trkpt lat="46.86634" lon="6.21843">
        <ele>819</ele>
        <time>2021-09-01T07:33:29Z</time>
      </trkpt>
      <trkpt lat="46.86625" lon="6.21843">
        <ele>819</ele>
        <time>2021-09-01T07:33:39Z</time>
      </trkpt>
      <trkpt lat="46.8662" lon="6.21836">
        <ele>819</ele>
        <time>2021-09-01T07:34:03Z</time>
      </trkpt>
      <trkpt lat="46.8661" lon="6.21852">
        <ele>819</ele>
        <time>2021-09-01T07:34:21Z</time>
      </trkpt>
      <trkpt lat="46.86604" lon="6.21858">
        <ele>819</ele>
        <time>2021-09-01T07:34:29Z</time>
      </trkpt>
      <trkpt lat="46.86595" lon="6.21874">
        <ele>820</ele>
        <time>2021-09-01T07:34:41Z</time>
      </trkpt>
      <trkpt lat="46.86586" lon="6.21885">
        <ele>819</ele>
        <time>2021-09-01T07:34:52Z</time>
      </trkpt>
      <trkpt lat="46.86581" lon="6.21889">
        <ele>819</ele>
        <time>2021-09-01T07:34:58Z</time>
      </trkpt>
      <trkpt lat="46.86578" lon="6.21897">
        <ele>819</ele>
        <time>2021-09-01T07:35:02Z</time>
      </trkpt>
      <trkpt lat="46.86572" lon="6.219">
        <ele>819</ele>
        <time>2021-09-01T07:35:14Z</time>
      </trkpt>
      <trkpt lat="46.86544" lon="6.21892">
        <ele>819</ele>
        <time>2021-09-01T07:35:41Z</time>
      </trkpt>
      <trkpt lat="46.86529" lon="6.21878">
        <ele>819</ele>
        <time>2021-09-01T07:35:56Z</time>
      </trkpt>
      <trkpt lat="46.8652" lon="6.21861">
        <ele>819</ele>
        <time>2021-09-01T07:36:13Z</time>
      </trkpt>
      <trkpt lat="46.8652" lon="6.2185">
        <ele>819</ele>
        <time>2021-09-01T07:36:20Z</time>
      </trkpt>
      <trkpt lat="46.86515" lon="6.21842">
        <ele>819</ele>
        <time>2021-09-01T07:36:26Z</time>
      </trkpt>
      <trkpt lat="46.86494" lon="6.21794">
        <ele>819</ele>
        <time>2021-09-01T07:37:00Z</time>
      </trkpt>
      <trkpt lat="46.86487" lon="6.21781">
        <ele>819</ele>
        <time>2021-09-01T07:37:10Z</time>
      </trkpt>
      <trkpt lat="46.86482" lon="6.21775">
        <ele>819</ele>
        <time>2021-09-01T07:37:16Z</time>
      </trkpt>
      <trkpt lat="46.86481" lon="6.21769">
        <ele>820</ele>
        <time>2021-09-01T07:37:27Z</time>
      </trkpt>
      <trkpt lat="46.86476" lon="6.21772">
        <ele>820</ele>
        <time>2021-09-01T07:38:03Z</time>
      </trkpt>
      <trkpt lat="46.86471" lon="6.21777">
        <ele>821</ele>
        <time>2021-09-01T07:38:09Z</time>
      </trkpt>
      <trkpt lat="46.86449" lon="6.21809">
        <ele>823</ele>
        <time>2021-09-01T07:38:36Z</time>
      </trkpt>
      <trkpt lat="46.86447" lon="6.21816">
        <ele>823</ele>
        <time>2021-09-01T07:38:40Z</time>
      </trkpt>
      <trkpt lat="46.86445" lon="6.21825">
        <ele>825</ele>
        <time>2021-09-01T07:38:45Z</time>
      </trkpt>
      <trkpt lat="46.86442" lon="6.21832">
        <ele>824</ele>
        <time>2021-09-01T07:38:50Z</time>
      </trkpt>
      <trkpt lat="46.86438" lon="6.21839">
        <ele>824</ele>
        <time>2021-09-01T07:38:56Z</time>
      </trkpt>
      <trkpt lat="46.86437" lon="6.21848">
        <ele>824</ele>
        <time>2021-09-01T07:39:02Z</time>
      </trkpt>
      <trkpt lat="46.86434" lon="6.21854">
        <ele>824</ele>
        <time>2021-09-01T07:39:10Z</time>
      </trkpt>
      <trkpt lat="46.86426" lon="6.21865">
        <ele>825</ele>
        <time>2021-09-01T07:39:22Z</time>
      </trkpt>
      <trkpt lat="46.86404" lon="6.21906">
        <ele>827</ele>
        <time>2021-09-01T07:39:57Z</time>
      </trkpt>
      <trkpt lat="46.86394" lon="6.21917">
        <ele>827</ele>
        <time>2021-09-01T07:40:07Z</time>
      </trkpt>
      <trkpt lat="46.86387" lon="6.21932">
        <ele>827</ele>
        <time>2021-09-01T07:40:16Z</time>
      </trkpt>
      <trkpt lat="46.86384" lon="6.2194">
        <ele>827</ele>
        <time>2021-09-01T07:40:21Z</time>
      </trkpt>
      <trkpt lat="46.8638" lon="6.21948">
        <ele>827</ele>
        <time>2021-09-01T07:40:25Z</time>
      </trkpt>
      <trkpt lat="46.86372" lon="6.21959">
        <ele>826</ele>
        <time>2021-09-01T07:40:33Z</time>
      </trkpt>
      <trkpt lat="46.86367" lon="6.21964">
        <ele>826</ele>
        <time>2021-09-01T07:40:38Z</time>
      </trkpt>
      <trkpt lat="46.86364" lon="6.2197">
        <ele>826</ele>
        <time>2021-09-01T07:40:44Z</time>
      </trkpt>
      <trkpt lat="46.86361" lon="6.21978">
        <ele>826</ele>
        <time>2021-09-01T07:40:50Z</time>
      </trkpt>
      <trkpt lat="46.86346" lon="6.22001">
        <ele>825</ele>
        <time>2021-09-01T07:41:07Z</time>
      </trkpt>
      <trkpt lat="46.86344" lon="6.22007">
        <ele>825</ele>
        <time>2021-09-01T07:41:11Z</time>
      </trkpt>
      <trkpt lat="46.86339" lon="6.22016">
        <ele>825</ele>
        <time>2021-09-01T07:41:17Z</time>
      </trkpt>
      <trkpt lat="46.86336" lon="6.22026">
        <ele>824</ele>
        <time>2021-09-01T07:41:24Z</time>
      </trkpt>
      <trkpt lat="46.86332" lon="6.22032">
        <ele>824</ele>
        <time>2021-09-01T07:41:28Z</time>
      </trkpt>
      <trkpt lat="46.86317" lon="6.22061">
        <ele>823</ele>
        <time>2021-09-01T07:41:48Z</time>
      </trkpt>
      <trkpt lat="46.86314" lon="6.22071">
        <ele>823</ele>
        <time>2021-09-01T07:41:54Z</time>
      </trkpt>
      <trkpt lat="46.86312" lon="6.22076">
        <ele>823</ele>
        <time>2021-09-01T07:41:57Z</time>
      </trkpt>
      <trkpt lat="46.8631" lon="6.22082">
        <ele>823</ele>
        <time>2021-09-01T07:42:00Z</time>
      </trkpt>
      <trkpt lat="46.86307" lon="6.22086">
        <ele>823</ele>
        <time>2021-09-01T07:42:03Z</time>
      </trkpt>
      <trkpt lat="46.86288" lon="6.22131">
        <ele>822</ele>
        <time>2021-09-01T07:42:34Z</time>
      </trkpt>
      <trkpt lat="46.8628" lon="6.22145">
        <ele>822</ele>
        <time>2021-09-01T07:42:43Z</time>
      </trkpt>
      <trkpt lat="46.86271" lon="6.22177">
        <ele>822</ele>
        <time>2021-09-01T07:43:02Z</time>
      </trkpt>
      <trkpt lat="46.86267" lon="6.22183">
        <ele>822</ele>
        <time>2021-09-01T07:43:07Z</time>
      </trkpt>
      <trkpt lat="46.86264" lon="6.2219">
        <ele>822</ele>
        <time>2021-09-01T07:43:12Z</time>
      </trkpt>
      <trkpt lat="46.86262" lon="6.22198">
        <ele>822</ele>
        <time>2021-09-01T07:43:16Z</time>
      </trkpt>
      <trkpt lat="46.86247" lon="6.22235">
        <ele>823</ele>
        <time>2021-09-01T07:43:37Z</time>
      </trkpt>
      <trkpt lat="46.86246" lon="6.22241">
        <ele>823</ele>
        <time>2021-09-01T07:43:40Z</time>
      </trkpt>
      <trkpt lat="46.86244" lon="6.22248">
        <ele>822</ele>
        <time>2021-09-01T07:43:45Z</time>
      </trkpt>
      <trkpt lat="46.8624" lon="6.22255">
        <ele>823</ele>
        <time>2021-09-01T07:43:49Z</time>
      </trkpt>
      <trkpt lat="46.86237" lon="6.22262">
        <ele>823</ele>
        <time>2021-09-01T07:43:53Z</time>
      </trkpt>
      <trkpt lat="46.86223" lon="6.2232">
        <ele>822</ele>
        <time>2021-09-01T07:44:27Z</time>
      </trkpt>
      <trkpt lat="46.86221" lon="6.22325">
        <ele>822</ele>
        <time>2021-09-01T07:44:31Z</time>
      </trkpt>
      <trkpt lat="46.86216" lon="6.22342">
        <ele>823</ele>
        <time>2021-09-01T07:44:43Z</time>
      </trkpt>
      <trkpt lat="46.86201" lon="6.22366">
        <ele>823</ele>
        <time>2021-09-01T07:45:01Z</time>
      </trkpt>
      <trkpt lat="46.86172" lon="6.2239">
        <ele>823</ele>
        <time>2021-09-01T07:45:28Z</time>
      </trkpt>
      <trkpt lat="46.86165" lon="6.22392">
        <ele>823</ele>
        <time>2021-09-01T07:45:35Z</time>
      </trkpt>
      <trkpt lat="46.86159" lon="6.22391">
        <ele>823</ele>
        <time>2021-09-01T07:45:40Z</time>
      </trkpt>
      <trkpt lat="46.86146" lon="6.22392">
        <ele>823</ele>
        <time>2021-09-01T07:45:50Z</time>
      </trkpt>
      <trkpt lat="46.86107" lon="6.22378">
        <ele>823</ele>
        <time>2021-09-01T07:46:23Z</time>
      </trkpt>
      <trkpt lat="46.86094" lon="6.22375">
        <ele>824</ele>
        <time>2021-09-01T07:46:32Z</time>
      </trkpt>
      <trkpt lat="46.8609" lon="6.2237">
        <ele>824</ele>
        <time>2021-09-01T07:46:36Z</time>
      </trkpt>
      <trkpt lat="46.86078" lon="6.22368">
        <ele>824</ele>
        <time>2021-09-01T07:46:45Z</time>
      </trkpt>
      <trkpt lat="46.86065" lon="6.22362">
        <ele>824</ele>
        <time>2021-09-01T07:46:57Z</time>
      </trkpt>
      <trkpt lat="46.86031" lon="6.22359">
        <ele>824</ele>
        <time>2021-09-01T07:47:23Z</time>
      </trkpt>
      <trkpt lat="46.86025" lon="6.2236">
        <ele>824</ele>
        <time>2021-09-01T07:47:28Z</time>
      </trkpt>
      <trkpt lat="46.86004" lon="6.22371">
        <ele>825</ele>
        <time>2021-09-01T07:47:49Z</time>
      </trkpt>
      <trkpt lat="46.85998" lon="6.22375">
        <ele>824</ele>
        <time>2021-09-01T07:47:55Z</time>
      </trkpt>
      <trkpt lat="46.85993" lon="6.22381">
        <ele>824</ele>
        <time>2021-09-01T07:48:01Z</time>
      </trkpt>
      <trkpt lat="46.85989" lon="6.22388">
        <ele>825</ele>
        <time>2021-09-01T07:48:09Z</time>
      </trkpt>
      <trkpt lat="46.85983" lon="6.22401">
        <ele>825</ele>
        <time>2021-09-01T07:48:18Z</time>
      </trkpt>
      <trkpt lat="46.8598" lon="6.22407">
        <ele>825</ele>
        <time>2021-09-01T07:48:21Z</time>
      </trkpt>
      <trkpt lat="46.85976" lon="6.22412">
        <ele>825</ele>
        <time>2021-09-01T07:48:25Z</time>
      </trkpt>
      <trkpt lat="46.85973" lon="6.22416">
        <ele>825</ele>
        <time>2021-09-01T07:48:29Z</time>
      </trkpt>
      <trkpt lat="46.85946" lon="6.22459">
        <ele>826</ele>
        <time>2021-09-01T07:49:04Z</time>
      </trkpt>
      <trkpt lat="46.85943" lon="6.22463">
        <ele>826</ele>
        <time>2021-09-01T07:49:07Z</time>
      </trkpt>
      <trkpt lat="46.85937" lon="6.22473">
        <ele>826</ele>
        <time>2021-09-01T07:49:15Z</time>
      </trkpt>
      <trkpt lat="46.85935" lon="6.22479">
        <ele>827</ele>
        <time>2021-09-01T07:49:18Z</time>
      </trkpt>
      <trkpt lat="46.85929" lon="6.22493">
        <ele>827</ele>
        <time>2021-09-01T07:49:29Z</time>
      </trkpt>
      <trkpt lat="46.85902" lon="6.22531">
        <ele>828</ele>
        <time>2021-09-01T07:49:59Z</time>
      </trkpt>
      <trkpt lat="46.85873" lon="6.22568">
        <ele>827</ele>
        <time>2021-09-01T07:50:30Z</time>
      </trkpt>
      <trkpt lat="46.85869" lon="6.22571">
        <ele>827</ele>
        <time>2021-09-01T07:50:33Z</time>
      </trkpt>
      <trkpt lat="46.85863" lon="6.22582">
        <ele>827</ele>
        <time>2021-09-01T07:50:39Z</time>
      </trkpt>
      <trkpt lat="46.85846" lon="6.22602">
        <ele>828</ele>
        <time>2021-09-01T07:50:56Z</time>
      </trkpt>
      <trkpt lat="46.8584" lon="6.22608">
        <ele>828</ele>
        <time>2021-09-01T07:51:03Z</time>
      </trkpt>
      <trkpt lat="46.85836" lon="6.22616">
        <ele>829</ele>
        <time>2021-09-01T07:51:09Z</time>
      </trkpt>
      <trkpt lat="46.85833" lon="6.22619">
        <ele>829</ele>
        <time>2021-09-01T07:51:12Z</time>
      </trkpt>
      <trkpt lat="46.85828" lon="6.22623">
        <ele>830</ele>
        <time>2021-09-01T07:51:17Z</time>
      </trkpt>
      <trkpt lat="46.85817" lon="6.22635">
        <ele>830</ele>
        <time>2021-09-01T07:51:30Z</time>
      </trkpt>
      <trkpt lat="46.85806" lon="6.22643">
        <ele>831</ele>
        <time>2021-09-01T07:51:39Z</time>
      </trkpt>
      <trkpt lat="46.858" lon="6.22651">
        <ele>831</ele>
        <time>2021-09-01T07:51:46Z</time>
      </trkpt>
      <trkpt lat="46.85794" lon="6.22655">
        <ele>831</ele>
        <time>2021-09-01T07:51:51Z</time>
      </trkpt>
      <trkpt lat="46.85791" lon="6.22658">
        <ele>831</ele>
        <time>2021-09-01T07:51:54Z</time>
      </trkpt>
      <trkpt lat="46.85786" lon="6.22664">
        <ele>831</ele>
        <time>2021-09-01T07:51:59Z</time>
      </trkpt>
      <trkpt lat="46.85771" lon="6.2268">
        <ele>832</ele>
        <time>2021-09-01T07:52:14Z</time>
      </trkpt>
      <trkpt lat="46.85767" lon="6.22686">
        <ele>833</ele>
        <time>2021-09-01T07:52:19Z</time>
      </trkpt>
      <trkpt lat="46.85761" lon="6.227">
        <ele>834</ele>
        <time>2021-09-01T07:52:30Z</time>
      </trkpt>
      <trkpt lat="46.85758" lon="6.22709">
        <ele>834</ele>
        <time>2021-09-01T07:52:35Z</time>
      </trkpt>
      <trkpt lat="46.85744" lon="6.22738">
        <ele>836</ele>
        <time>2021-09-01T07:52:57Z</time>
      </trkpt>
      <trkpt lat="46.85739" lon="6.22742">
        <ele>836</ele>
        <time>2021-09-01T07:53:02Z</time>
      </trkpt>
      <trkpt lat="46.8573" lon="6.22754">
        <ele>836</ele>
        <time>2021-09-01T07:53:12Z</time>
      </trkpt>
      <trkpt lat="46.85726" lon="6.22759">
        <ele>836</ele>
        <time>2021-09-01T07:53:16Z</time>
      </trkpt>
      <trkpt lat="46.85703" lon="6.2281">
        <ele>836</ele>
        <time>2021-09-01T07:53:50Z</time>
      </trkpt>
      <trkpt lat="46.85699" lon="6.22818">
        <ele>836</ele>
        <time>2021-09-01T07:53:56Z</time>
      </trkpt>
      <trkpt lat="46.85682" lon="6.22845">
        <ele>837</ele>
        <time>2021-09-01T07:54:15Z</time>
      </trkpt>
      <trkpt lat="46.85679" lon="6.22853">
        <ele>837</ele>
        <time>2021-09-01T07:54:20Z</time>
      </trkpt>
      <trkpt lat="46.85676" lon="6.22857">
        <ele>837</ele>
        <time>2021-09-01T07:54:23Z</time>
      </trkpt>
      <trkpt lat="46.85665" lon="6.22889">
        <ele>836</ele>
        <time>2021-09-01T07:54:42Z</time>
      </trkpt>
      <trkpt lat="46.85642" lon="6.22932">
        <ele>836</ele>
        <time>2021-09-01T07:55:14Z</time>
      </trkpt>
      <trkpt lat="46.85639" lon="6.22937">
        <ele>836</ele>
        <time>2021-09-01T07:55:17Z</time>
      </trkpt>
      <trkpt lat="46.85625" lon="6.22964">
        <ele>838</ele>
        <time>2021-09-01T07:55:37Z</time>
      </trkpt>
      <trkpt lat="46.8562" lon="6.2297">
        <ele>839</ele>
        <time>2021-09-01T07:55:43Z</time>
      </trkpt>
      <trkpt lat="46.85612" lon="6.22984">
        <ele>838</ele>
        <time>2021-09-01T07:55:54Z</time>
      </trkpt>
      <trkpt lat="46.8561" lon="6.22993">
        <ele>838</ele>
        <time>2021-09-01T07:55:59Z</time>
      </trkpt>
      <trkpt lat="46.85586" lon="6.2304">
        <ele>839</ele>
        <time>2021-09-01T07:56:31Z</time>
      </trkpt>
      <trkpt lat="46.85577" lon="6.23053">
        <ele>838</ele>
        <time>2021-09-01T07:56:39Z</time>
      </trkpt>
      <trkpt lat="46.85566" lon="6.23085">
        <ele>839</ele>
        <time>2021-09-01T07:56:59Z</time>
      </trkpt>
      <trkpt lat="46.85561" lon="6.23095">
        <ele>839</ele>
        <time>2021-09-01T07:57:07Z</time>
      </trkpt>
      <trkpt lat="46.85557" lon="6.23111">
        <ele>839</ele>
        <time>2021-09-01T07:57:17Z</time>
      </trkpt>
      <trkpt lat="46.85544" lon="6.23149">
        <ele>841</ele>
        <time>2021-09-01T07:57:42Z</time>
      </trkpt>
      <trkpt lat="46.85543" lon="6.23157">
        <ele>841</ele>
        <time>2021-09-01T07:57:48Z</time>
      </trkpt>
      <trkpt lat="46.85539" lon="6.23163">
        <ele>842</ele>
        <time>2021-09-01T07:57:52Z</time>
      </trkpt>
      <trkpt lat="46.85535" lon="6.23171">
        <ele>842</ele>
        <time>2021-09-01T07:57:56Z</time>
      </trkpt>
      <trkpt lat="46.85534" lon="6.23178">
        <ele>843</ele>
        <time>2021-09-01T07:58:01Z</time>
      </trkpt>
      <trkpt lat="46.85521" lon="6.23206">
        <ele>844</ele>
        <time>2021-09-01T07:58:20Z</time>
      </trkpt>
      <trkpt lat="46.85516" lon="6.23213">
        <ele>844</ele>
        <time>2021-09-01T07:58:25Z</time>
      </trkpt>
      <trkpt lat="46.85513" lon="6.2322">
        <ele>844</ele>
        <time>2021-09-01T07:58:30Z</time>
      </trkpt>
      <trkpt lat="46.85509" lon="6.23226">
        <ele>845</ele>
        <time>2021-09-01T07:58:35Z</time>
      </trkpt>
      <trkpt lat="46.85507" lon="6.23235">
        <ele>844</ele>
        <time>2021-09-01T07:58:39Z</time>
      </trkpt>
      <trkpt lat="46.85503" lon="6.23242">
        <ele>844</ele>
        <time>2021-09-01T07:58:44Z</time>
      </trkpt>
      <trkpt lat="46.85487" lon="6.23273">
        <ele>846</ele>
        <time>2021-09-01T07:59:08Z</time>
      </trkpt>
      <trkpt lat="46.85483" lon="6.2328">
        <ele>846</ele>
        <time>2021-09-01T07:59:13Z</time>
      </trkpt>
      <trkpt lat="46.85472" lon="6.23313">
        <ele>846</ele>
        <time>2021-09-01T07:59:32Z</time>
      </trkpt>
      <trkpt lat="46.8547" lon="6.23324">
        <ele>846</ele>
        <time>2021-09-01T07:59:39Z</time>
      </trkpt>
      <trkpt lat="46.85466" lon="6.23336">
        <ele>846</ele>
        <time>2021-09-01T07:59:48Z</time>
      </trkpt>
      <trkpt lat="46.85465" lon="6.23346">
        <ele>846</ele>
        <time>2021-09-01T07:59:52Z</time>
      </trkpt>
      <trkpt lat="46.85463" lon="6.23356">
        <ele>847</ele>
        <time>2021-09-01T08:00:00Z</time>
      </trkpt>
      <trkpt lat="46.8546" lon="6.23366">
        <ele>847</ele>
        <time>2021-09-01T08:00:05Z</time>
      </trkpt>
      <trkpt lat="46.85458" lon="6.23375">
        <ele>848</ele>
        <time>2021-09-01T08:00:11Z</time>
      </trkpt>
      <trkpt lat="46.85453" lon="6.23382">
        <ele>848</ele>
        <time>2021-09-01T08:00:16Z</time>
      </trkpt>
      <trkpt lat="46.85442" lon="6.23401">
        <ele>848</ele>
        <time>2021-09-01T08:00:31Z</time>
      </trkpt>
      <trkpt lat="46.85439" lon="6.23409">
        <ele>848</ele>
        <time>2021-09-01T08:00:35Z</time>
      </trkpt>
      <trkpt lat="46.85435" lon="6.23414">
        <ele>849</ele>
        <time>2021-09-01T08:00:40Z</time>
      </trkpt>
      <trkpt lat="46.8543" lon="6.2342">
        <ele>849</ele>
        <time>2021-09-01T08:00:44Z</time>
      </trkpt>
      <trkpt lat="46.85422" lon="6.23441">
        <ele>850</ele>
        <time>2021-09-01T08:01:01Z</time>
      </trkpt>
      <trkpt lat="46.8542" lon="6.2345">
        <ele>850</ele>
        <time>2021-09-01T08:01:06Z</time>
      </trkpt>
      <trkpt lat="46.85416" lon="6.23455">
        <ele>850</ele>
        <time>2021-09-01T08:01:18Z</time>
      </trkpt>
      <trkpt lat="46.85412" lon="6.23461">
        <ele>850</ele>
        <time>2021-09-01T08:01:30Z</time>
      </trkpt>
      <trkpt lat="46.85413" lon="6.23469">
        <ele>850</ele>
        <time>2021-09-01T08:01:42Z</time>
      </trkpt>
      <trkpt lat="46.85414" lon="6.23479">
        <ele>851</ele>
        <time>2021-09-01T08:01:54Z</time>
      </trkpt>
      <trkpt lat="46.85411" lon="6.2349">
        <ele>850</ele>
        <time>2021-09-01T08:02:54Z</time>
      </trkpt>
      <trkpt lat="46.85401" lon="6.23502">
        <ele>852</ele>
        <time>2021-09-01T08:03:55Z</time>
      </trkpt>
      <trkpt lat="46.85396" lon="6.23505">
        <ele>853</ele>
        <time>2021-09-01T08:04:33Z</time>
      </trkpt>
      <trkpt lat="46.85388" lon="6.23513">
        <ele>854</ele>
        <time>2021-09-01T08:04:45Z</time>
      </trkpt>
      <trkpt lat="46.85386" lon="6.23521">
        <ele>854</ele>
        <time>2021-09-01T08:04:52Z</time>
      </trkpt>
      <trkpt lat="46.85389" lon="6.23529">
        <ele>854</ele>
        <time>2021-09-01T08:04:56Z</time>
      </trkpt>
      <trkpt lat="46.85383" lon="6.2353">
        <ele>855</ele>
        <time>2021-09-01T08:05:21Z</time>
      </trkpt>
      <trkpt lat="46.85386" lon="6.23536">
        <ele>856</ele>
        <time>2021-09-01T08:05:39Z</time>
      </trkpt>
      <trkpt lat="46.85381" lon="6.23535">
        <ele>856</ele>
        <time>2021-09-01T08:06:28Z</time>
      </trkpt>
      <trkpt lat="46.85371" lon="6.23539">
        <ele>858</ele>
        <time>2021-09-01T08:06:39Z</time>
      </trkpt>
      <trkpt lat="46.85351" lon="6.23546">
        <ele>858</ele>
        <time>2021-09-01T08:06:48Z</time>
      </trkpt>
      <trkpt lat="46.85337" lon="6.23557">
        <ele>859</ele>
        <time>2021-09-01T08:06:59Z</time>
      </trkpt>
      <trkpt lat="46.8531" lon="6.2356">
        <ele>861</ele>
        <time>2021-09-01T08:07:34Z</time>
      </trkpt>
      <trkpt lat="46.85301" lon="6.23567">
        <ele>862</ele>
        <time>2021-09-01T08:07:44Z</time>
      </trkpt>
      <trkpt lat="46.85294" lon="6.23573">
        <ele>863</ele>
        <time>2021-09-01T08:07:57Z</time>
      </trkpt>
      <trkpt lat="46.8528" lon="6.23576">
        <ele>864</ele>
        <time>2021-09-01T08:08:13Z</time>
      </trkpt>
      <trkpt lat="46.85268" lon="6.23582">
        <ele>865</ele>
        <time>2021-09-01T08:08:26Z</time>
      </trkpt>
      <trkpt lat="46.85245" lon="6.23592">
        <ele>866</ele>
        <time>2021-09-01T08:08:49Z</time>
      </trkpt>
      <trkpt lat="46.85237" lon="6.23599">
        <ele>867</ele>
        <time>2021-09-01T08:09:00Z</time>
      </trkpt>
      <trkpt lat="46.8523" lon="6.23603">
        <ele>868</ele>
        <time>2021-09-01T08:09:08Z</time>
      </trkpt>
      <trkpt lat="46.85211" lon="6.23624">
        <ele>870</ele>
        <time>2021-09-01T08:09:28Z</time>
      </trkpt>
      <trkpt lat="46.85208" lon="6.23634">
        <ele>871</ele>
        <time>2021-09-01T08:09:34Z</time>
      </trkpt>
      <trkpt lat="46.85203" lon="6.23674">
        <ele>872</ele>
        <time>2021-09-01T08:09:53Z</time>
      </trkpt>
      <trkpt lat="46.85208" lon="6.23716">
        <ele>875</ele>
        <time>2021-09-01T08:10:20Z</time>
      </trkpt>
      <trkpt lat="46.85216" lon="6.23735">
        <ele>875</ele>
        <time>2021-09-01T08:10:30Z</time>
      </trkpt>
      <trkpt lat="46.85219" lon="6.23755">
        <ele>876</ele>
        <time>2021-09-01T08:10:43Z</time>
      </trkpt>
      <trkpt lat="46.85235" lon="6.23784">
        <ele>879</ele>
        <time>2021-09-01T08:11:09Z</time>
      </trkpt>
      <trkpt lat="46.85256" lon="6.23797">
        <ele>881</ele>
        <time>2021-09-01T08:11:39Z</time>
      </trkpt>
      <trkpt lat="46.85274" lon="6.23834">
        <ele>883</ele>
        <time>2021-09-01T08:12:04Z</time>
      </trkpt>
      <trkpt lat="46.85274" lon="6.23875">
        <ele>886</ele>
        <time>2021-09-01T08:12:33Z</time>
      </trkpt>
      <trkpt lat="46.85275" lon="6.23907">
        <ele>889</ele>
        <time>2021-09-01T08:12:57Z</time>
      </trkpt>
      <trkpt lat="46.85274" lon="6.23919">
        <ele>890</ele>
        <time>2021-09-01T08:13:10Z</time>
      </trkpt>
      <trkpt lat="46.85276" lon="6.2393">
        <ele>891</ele>
        <time>2021-09-01T08:13:17Z</time>
      </trkpt>
      <trkpt lat="46.85278" lon="6.23956">
        <ele>893</ele>
        <time>2021-09-01T08:13:42Z</time>
      </trkpt>
      <trkpt lat="46.85276" lon="6.23965">
        <ele>894</ele>
        <time>2021-09-01T08:13:48Z</time>
      </trkpt>
      <trkpt lat="46.85277" lon="6.23982">
        <ele>895</ele>
        <time>2021-09-01T08:14:02Z</time>
      </trkpt>
      <trkpt lat="46.85272" lon="6.23993">
        <ele>896</ele>
        <time>2021-09-01T08:14:14Z</time>
      </trkpt>
      <trkpt lat="46.85266" lon="6.23996">
        <ele>897</ele>
        <time>2021-09-01T08:14:26Z</time>
      </trkpt>
      <trkpt lat="46.85258" lon="6.23997">
        <ele>899</ele>
        <time>2021-09-01T08:14:44Z</time>
      </trkpt>
      <trkpt lat="46.85254" lon="6.23989">
        <ele>899</ele>
        <time>2021-09-01T08:14:49Z</time>
      </trkpt>
      <trkpt lat="46.8525" lon="6.23985">
        <ele>900</ele>
        <time>2021-09-01T08:14:57Z</time>
      </trkpt>
      <trkpt lat="46.85243" lon="6.23973">
        <ele>901</ele>
        <time>2021-09-01T08:15:10Z</time>
      </trkpt>
      <trkpt lat="46.8523" lon="6.23967">
        <ele>902</ele>
        <time>2021-09-01T08:15:19Z</time>
      </trkpt>
      <trkpt lat="46.85217" lon="6.23957">
        <ele>903</ele>
        <time>2021-09-01T08:15:35Z</time>
      </trkpt>
      <trkpt lat="46.85209" lon="6.23958">
        <ele>904</ele>
        <time>2021-09-01T08:15:44Z</time>
      </trkpt>
      <trkpt lat="46.85201" lon="6.23957">
        <ele>904</ele>
        <time>2021-09-01T08:15:50Z</time>
      </trkpt>
      <trkpt lat="46.85184" lon="6.23966">
        <ele>906</ele>
        <time>2021-09-01T08:16:05Z</time>
      </trkpt>
      <trkpt lat="46.85177" lon="6.23968">
        <ele>907</ele>
        <time>2021-09-01T08:16:09Z</time>
      </trkpt>
      <trkpt lat="46.85169" lon="6.23971">
        <ele>907</ele>
        <time>2021-09-01T08:16:12Z</time>
      </trkpt>
      <trkpt lat="46.85156" lon="6.23979">
        <ele>909</ele>
        <time>2021-09-01T08:16:25Z</time>
      </trkpt>
      <trkpt lat="46.85141" lon="6.23975">
        <ele>912</ele>
        <time>2021-09-01T08:16:47Z</time>
      </trkpt>
      <trkpt lat="46.85136" lon="6.23969">
        <ele>914</ele>
        <time>2021-09-01T08:17:10Z</time>
      </trkpt>
      <trkpt lat="46.85126" lon="6.23949">
        <ele>916</ele>
        <time>2021-09-01T08:17:29Z</time>
      </trkpt>
      <trkpt lat="46.85121" lon="6.23926">
        <ele>920</ele>
        <time>2021-09-01T08:18:00Z</time>
      </trkpt>
      <trkpt lat="46.85088" lon="6.23895">
        <ele>926</ele>
        <time>2021-09-01T08:18:44Z</time>
      </trkpt>
      <trkpt lat="46.85051" lon="6.23875">
        <ele>932</ele>
        <time>2021-09-01T08:19:29Z</time>
      </trkpt>
      <trkpt lat="46.85035" lon="6.2387">
        <ele>933</ele>
        <time>2021-09-01T08:19:41Z</time>
      </trkpt>
      <trkpt lat="46.85023" lon="6.23861">
        <ele>934</ele>
        <time>2021-09-01T08:19:53Z</time>
      </trkpt>
      <trkpt lat="46.85005" lon="6.23846">
        <ele>937</ele>
        <time>2021-09-01T08:20:19Z</time>
      </trkpt>
      <trkpt lat="46.84972" lon="6.2382">
        <ele>944</ele>
        <time>2021-09-01T08:21:04Z</time>
      </trkpt>
      <trkpt lat="46.84961" lon="6.23805">
        <ele>947</ele>
        <time>2021-09-01T08:21:28Z</time>
      </trkpt>
      <trkpt lat="46.8495" lon="6.23784">
        <ele>950</ele>
        <time>2021-09-01T08:21:52Z</time>
      </trkpt>
      <trkpt lat="46.8494" lon="6.23768">
        <ele>953</ele>
        <time>2021-09-01T08:22:11Z</time>
      </trkpt>
      <trkpt lat="46.84929" lon="6.23748">
        <ele>956</ele>
        <time>2021-09-01T08:22:36Z</time>
      </trkpt>
      <trkpt lat="46.84907" lon="6.23734">
        <ele>960</ele>
        <time>2021-09-01T08:23:04Z</time>
      </trkpt>
      <trkpt lat="46.84879" lon="6.23701">
        <ele>965</ele>
        <time>2021-09-01T08:23:48Z</time>
      </trkpt>
      <trkpt lat="46.84874" lon="6.23698">
        <ele>965</ele>
        <time>2021-09-01T08:23:52Z</time>
      </trkpt>
      <trkpt lat="46.84858" lon="6.23688">
        <ele>967</ele>
        <time>2021-09-01T08:24:10Z</time>
      </trkpt>
      <trkpt lat="46.84839" lon="6.23662">
        <ele>970</ele>
        <time>2021-09-01T08:24:41Z</time>
      </trkpt>
      <trkpt lat="46.84814" lon="6.23648">
        <ele>974</ele>
        <time>2021-09-01T08:25:11Z</time>
      </trkpt>
      <trkpt lat="46.84803" lon="6.2364">
        <ele>976</ele>
        <time>2021-09-01T08:25:25Z</time>
      </trkpt>
      <trkpt lat="46.84792" lon="6.23635">
        <ele>977</ele>
        <time>2021-09-01T08:25:34Z</time>
      </trkpt>
      <trkpt lat="46.8478" lon="6.23624">
        <ele>978</ele>
        <time>2021-09-01T08:25:48Z</time>
      </trkpt>
      <trkpt lat="46.84771" lon="6.23624">
        <ele>979</ele>
        <time>2021-09-01T08:26:00Z</time>
      </trkpt>
      <trkpt lat="46.84767" lon="6.2363">
        <ele>980</ele>
        <time>2021-09-01T08:26:08Z</time>
      </trkpt>
      <trkpt lat="46.84768" lon="6.23635">
        <ele>981</ele>
        <time>2021-09-01T08:27:26Z</time>
      </trkpt>
      <trkpt lat="46.84763" lon="6.2364">
        <ele>981</ele>
        <time>2021-09-01T08:28:14Z</time>
      </trkpt>
      <trkpt lat="46.84757" lon="6.23642">
        <ele>983</ele>
        <time>2021-09-01T08:31:23Z</time>
      </trkpt>
      <trkpt lat="46.84758" lon="6.23652">
        <ele>983</ele>
        <time>2021-09-01T08:31:27Z</time>
      </trkpt>
      <trkpt lat="46.8476" lon="6.23658">
        <ele>984</ele>
        <time>2021-09-01T08:31:33Z</time>
      </trkpt>
      <trkpt lat="46.84787" lon="6.2369">
        <ele>988</ele>
        <time>2021-09-01T08:32:09Z</time>
      </trkpt>
      <trkpt lat="46.84792" lon="6.23696">
        <ele>988</ele>
        <time>2021-09-01T08:32:15Z</time>
      </trkpt>
      <trkpt lat="46.84796" lon="6.23702">
        <ele>989</ele>
        <time>2021-09-01T08:32:19Z</time>
      </trkpt>
      <trkpt lat="46.84806" lon="6.23712">
        <ele>989</ele>
        <time>2021-09-01T08:32:29Z</time>
      </trkpt>
      <trkpt lat="46.84824" lon="6.23748">
        <ele>991</ele>
        <time>2021-09-01T08:33:02Z</time>
      </trkpt>
      <trkpt lat="46.84828" lon="6.23757">
        <ele>992</ele>
        <time>2021-09-01T08:33:10Z</time>
      </trkpt>
      <trkpt lat="46.84829" lon="6.23765">
        <ele>992</ele>
        <time>2021-09-01T08:33:15Z</time>
      </trkpt>
      <trkpt lat="46.84829" lon="6.2378">
        <ele>994</ele>
        <time>2021-09-01T08:33:25Z</time>
      </trkpt>
      <trkpt lat="46.8483" lon="6.23798">
        <ele>995</ele>
        <time>2021-09-01T08:33:36Z</time>
      </trkpt>
      <trkpt lat="46.8483" lon="6.23811">
        <ele>996</ele>
        <time>2021-09-01T08:33:50Z</time>
      </trkpt>
      <trkpt lat="46.84829" lon="6.2382">
        <ele>996</ele>
        <time>2021-09-01T08:33:56Z</time>
      </trkpt>
      <trkpt lat="46.84826" lon="6.23844">
        <ele>998</ele>
        <time>2021-09-01T08:34:13Z</time>
      </trkpt>
      <trkpt lat="46.84823" lon="6.23868">
        <ele>998</ele>
        <time>2021-09-01T08:34:29Z</time>
      </trkpt>
      <trkpt lat="46.84822" lon="6.23877">
        <ele>1000</ele>
        <time>2021-09-01T08:34:34Z</time>
      </trkpt>
      <trkpt lat="46.84827" lon="6.23884">
        <ele>1000</ele>
        <time>2021-09-01T08:34:48Z</time>
      </trkpt>
      <trkpt lat="46.84822" lon="6.23894">
        <ele>999</ele>
        <time>2021-09-01T08:35:03Z</time>
      </trkpt>
      <trkpt lat="46.84821" lon="6.23901">
        <ele>999</ele>
        <time>2021-09-01T08:35:07Z</time>
      </trkpt>
      <trkpt lat="46.84819" lon="6.2391">
        <ele>1000</ele>
        <time>2021-09-01T08:35:13Z</time>
      </trkpt>
      <trkpt lat="46.84817" lon="6.23917">
        <ele>1000</ele>
        <time>2021-09-01T08:35:19Z</time>
      </trkpt>
      <trkpt lat="46.84817" lon="6.23943">
        <ele>1003</ele>
        <time>2021-09-01T08:35:43Z</time>
      </trkpt>
      <trkpt lat="46.84809" lon="6.23946">
        <ele>1004</ele>
        <time>2021-09-01T08:35:53Z</time>
      </trkpt>
      <trkpt lat="46.84799" lon="6.23941">
        <ele>1005</ele>
        <time>2021-09-01T08:36:07Z</time>
      </trkpt>
      <trkpt lat="46.84791" lon="6.2393">
        <ele>1006</ele>
        <time>2021-09-01T08:36:23Z</time>
      </trkpt>
      <trkpt lat="46.8478" lon="6.23923">
        <ele>1008</ele>
        <time>2021-09-01T08:36:37Z</time>
      </trkpt>
      <trkpt lat="46.84773" lon="6.23912">
        <ele>1009</ele>
        <time>2021-09-01T08:36:51Z</time>
      </trkpt>
      <trkpt lat="46.84771" lon="6.239">
        <ele>1010</ele>
        <time>2021-09-01T08:36:56Z</time>
      </trkpt>
      <trkpt lat="46.84753" lon="6.23872">
        <ele>1013</ele>
        <time>2021-09-01T08:37:20Z</time>
      </trkpt>
      <trkpt lat="46.84748" lon="6.2387">
        <ele>1013</ele>
        <time>2021-09-01T08:37:25Z</time>
      </trkpt>
      <trkpt lat="46.84741" lon="6.23866">
        <ele>1015</ele>
        <time>2021-09-01T08:37:37Z</time>
      </trkpt>
      <trkpt lat="46.8473" lon="6.23865">
        <ele>1013</ele>
        <time>2021-09-01T08:37:54Z</time>
      </trkpt>
      <trkpt lat="46.84726" lon="6.23859">
        <ele>1013</ele>
        <time>2021-09-01T08:37:58Z</time>
      </trkpt>
      <trkpt lat="46.84719" lon="6.23855">
        <ele>1012</ele>
        <time>2021-09-01T08:38:13Z</time>
      </trkpt>
      <trkpt lat="46.84707" lon="6.23851">
        <ele>1011</ele>
        <time>2021-09-01T08:38:25Z</time>
      </trkpt>
      <trkpt lat="46.847" lon="6.23851">
        <ele>1011</ele>
        <time>2021-09-01T08:38:28Z</time>
      </trkpt>
      <trkpt lat="46.84692" lon="6.23865">
        <ele>1011</ele>
        <time>2021-09-01T08:38:42Z</time>
      </trkpt>
      <trkpt lat="46.84689" lon="6.23882">
        <ele>1012</ele>
        <time>2021-09-01T08:38:50Z</time>
      </trkpt>
      <trkpt lat="46.84688" lon="6.2389">
        <ele>1013</ele>
        <time>2021-09-01T08:38:59Z</time>
      </trkpt>
      <trkpt lat="46.84682" lon="6.23907">
        <ele>1015</ele>
        <time>2021-09-01T08:39:11Z</time>
      </trkpt>
      <trkpt lat="46.84674" lon="6.23906">
        <ele>1017</ele>
        <time>2021-09-01T08:39:25Z</time>
      </trkpt>
      <trkpt lat="46.84649" lon="6.23915">
        <ele>1021</ele>
        <time>2021-09-01T08:39:53Z</time>
      </trkpt>
      <trkpt lat="46.84638" lon="6.23915">
        <ele>1022</ele>
        <time>2021-09-01T08:40:07Z</time>
      </trkpt>
      <trkpt lat="46.8463" lon="6.23916">
        <ele>1026</ele>
        <time>2021-09-01T08:40:31Z</time>
      </trkpt>
      <trkpt lat="46.84622" lon="6.23913">
        <ele>1027</ele>
        <time>2021-09-01T08:40:39Z</time>
      </trkpt>
      <trkpt lat="46.84617" lon="6.23904">
        <ele>1028</ele>
        <time>2021-09-01T08:40:50Z</time>
      </trkpt>
      <trkpt lat="46.84609" lon="6.23901">
        <ele>1028</ele>
        <time>2021-09-01T08:40:57Z</time>
      </trkpt>
      <trkpt lat="46.84603" lon="6.23898">
        <ele>1029</ele>
        <time>2021-09-01T08:41:08Z</time>
      </trkpt>
      <trkpt lat="46.84594" lon="6.23899">
        <ele>1030</ele>
        <time>2021-09-01T08:41:21Z</time>
      </trkpt>
      <trkpt lat="46.84586" lon="6.23893">
        <ele>1032</ele>
        <time>2021-09-01T08:41:31Z</time>
      </trkpt>
      <trkpt lat="46.84577" lon="6.23889">
        <ele>1032</ele>
        <time>2021-09-01T08:41:40Z</time>
      </trkpt>
      <trkpt lat="46.84562" lon="6.23888">
        <ele>1032</ele>
        <time>2021-09-01T08:41:49Z</time>
      </trkpt>
      <trkpt lat="46.84546" lon="6.23896">
        <ele>1033</ele>
        <time>2021-09-01T08:41:57Z</time>
      </trkpt>
      <trkpt lat="46.84541" lon="6.23906">
        <ele>1033</ele>
        <time>2021-09-01T08:42:02Z</time>
      </trkpt>
      <trkpt lat="46.8454" lon="6.23916">
        <ele>1034</ele>
        <time>2021-09-01T08:42:07Z</time>
      </trkpt>
      <trkpt lat="46.84539" lon="6.23925">
        <ele>1034</ele>
        <time>2021-09-01T08:42:12Z</time>
      </trkpt>
      <trkpt lat="46.84541" lon="6.23933">
        <ele>1034</ele>
        <time>2021-09-01T08:42:16Z</time>
      </trkpt>
      <trkpt lat="46.84545" lon="6.23947">
        <ele>1035</ele>
        <time>2021-09-01T08:42:26Z</time>
      </trkpt>
      <trkpt lat="46.84549" lon="6.23951">
        <ele>1035</ele>
        <time>2021-09-01T08:42:31Z</time>
      </trkpt>
      <trkpt lat="46.84552" lon="6.2396">
        <ele>1035</ele>
        <time>2021-09-01T08:42:37Z</time>
      </trkpt>
      <trkpt lat="46.84556" lon="6.23966">
        <ele>1036</ele>
        <time>2021-09-01T08:42:40Z</time>
      </trkpt>
      <trkpt lat="46.84561" lon="6.23973">
        <ele>1036</ele>
        <time>2021-09-01T08:42:47Z</time>
      </trkpt>
      <trkpt lat="46.84576" lon="6.23979">
        <ele>1037</ele>
        <time>2021-09-01T08:43:02Z</time>
      </trkpt>
      <trkpt lat="46.84581" lon="6.23987">
        <ele>1037</ele>
        <time>2021-09-01T08:43:09Z</time>
      </trkpt>
      <trkpt lat="46.84584" lon="6.23999">
        <ele>1038</ele>
        <time>2021-09-01T08:43:19Z</time>
      </trkpt>
      <trkpt lat="46.84589" lon="6.24016">
        <ele>1038</ele>
        <time>2021-09-01T08:43:35Z</time>
      </trkpt>
      <trkpt lat="46.84595" lon="6.24023">
        <ele>1038</ele>
        <time>2021-09-01T08:43:43Z</time>
      </trkpt>
      <trkpt lat="46.84615" lon="6.24055">
        <ele>1041</ele>
        <time>2021-09-01T08:44:15Z</time>
      </trkpt>
      <trkpt lat="46.84621" lon="6.24063">
        <ele>1042</ele>
        <time>2021-09-01T08:44:21Z</time>
      </trkpt>
      <trkpt lat="46.84614" lon="6.24074">
        <ele>1043</ele>
        <time>2021-09-01T08:44:36Z</time>
      </trkpt>
      <trkpt lat="46.84606" lon="6.24086">
        <ele>1044</ele>
        <time>2021-09-01T08:44:47Z</time>
      </trkpt>
      <trkpt lat="46.84599" lon="6.24104">
        <ele>1045</ele>
        <time>2021-09-01T08:44:59Z</time>
      </trkpt>
      <trkpt lat="46.84593" lon="6.24128">
        <ele>1046</ele>
        <time>2021-09-01T08:45:12Z</time>
      </trkpt>
      <trkpt lat="46.84589" lon="6.24134">
        <ele>1047</ele>
        <time>2021-09-01T08:45:18Z</time>
      </trkpt>
      <trkpt lat="46.84585" lon="6.2414">
        <ele>1047</ele>
        <time>2021-09-01T08:45:23Z</time>
      </trkpt>
      <trkpt lat="46.84582" lon="6.24157">
        <ele>1048</ele>
        <time>2021-09-01T08:45:38Z</time>
      </trkpt>
      <trkpt lat="46.84573" lon="6.24166">
        <ele>1050</ele>
        <time>2021-09-01T08:45:56Z</time>
      </trkpt>
      <trkpt lat="46.84567" lon="6.24165">
        <ele>1049</ele>
        <time>2021-09-01T08:46:00Z</time>
      </trkpt>
      <trkpt lat="46.84552" lon="6.24154">
        <ele>1050</ele>
        <time>2021-09-01T08:46:24Z</time>
      </trkpt>
      <trkpt lat="46.84547" lon="6.24146">
        <ele>1052</ele>
        <time>2021-09-01T08:46:36Z</time>
      </trkpt>
      <trkpt lat="46.84541" lon="6.24142">
        <ele>1052</ele>
        <time>2021-09-01T08:46:43Z</time>
      </trkpt>
      <trkpt lat="46.8453" lon="6.2413">
        <ele>1052</ele>
        <time>2021-09-01T08:46:54Z</time>
      </trkpt>
      <trkpt lat="46.84527" lon="6.24123">
        <ele>1052</ele>
        <time>2021-09-01T08:47:00Z</time>
      </trkpt>
      <trkpt lat="46.84526" lon="6.24106">
        <ele>1051</ele>
        <time>2021-09-01T08:47:10Z</time>
      </trkpt>
      <trkpt lat="46.84521" lon="6.241">
        <ele>1052</ele>
        <time>2021-09-01T08:47:15Z</time>
      </trkpt>
      <trkpt lat="46.8451" lon="6.24093">
        <ele>1052</ele>
        <time>2021-09-01T08:47:26Z</time>
      </trkpt>
      <trkpt lat="46.84504" lon="6.2409">
        <ele>1053</ele>
        <time>2021-09-01T08:47:31Z</time>
      </trkpt>
      <trkpt lat="46.845" lon="6.24083">
        <ele>1053</ele>
        <time>2021-09-01T08:47:37Z</time>
      </trkpt>
      <trkpt lat="46.84487" lon="6.24064">
        <ele>1053</ele>
        <time>2021-09-01T08:48:01Z</time>
      </trkpt>
      <trkpt lat="46.84474" lon="6.2405">
        <ele>1052</ele>
        <time>2021-09-01T08:48:17Z</time>
      </trkpt>
      <trkpt lat="46.84464" lon="6.24052">
        <ele>1053</ele>
        <time>2021-09-01T08:48:36Z</time>
      </trkpt>
      <trkpt lat="46.84442" lon="6.24049">
        <ele>1058</ele>
        <time>2021-09-01T08:49:12Z</time>
      </trkpt>
      <trkpt lat="46.84427" lon="6.24047">
        <ele>1062</ele>
        <time>2021-09-01T08:49:37Z</time>
      </trkpt>
      <trkpt lat="46.84399" lon="6.24037">
        <ele>1065</ele>
        <time>2021-09-01T08:50:21Z</time>
      </trkpt>
      <trkpt lat="46.8439" lon="6.24041">
        <ele>1067</ele>
        <time>2021-09-01T08:50:36Z</time>
      </trkpt>
      <trkpt lat="46.84382" lon="6.2404">
        <ele>1069</ele>
        <time>2021-09-01T08:50:49Z</time>
      </trkpt>
      <trkpt lat="46.84376" lon="6.24035">
        <ele>1070</ele>
        <time>2021-09-01T08:51:01Z</time>
      </trkpt>
      <trkpt lat="46.84365" lon="6.24032">
        <ele>1070</ele>
        <time>2021-09-01T08:51:14Z</time>
      </trkpt>
      <trkpt lat="46.84345" lon="6.24011">
        <ele>1073</ele>
        <time>2021-09-01T08:51:38Z</time>
      </trkpt>
      <trkpt lat="46.84338" lon="6.24004">
        <ele>1075</ele>
        <time>2021-09-01T08:51:51Z</time>
      </trkpt>
      <trkpt lat="46.8433" lon="6.24003">
        <ele>1076</ele>
        <time>2021-09-01T08:52:01Z</time>
      </trkpt>
      <trkpt lat="46.84316" lon="6.23995">
        <ele>1078</ele>
        <time>2021-09-01T08:52:18Z</time>
      </trkpt>
      <trkpt lat="46.8431" lon="6.23994">
        <ele>1079</ele>
        <time>2021-09-01T08:52:25Z</time>
      </trkpt>
      <trkpt lat="46.84304" lon="6.23989">
        <ele>1080</ele>
        <time>2021-09-01T08:52:37Z</time>
      </trkpt>
      <trkpt lat="46.84297" lon="6.23978">
        <ele>1083</ele>
        <time>2021-09-01T08:53:01Z</time>
      </trkpt>
      <trkpt lat="46.84284" lon="6.23981">
        <ele>1087</ele>
        <time>2021-09-01T08:54:01Z</time>
      </trkpt>
      <trkpt lat="46.84273" lon="6.23995">
        <ele>1089</ele>
        <time>2021-09-01T08:54:30Z</time>
      </trkpt>
      <trkpt lat="46.84274" lon="6.24003">
        <ele>1089</ele>
        <time>2021-09-01T08:54:43Z</time>
      </trkpt>
      <trkpt lat="46.84269" lon="6.23999">
        <ele>1089</ele>
        <time>2021-09-01T08:55:19Z</time>
      </trkpt>
      <trkpt lat="46.84263" lon="6.23989">
        <ele>1091</ele>
        <time>2021-09-01T08:55:37Z</time>
      </trkpt>
      <trkpt lat="46.84256" lon="6.23984">
        <ele>1091</ele>
        <time>2021-09-01T08:55:45Z</time>
      </trkpt>
      <trkpt lat="46.8425" lon="6.23984">
        <ele>1093</ele>
        <time>2021-09-01T08:55:59Z</time>
      </trkpt>
      <trkpt lat="46.84246" lon="6.23993">
        <ele>1095</ele>
        <time>2021-09-01T08:56:30Z</time>
      </trkpt>
      <trkpt lat="46.84239" lon="6.23995">
        <ele>1093</ele>
        <time>2021-09-01T08:56:42Z</time>
      </trkpt>
      <trkpt lat="46.84234" lon="6.23988">
        <ele>1093</ele>
        <time>2021-09-01T08:56:50Z</time>
      </trkpt>
      <trkpt lat="46.84228" lon="6.23985">
        <ele>1093</ele>
        <time>2021-09-01T08:56:59Z</time>
      </trkpt>
      <trkpt lat="46.84228" lon="6.23969">
        <ele>1090</ele>
        <time>2021-09-01T08:57:23Z</time>
      </trkpt>
      <trkpt lat="46.84223" lon="6.23946">
        <ele>1088</ele>
        <time>2021-09-01T08:57:58Z</time>
      </trkpt>
      <trkpt lat="46.84212" lon="6.23935">
        <ele>1086</ele>
        <time>2021-09-01T08:58:13Z</time>
      </trkpt>
      <trkpt lat="46.84204" lon="6.23928">
        <ele>1085</ele>
        <time>2021-09-01T08:58:19Z</time>
      </trkpt>
      <trkpt lat="46.842" lon="6.23923">
        <ele>1085</ele>
        <time>2021-09-01T08:58:23Z</time>
      </trkpt>
      <trkpt lat="46.84193" lon="6.23919">
        <ele>1085</ele>
        <time>2021-09-01T08:58:29Z</time>
      </trkpt>
      <trkpt lat="46.84177" lon="6.23921">
        <ele>1086</ele>
        <time>2021-09-01T08:58:42Z</time>
      </trkpt>
      <trkpt lat="46.84174" lon="6.23931">
        <ele>1086</ele>
        <time>2021-09-01T08:59:00Z</time>
      </trkpt>
      <trkpt lat="46.84159" lon="6.23913">
        <ele>1086</ele>
        <time>2021-09-01T08:59:53Z</time>
      </trkpt>
      <trkpt lat="46.84151" lon="6.23901">
        <ele>1085</ele>
        <time>2021-09-01T09:00:04Z</time>
      </trkpt>
      <trkpt lat="46.84145" lon="6.23896">
        <ele>1085</ele>
        <time>2021-09-01T09:00:11Z</time>
      </trkpt>
      <trkpt lat="46.84131" lon="6.23887">
        <ele>1085</ele>
        <time>2021-09-01T09:00:22Z</time>
      </trkpt>
      <trkpt lat="46.84126" lon="6.23887">
        <ele>1085</ele>
        <time>2021-09-01T09:00:26Z</time>
      </trkpt>
      <trkpt lat="46.84112" lon="6.23885">
        <ele>1086</ele>
        <time>2021-09-01T09:00:41Z</time>
      </trkpt>
      <trkpt lat="46.84107" lon="6.23892">
        <ele>1086</ele>
        <time>2021-09-01T09:00:57Z</time>
      </trkpt>
      <trkpt lat="46.84099" lon="6.2389">
        <ele>1086</ele>
        <time>2021-09-01T09:01:27Z</time>
      </trkpt>
      <trkpt lat="46.84095" lon="6.23881">
        <ele>1087</ele>
        <time>2021-09-01T09:02:03Z</time>
      </trkpt>
      <trkpt lat="46.84088" lon="6.23881">
        <ele>1087</ele>
        <time>2021-09-01T09:02:15Z</time>
      </trkpt>
      <trkpt lat="46.8409" lon="6.23881">
        <ele>1086</ele>
        <time>2021-09-01T09:03:33Z</time>
      </trkpt>
      <trkpt lat="46.84088" lon="6.23869">
        <ele>1087</ele>
        <time>2021-09-01T09:04:21Z</time>
      </trkpt>
      <trkpt lat="46.84082" lon="6.23857">
        <ele>1087</ele>
        <time>2021-09-01T09:04:31Z</time>
      </trkpt>
      <trkpt lat="46.84076" lon="6.23842">
        <ele>1088</ele>
        <time>2021-09-01T09:04:42Z</time>
      </trkpt>
      <trkpt lat="46.84071" lon="6.23832">
        <ele>1087</ele>
        <time>2021-09-01T09:04:52Z</time>
      </trkpt>
      <trkpt lat="46.84068" lon="6.23821">
        <ele>1086</ele>
        <time>2021-09-01T09:05:05Z</time>
      </trkpt>
      <trkpt lat="46.84061" lon="6.23805">
        <ele>1085</ele>
        <time>2021-09-01T09:05:14Z</time>
      </trkpt>
      <trkpt lat="46.84054" lon="6.23789">
        <ele>1085</ele>
        <time>2021-09-01T09:05:28Z</time>
      </trkpt>
      <trkpt lat="46.84051" lon="6.23779">
        <ele>1084</ele>
        <time>2021-09-01T09:05:37Z</time>
      </trkpt>
      <trkpt lat="46.84046" lon="6.23768">
        <ele>1083</ele>
        <time>2021-09-01T09:05:45Z</time>
      </trkpt>
      <trkpt lat="46.84036" lon="6.23759">
        <ele>1083</ele>
        <time>2021-09-01T09:05:55Z</time>
      </trkpt>
      <trkpt lat="46.84032" lon="6.23754">
        <ele>1082</ele>
        <time>2021-09-01T09:06:03Z</time>
      </trkpt>
      <trkpt lat="46.84029" lon="6.23745">
        <ele>1081</ele>
        <time>2021-09-01T09:06:10Z</time>
      </trkpt>
      <trkpt lat="46.84019" lon="6.23737">
        <ele>1081</ele>
        <time>2021-09-01T09:06:19Z</time>
      </trkpt>
      <trkpt lat="46.84015" lon="6.2373">
        <ele>1081</ele>
        <time>2021-09-01T09:06:24Z</time>
      </trkpt>
      <trkpt lat="46.84012" lon="6.23723">
        <ele>1081</ele>
        <time>2021-09-01T09:06:29Z</time>
      </trkpt>
      <trkpt lat="46.83997" lon="6.23698">
        <ele>1083</ele>
        <time>2021-09-01T09:06:51Z</time>
      </trkpt>
      <trkpt lat="46.83991" lon="6.23694">
        <ele>1084</ele>
        <time>2021-09-01T09:07:01Z</time>
      </trkpt>
      <trkpt lat="46.83987" lon="6.23688">
        <ele>1085</ele>
        <time>2021-09-01T09:07:07Z</time>
      </trkpt>
      <trkpt lat="46.83977" lon="6.23673">
        <ele>1086</ele>
        <time>2021-09-01T09:07:21Z</time>
      </trkpt>
      <trkpt lat="46.83965" lon="6.23654">
        <ele>1086</ele>
        <time>2021-09-01T09:07:38Z</time>
      </trkpt>
      <trkpt lat="46.8396" lon="6.2364">
        <ele>1087</ele>
        <time>2021-09-01T09:07:49Z</time>
      </trkpt>
      <trkpt lat="46.83957" lon="6.23627">
        <ele>1086</ele>
        <time>2021-09-01T09:07:59Z</time>
      </trkpt>
      <trkpt lat="46.83953" lon="6.23599">
        <ele>1086</ele>
        <time>2021-09-01T09:08:19Z</time>
      </trkpt>
      <trkpt lat="46.83947" lon="6.23583">
        <ele>1086</ele>
        <time>2021-09-01T09:08:31Z</time>
      </trkpt>
      <trkpt lat="46.83943" lon="6.23576">
        <ele>1086</ele>
        <time>2021-09-01T09:08:37Z</time>
      </trkpt>
      <trkpt lat="46.83942" lon="6.23568">
        <ele>1087</ele>
        <time>2021-09-01T09:08:42Z</time>
      </trkpt>
      <trkpt lat="46.83939" lon="6.23563">
        <ele>1088</ele>
        <time>2021-09-01T09:08:50Z</time>
      </trkpt>
      <trkpt lat="46.83928" lon="6.23547">
        <ele>1088</ele>
        <time>2021-09-01T09:09:03Z</time>
      </trkpt>
      <trkpt lat="46.83917" lon="6.23546">
        <ele>1090</ele>
        <time>2021-09-01T09:09:20Z</time>
      </trkpt>
      <trkpt lat="46.8391" lon="6.23547">
        <ele>1090</ele>
        <time>2021-09-01T09:09:38Z</time>
      </trkpt>
      <trkpt lat="46.83897" lon="6.23533">
        <ele>1090</ele>
        <time>2021-09-01T09:09:51Z</time>
      </trkpt>
      <trkpt lat="46.83889" lon="6.23529">
        <ele>1091</ele>
        <time>2021-09-01T09:09:57Z</time>
      </trkpt>
      <trkpt lat="46.83883" lon="6.23519">
        <ele>1091</ele>
        <time>2021-09-01T09:10:02Z</time>
      </trkpt>
      <trkpt lat="46.83876" lon="6.23516">
        <ele>1091</ele>
        <time>2021-09-01T09:10:07Z</time>
      </trkpt>
      <trkpt lat="46.83866" lon="6.23503">
        <ele>1092</ele>
        <time>2021-09-01T09:10:14Z</time>
      </trkpt>
      <trkpt lat="46.83861" lon="6.235">
        <ele>1092</ele>
        <time>2021-09-01T09:10:18Z</time>
      </trkpt>
      <trkpt lat="46.83854" lon="6.23496">
        <ele>1091</ele>
        <time>2021-09-01T09:10:22Z</time>
      </trkpt>
      <trkpt lat="46.83849" lon="6.23492">
        <ele>1093</ele>
        <time>2021-09-01T09:10:26Z</time>
      </trkpt>
      <trkpt lat="46.83843" lon="6.2348">
        <ele>1091</ele>
        <time>2021-09-01T09:10:37Z</time>
      </trkpt>
      <trkpt lat="46.83839" lon="6.23473">
        <ele>1090</ele>
        <time>2021-09-01T09:10:42Z</time>
      </trkpt>
      <trkpt lat="46.83836" lon="6.23465">
        <ele>1089</ele>
        <time>2021-09-01T09:10:51Z</time>
      </trkpt>
      <trkpt lat="46.83829" lon="6.23462">
        <ele>1088</ele>
        <time>2021-09-01T09:10:57Z</time>
      </trkpt>
      <trkpt lat="46.83825" lon="6.23456">
        <ele>1088</ele>
        <time>2021-09-01T09:11:02Z</time>
      </trkpt>
      <trkpt lat="46.83813" lon="6.23451">
        <ele>1088</ele>
        <time>2021-09-01T09:11:13Z</time>
      </trkpt>
      <trkpt lat="46.83811" lon="6.23443">
        <ele>1087</ele>
        <time>2021-09-01T09:11:21Z</time>
      </trkpt>
      <trkpt lat="46.83803" lon="6.2343">
        <ele>1086</ele>
        <time>2021-09-01T09:11:32Z</time>
      </trkpt>
      <trkpt lat="46.83797" lon="6.23421">
        <ele>1087</ele>
        <time>2021-09-01T09:11:46Z</time>
      </trkpt>
      <trkpt lat="46.83791" lon="6.23414">
        <ele>1090</ele>
        <time>2021-09-01T09:12:00Z</time>
      </trkpt>
      <trkpt lat="46.83782" lon="6.23409">
        <ele>1091</ele>
        <time>2021-09-01T09:12:14Z</time>
      </trkpt>
      <trkpt lat="46.83771" lon="6.23404">
        <ele>1091</ele>
        <time>2021-09-01T09:12:24Z</time>
      </trkpt>
      <trkpt lat="46.83765" lon="6.23402">
        <ele>1091</ele>
        <time>2021-09-01T09:12:28Z</time>
      </trkpt>
      <trkpt lat="46.8376" lon="6.23397">
        <ele>1091</ele>
        <time>2021-09-01T09:12:33Z</time>
      </trkpt>
      <trkpt lat="46.83756" lon="6.23389">
        <ele>1090</ele>
        <time>2021-09-01T09:12:43Z</time>
      </trkpt>
      <trkpt lat="46.83738" lon="6.23382">
        <ele>1087</ele>
        <time>2021-09-01T09:13:07Z</time>
      </trkpt>
      <trkpt lat="46.83733" lon="6.23382">
        <ele>1087</ele>
        <time>2021-09-01T09:13:15Z</time>
      </trkpt>
      <trkpt lat="46.83708" lon="6.23379">
        <ele>1085</ele>
        <time>2021-09-01T09:13:37Z</time>
      </trkpt>
      <trkpt lat="46.83703" lon="6.23374">
        <ele>1084</ele>
        <time>2021-09-01T09:13:45Z</time>
      </trkpt>
      <trkpt lat="46.83698" lon="6.23369">
        <ele>1082</ele>
        <time>2021-09-01T09:13:55Z</time>
      </trkpt>
      <trkpt lat="46.83684" lon="6.23353">
        <ele>1081</ele>
        <time>2021-09-01T09:14:13Z</time>
      </trkpt>
      <trkpt lat="46.8368" lon="6.23345">
        <ele>1081</ele>
        <time>2021-09-01T09:14:18Z</time>
      </trkpt>
      <trkpt lat="46.8368" lon="6.23338">
        <ele>1081</ele>
        <time>2021-09-01T09:14:24Z</time>
      </trkpt>
      <trkpt lat="46.83671" lon="6.23321">
        <ele>1082</ele>
        <time>2021-09-01T09:14:38Z</time>
      </trkpt>
      <trkpt lat="46.83666" lon="6.23315">
        <ele>1082</ele>
        <time>2021-09-01T09:14:44Z</time>
      </trkpt>
      <trkpt lat="46.83658" lon="6.23296">
        <ele>1082</ele>
        <time>2021-09-01T09:14:57Z</time>
      </trkpt>
      <trkpt lat="46.83653" lon="6.23291">
        <ele>1082</ele>
        <time>2021-09-01T09:15:01Z</time>
      </trkpt>
      <trkpt lat="46.8364" lon="6.23278">
        <ele>1080</ele>
        <time>2021-09-01T09:15:16Z</time>
      </trkpt>
      <trkpt lat="46.83625" lon="6.23257">
        <ele>1077</ele>
        <time>2021-09-01T09:15:38Z</time>
      </trkpt>
      <trkpt lat="46.83624" lon="6.23236">
        <ele>1075</ele>
        <time>2021-09-01T09:15:57Z</time>
      </trkpt>
      <trkpt lat="46.83619" lon="6.23229">
        <ele>1074</ele>
        <time>2021-09-01T09:16:06Z</time>
      </trkpt>
      <trkpt lat="46.83616" lon="6.23215">
        <ele>1073</ele>
        <time>2021-09-01T09:16:18Z</time>
      </trkpt>
      <trkpt lat="46.83615" lon="6.23207">
        <ele>1072</ele>
        <time>2021-09-01T09:16:32Z</time>
      </trkpt>
      <trkpt lat="46.83614" lon="6.23176">
        <ele>1070</ele>
        <time>2021-09-01T09:17:10Z</time>
      </trkpt>
      <trkpt lat="46.83606" lon="6.23164">
        <ele>1070</ele>
        <time>2021-09-01T09:17:23Z</time>
      </trkpt>
      <trkpt lat="46.83601" lon="6.23158">
        <ele>1070</ele>
        <time>2021-09-01T09:17:29Z</time>
      </trkpt>
      <trkpt lat="46.83597" lon="6.23151">
        <ele>1070</ele>
        <time>2021-09-01T09:17:32Z</time>
      </trkpt>
      <trkpt lat="46.83592" lon="6.23145">
        <ele>1070</ele>
        <time>2021-09-01T09:17:37Z</time>
      </trkpt>
      <trkpt lat="46.83587" lon="6.23143">
        <ele>1070</ele>
        <time>2021-09-01T09:17:43Z</time>
      </trkpt>
      <trkpt lat="46.83579" lon="6.23137">
        <ele>1068</ele>
        <time>2021-09-01T09:17:56Z</time>
      </trkpt>
      <trkpt lat="46.83575" lon="6.23128">
        <ele>1066</ele>
        <time>2021-09-01T09:18:15Z</time>
      </trkpt>
      <trkpt lat="46.83566" lon="6.23112">
        <ele>1065</ele>
        <time>2021-09-01T09:18:26Z</time>
      </trkpt>
      <trkpt lat="46.83563" lon="6.23102">
        <ele>1064</ele>
        <time>2021-09-01T09:18:32Z</time>
      </trkpt>
      <trkpt lat="46.8356" lon="6.23094">
        <ele>1064</ele>
        <time>2021-09-01T09:18:36Z</time>
      </trkpt>
      <trkpt lat="46.83553" lon="6.23063">
        <ele>1062</ele>
        <time>2021-09-01T09:18:53Z</time>
      </trkpt>
      <trkpt lat="46.83543" lon="6.23041">
        <ele>1061</ele>
        <time>2021-09-01T09:19:14Z</time>
      </trkpt>
      <trkpt lat="46.83533" lon="6.23027">
        <ele>1058</ele>
        <time>2021-09-01T09:19:29Z</time>
      </trkpt>
      <trkpt lat="46.83538" lon="6.23023">
        <ele>1056</ele>
        <time>2021-09-01T09:19:47Z</time>
      </trkpt>
      <trkpt lat="46.83542" lon="6.23014">
        <ele>1055</ele>
        <time>2021-09-01T09:19:59Z</time>
      </trkpt>
      <trkpt lat="46.83548" lon="6.2301">
        <ele>1054</ele>
        <time>2021-09-01T09:20:05Z</time>
      </trkpt>
      <trkpt lat="46.83558" lon="6.22998">
        <ele>1054</ele>
        <time>2021-09-01T09:20:19Z</time>
      </trkpt>
      <trkpt lat="46.83563" lon="6.22994">
        <ele>1053</ele>
        <time>2021-09-01T09:20:25Z</time>
      </trkpt>
      <trkpt lat="46.83567" lon="6.22986">
        <ele>1051</ele>
        <time>2021-09-01T09:20:34Z</time>
      </trkpt>
      <trkpt lat="46.83581" lon="6.22974">
        <ele>1047</ele>
        <time>2021-09-01T09:20:56Z</time>
      </trkpt>
      <trkpt lat="46.83595" lon="6.22971">
        <ele>1045</ele>
        <time>2021-09-01T09:21:08Z</time>
      </trkpt>
      <trkpt lat="46.8361" lon="6.22955">
        <ele>1041</ele>
        <time>2021-09-01T09:21:28Z</time>
      </trkpt>
      <trkpt lat="46.83623" lon="6.22952">
        <ele>1038</ele>
        <time>2021-09-01T09:21:42Z</time>
      </trkpt>
      <trkpt lat="46.83644" lon="6.22936">
        <ele>1033</ele>
        <time>2021-09-01T09:22:06Z</time>
      </trkpt>
      <trkpt lat="46.83664" lon="6.22891">
        <ele>1025</ele>
        <time>2021-09-01T09:22:39Z</time>
      </trkpt>
      <trkpt lat="46.83664" lon="6.22876">
        <ele>1025</ele>
        <time>2021-09-01T09:22:47Z</time>
      </trkpt>
      <trkpt lat="46.83665" lon="6.22868">
        <ele>1024</ele>
        <time>2021-09-01T09:22:53Z</time>
      </trkpt>
      <trkpt lat="46.83667" lon="6.22857">
        <ele>1023</ele>
        <time>2021-09-01T09:23:07Z</time>
      </trkpt>
      <trkpt lat="46.83678" lon="6.22834">
        <ele>1019</ele>
        <time>2021-09-01T09:23:33Z</time>
      </trkpt>
      <trkpt lat="46.83681" lon="6.22822">
        <ele>1017</ele>
        <time>2021-09-01T09:23:46Z</time>
      </trkpt>
      <trkpt lat="46.83688" lon="6.22804">
        <ele>1015</ele>
        <time>2021-09-01T09:24:00Z</time>
      </trkpt>
      <trkpt lat="46.83701" lon="6.22817">
        <ele>1014</ele>
        <time>2021-09-01T09:24:15Z</time>
      </trkpt>
      <trkpt lat="46.83707" lon="6.22826">
        <ele>1014</ele>
        <time>2021-09-01T09:24:18Z</time>
      </trkpt>
      <trkpt lat="46.83712" lon="6.22814">
        <ele>1013</ele>
        <time>2021-09-01T09:24:23Z</time>
      </trkpt>
      <trkpt lat="46.83715" lon="6.22807">
        <ele>1015</ele>
        <time>2021-09-01T09:24:31Z</time>
      </trkpt>
      <trkpt lat="46.83719" lon="6.22784">
        <ele>1015</ele>
        <time>2021-09-01T09:24:51Z</time>
      </trkpt>
      <trkpt lat="46.83712" lon="6.22773">
        <ele>1016</ele>
        <time>2021-09-01T09:27:11Z</time>
      </trkpt>
      <trkpt lat="46.83712" lon="6.22748">
        <ele>1017</ele>
        <time>2021-09-01T09:29:54Z</time>
      </trkpt>
      <trkpt lat="46.83703" lon="6.2273">
        <ele>1016</ele>
        <time>2021-09-01T09:30:07Z</time>
      </trkpt>
      <trkpt lat="46.83702" lon="6.22721">
        <ele>1016</ele>
        <time>2021-09-01T09:30:12Z</time>
      </trkpt>
      <trkpt lat="46.83692" lon="6.22707">
        <ele>1016</ele>
        <time>2021-09-01T09:30:26Z</time>
      </trkpt>
      <trkpt lat="46.83687" lon="6.22706">
        <ele>1015</ele>
        <time>2021-09-01T09:30:31Z</time>
      </trkpt>
      <trkpt lat="46.83681" lon="6.22702">
        <ele>1015</ele>
        <time>2021-09-01T09:30:38Z</time>
      </trkpt>
      <trkpt lat="46.83668" lon="6.22678">
        <ele>1015</ele>
        <time>2021-09-01T09:30:57Z</time>
      </trkpt>
      <trkpt lat="46.83651" lon="6.22661">
        <ele>1015</ele>
        <time>2021-09-01T09:31:12Z</time>
      </trkpt>
      <trkpt lat="46.83637" lon="6.2265">
        <ele>1015</ele>
        <time>2021-09-01T09:31:24Z</time>
      </trkpt>
      <trkpt lat="46.83628" lon="6.22633">
        <ele>1015</ele>
        <time>2021-09-01T09:31:36Z</time>
      </trkpt>
      <trkpt lat="46.83621" lon="6.22625">
        <ele>1015</ele>
        <time>2021-09-01T09:31:41Z</time>
      </trkpt>
      <trkpt lat="46.836" lon="6.22613">
        <ele>1015</ele>
        <time>2021-09-01T09:31:59Z</time>
      </trkpt>
      <trkpt lat="46.83588" lon="6.22598">
        <ele>1015</ele>
        <time>2021-09-01T09:32:11Z</time>
      </trkpt>
      <trkpt lat="46.83579" lon="6.22596">
        <ele>1016</ele>
        <time>2021-09-01T09:32:20Z</time>
      </trkpt>
      <trkpt lat="46.83563" lon="6.22594">
        <ele>1015</ele>
        <time>2021-09-01T09:32:34Z</time>
      </trkpt>
      <trkpt lat="46.83552" lon="6.22579">
        <ele>1015</ele>
        <time>2021-09-01T09:32:45Z</time>
      </trkpt>
      <trkpt lat="46.83534" lon="6.22573">
        <ele>1017</ele>
        <time>2021-09-01T09:32:56Z</time>
      </trkpt>
      <trkpt lat="46.83505" lon="6.22566">
        <ele>1020</ele>
        <time>2021-09-01T09:33:20Z</time>
      </trkpt>
      <trkpt lat="46.83491" lon="6.22561">
        <ele>1021</ele>
        <time>2021-09-01T09:33:31Z</time>
      </trkpt>
      <trkpt lat="46.83473" lon="6.22542">
        <ele>1023</ele>
        <time>2021-09-01T09:33:49Z</time>
      </trkpt>
      <trkpt lat="46.83463" lon="6.22522">
        <ele>1025</ele>
        <time>2021-09-01T09:34:11Z</time>
      </trkpt>
      <trkpt lat="46.83434" lon="6.22515">
        <ele>1027</ele>
        <time>2021-09-01T09:34:58Z</time>
      </trkpt>
      <trkpt lat="46.83392" lon="6.22504">
        <ele>1034</ele>
        <time>2021-09-01T09:35:47Z</time>
      </trkpt>
      <trkpt lat="46.83374" lon="6.225">
        <ele>1037</ele>
        <time>2021-09-01T09:36:02Z</time>
      </trkpt>
      <trkpt lat="46.83359" lon="6.2249">
        <ele>1038</ele>
        <time>2021-09-01T09:36:16Z</time>
      </trkpt>
      <trkpt lat="46.8333" lon="6.22488">
        <ele>1042</ele>
        <time>2021-09-01T09:36:47Z</time>
      </trkpt>
      <trkpt lat="46.83291" lon="6.22494">
        <ele>1046</ele>
        <time>2021-09-01T09:37:23Z</time>
      </trkpt>
      <trkpt lat="46.83282" lon="6.22493">
        <ele>1046</ele>
        <time>2021-09-01T09:37:34Z</time>
      </trkpt>
      <trkpt lat="46.83276" lon="6.22489">
        <ele>1045</ele>
        <time>2021-09-01T09:37:48Z</time>
      </trkpt>
      <trkpt lat="46.83264" lon="6.22485">
        <ele>1045</ele>
        <time>2021-09-01T09:38:19Z</time>
      </trkpt>
      <trkpt lat="46.8326" lon="6.22486">
        <ele>1046</ele>
        <time>2021-09-01T09:38:25Z</time>
      </trkpt>
      <trkpt lat="46.83254" lon="6.22489">
        <ele>1047</ele>
        <time>2021-09-01T09:38:31Z</time>
      </trkpt>
      <trkpt lat="46.83248" lon="6.22494">
        <ele>1048</ele>
        <time>2021-09-01T09:38:38Z</time>
      </trkpt>
      <trkpt lat="46.83242" lon="6.22496">
        <ele>1048</ele>
        <time>2021-09-01T09:38:42Z</time>
      </trkpt>
      <trkpt lat="46.83231" lon="6.22502">
        <ele>1049</ele>
        <time>2021-09-01T09:38:53Z</time>
      </trkpt>
      <trkpt lat="46.83225" lon="6.22502">
        <ele>1049</ele>
        <time>2021-09-01T09:39:02Z</time>
      </trkpt>
      <trkpt lat="46.83222" lon="6.22501">
        <ele>1049</ele>
        <time>2021-09-01T09:39:06Z</time>
      </trkpt>
      <trkpt lat="46.83214" lon="6.22502">
        <ele>1048</ele>
        <time>2021-09-01T09:39:15Z</time>
      </trkpt>
      <trkpt lat="46.83207" lon="6.22499">
        <ele>1048</ele>
        <time>2021-09-01T09:39:19Z</time>
      </trkpt>
      <trkpt lat="46.83203" lon="6.22495">
        <ele>1048</ele>
        <time>2021-09-01T09:39:24Z</time>
      </trkpt>
      <trkpt lat="46.83197" lon="6.22493">
        <ele>1047</ele>
        <time>2021-09-01T09:39:36Z</time>
      </trkpt>
      <trkpt lat="46.83191" lon="6.2249">
        <ele>1047</ele>
        <time>2021-09-01T09:39:50Z</time>
      </trkpt>
      <trkpt lat="46.83187" lon="6.22481">
        <ele>1047</ele>
        <time>2021-09-01T09:39:59Z</time>
      </trkpt>
      <trkpt lat="46.83182" lon="6.22473">
        <ele>1047</ele>
        <time>2021-09-01T09:40:05Z</time>
      </trkpt>
      <trkpt lat="46.83184" lon="6.22476">
        <ele>1047</ele>
        <time>2021-09-01T09:40:32Z</time>
      </trkpt>
      <trkpt lat="46.83188" lon="6.22482">
        <ele>1047</ele>
        <time>2021-09-01T09:40:38Z</time>
      </trkpt>
      <trkpt lat="46.83195" lon="6.22495">
        <ele>1047</ele>
        <time>2021-09-01T09:40:48Z</time>
      </trkpt>
      <trkpt lat="46.83188" lon="6.22502">
        <ele>1048</ele>
        <time>2021-09-01T09:41:03Z</time>
      </trkpt>
      <trkpt lat="46.83178" lon="6.22516">
        <ele>1048</ele>
        <time>2021-09-01T09:41:17Z</time>
      </trkpt>
      <trkpt lat="46.83172" lon="6.22525">
        <ele>1048</ele>
        <time>2021-09-01T09:41:27Z</time>
      </trkpt>
      <trkpt lat="46.83166" lon="6.22535">
        <ele>1048</ele>
        <time>2021-09-01T09:41:38Z</time>
      </trkpt>
      <trkpt lat="46.83159" lon="6.22549">
        <ele>1048</ele>
        <time>2021-09-01T09:41:49Z</time>
      </trkpt>
      <trkpt lat="46.83155" lon="6.22556">
        <ele>1048</ele>
        <time>2021-09-01T09:41:56Z</time>
      </trkpt>
      <trkpt lat="46.83154" lon="6.22564">
        <ele>1048</ele>
        <time>2021-09-01T09:42:03Z</time>
      </trkpt>
      <trkpt lat="46.83151" lon="6.22575">
        <ele>1047</ele>
        <time>2021-09-01T09:42:15Z</time>
      </trkpt>
      <trkpt lat="46.83143" lon="6.22583">
        <ele>1045</ele>
        <time>2021-09-01T09:42:28Z</time>
      </trkpt>
      <trkpt lat="46.83133" lon="6.22583">
        <ele>1043</ele>
        <time>2021-09-01T09:42:46Z</time>
      </trkpt>
      <trkpt lat="46.83128" lon="6.22589">
        <ele>1041</ele>
        <time>2021-09-01T09:43:04Z</time>
      </trkpt>
      <trkpt lat="46.8312" lon="6.22585">
        <ele>1041</ele>
        <time>2021-09-01T09:43:12Z</time>
      </trkpt>
      <trkpt lat="46.83115" lon="6.22579">
        <ele>1040</ele>
        <time>2021-09-01T09:43:27Z</time>
      </trkpt>
      <trkpt lat="46.83107" lon="6.22585">
        <ele>1040</ele>
        <time>2021-09-01T09:43:33Z</time>
      </trkpt>
      <trkpt lat="46.83097" lon="6.22594">
        <ele>1039</ele>
        <time>2021-09-01T09:43:48Z</time>
      </trkpt>
      <trkpt lat="46.83096" lon="6.22603">
        <ele>1038</ele>
        <time>2021-09-01T09:43:52Z</time>
      </trkpt>
      <trkpt lat="46.83095" lon="6.22637">
        <ele>1034</ele>
        <time>2021-09-01T09:44:19Z</time>
      </trkpt>
      <trkpt lat="46.83103" lon="6.2266">
        <ele>1033</ele>
        <time>2021-09-01T09:44:48Z</time>
      </trkpt>
      <trkpt lat="46.83118" lon="6.22672">
        <ele>1033</ele>
        <time>2021-09-01T09:45:14Z</time>
      </trkpt>
      <trkpt lat="46.83123" lon="6.22691">
        <ele>1033</ele>
        <time>2021-09-01T09:45:36Z</time>
      </trkpt>
      <trkpt lat="46.83108" lon="6.22653">
        <ele>1034</ele>
        <time>2021-09-01T09:48:25Z</time>
      </trkpt>
      <trkpt lat="46.83098" lon="6.22609">
        <ele>1037</ele>
        <time>2021-09-01T09:48:52Z</time>
      </trkpt>
      <trkpt lat="46.83121" lon="6.22607">
        <ele>1042</ele>
        <time>2021-09-01T09:49:40Z</time>
      </trkpt>
      <trkpt lat="46.83141" lon="6.22615">
        <ele>1044</ele>
        <time>2021-09-01T09:50:07Z</time>
      </trkpt>
      <trkpt lat="46.83153" lon="6.22594">
        <ele>1047</ele>
        <time>2021-09-01T09:50:25Z</time>
      </trkpt>
      <trkpt lat="46.83156" lon="6.22586">
        <ele>1047</ele>
        <time>2021-09-01T09:50:28Z</time>
      </trkpt>
      <trkpt lat="46.83158" lon="6.22569">
        <ele>1048</ele>
        <time>2021-09-01T09:50:38Z</time>
      </trkpt>
      <trkpt lat="46.8316" lon="6.22561">
        <ele>1048</ele>
        <time>2021-09-01T09:50:43Z</time>
      </trkpt>
      <trkpt lat="46.83168" lon="6.22545">
        <ele>1048</ele>
        <time>2021-09-01T09:50:58Z</time>
      </trkpt>
      <trkpt lat="46.83183" lon="6.22519">
        <ele>1047</ele>
        <time>2021-09-01T09:51:23Z</time>
      </trkpt>
      <trkpt lat="46.83189" lon="6.22513">
        <ele>1048</ele>
        <time>2021-09-01T09:51:31Z</time>
      </trkpt>
      <trkpt lat="46.83205" lon="6.22511">
        <ele>1048</ele>
        <time>2021-09-01T09:51:47Z</time>
      </trkpt>
      <trkpt lat="46.83215" lon="6.22515">
        <ele>1048</ele>
        <time>2021-09-01T09:51:58Z</time>
      </trkpt>
      <trkpt lat="46.83219" lon="6.22518">
        <ele>1048</ele>
        <time>2021-09-01T09:52:02Z</time>
      </trkpt>
      <trkpt lat="46.83228" lon="6.22518">
        <ele>1048</ele>
        <time>2021-09-01T09:52:10Z</time>
      </trkpt>
      <trkpt lat="46.8324" lon="6.22512">
        <ele>1047</ele>
        <time>2021-09-01T09:52:23Z</time>
      </trkpt>
      <trkpt lat="46.83247" lon="6.22511">
        <ele>1047</ele>
        <time>2021-09-01T09:52:32Z</time>
      </trkpt>
      <trkpt lat="46.83254" lon="6.22508">
        <ele>1046</ele>
        <time>2021-09-01T09:52:44Z</time>
      </trkpt>
      <trkpt lat="46.83267" lon="6.22506">
        <ele>1044</ele>
        <time>2021-09-01T09:52:57Z</time>
      </trkpt>
      <trkpt lat="46.8327" lon="6.22497">
        <ele>1044</ele>
        <time>2021-09-01T09:53:02Z</time>
      </trkpt>
      <trkpt lat="46.83269" lon="6.22488">
        <ele>1044</ele>
        <time>2021-09-01T09:53:05Z</time>
      </trkpt>
      <trkpt lat="46.83266" lon="6.2248">
        <ele>1044</ele>
        <time>2021-09-01T09:53:08Z</time>
      </trkpt>
      <trkpt lat="46.83265" lon="6.22472">
        <ele>1044</ele>
        <time>2021-09-01T09:53:13Z</time>
      </trkpt>
      <trkpt lat="46.83266" lon="6.22461">
        <ele>1044</ele>
        <time>2021-09-01T09:53:23Z</time>
      </trkpt>
      <trkpt lat="46.83265" lon="6.22416">
        <ele>1042</ele>
        <time>2021-09-01T09:53:50Z</time>
      </trkpt>
      <trkpt lat="46.8327" lon="6.22383">
        <ele>1043</ele>
        <time>2021-09-01T09:54:09Z</time>
      </trkpt>
      <trkpt lat="46.83272" lon="6.22375">
        <ele>1043</ele>
        <time>2021-09-01T09:54:14Z</time>
      </trkpt>
      <trkpt lat="46.83279" lon="6.22361">
        <ele>1044</ele>
        <time>2021-09-01T09:54:25Z</time>
      </trkpt>
      <trkpt lat="46.8328" lon="6.2235">
        <ele>1043</ele>
        <time>2021-09-01T09:54:33Z</time>
      </trkpt>
      <trkpt lat="46.83286" lon="6.22324">
        <ele>1043</ele>
        <time>2021-09-01T09:54:51Z</time>
      </trkpt>
      <trkpt lat="46.83285" lon="6.22312">
        <ele>1043</ele>
        <time>2021-09-01T09:54:59Z</time>
      </trkpt>
      <trkpt lat="46.83282" lon="6.22303">
        <ele>1043</ele>
        <time>2021-09-01T09:55:05Z</time>
      </trkpt>
      <trkpt lat="46.83277" lon="6.22297">
        <ele>1042</ele>
        <time>2021-09-01T09:55:10Z</time>
      </trkpt>
      <trkpt lat="46.83274" lon="6.2229">
        <ele>1042</ele>
        <time>2021-09-01T09:55:14Z</time>
      </trkpt>
      <trkpt lat="46.83272" lon="6.22282">
        <ele>1042</ele>
        <time>2021-09-01T09:55:19Z</time>
      </trkpt>
      <trkpt lat="46.83269" lon="6.22276">
        <ele>1042</ele>
        <time>2021-09-01T09:55:24Z</time>
      </trkpt>
      <trkpt lat="46.83265" lon="6.2227">
        <ele>1042</ele>
        <time>2021-09-01T09:55:28Z</time>
      </trkpt>
      <trkpt lat="46.83256" lon="6.22259">
        <ele>1042</ele>
        <time>2021-09-01T09:55:39Z</time>
      </trkpt>
      <trkpt lat="46.83252" lon="6.22243">
        <ele>1042</ele>
        <time>2021-09-01T09:55:50Z</time>
      </trkpt>
      <trkpt lat="46.83252" lon="6.22225">
        <ele>1041</ele>
        <time>2021-09-01T09:56:03Z</time>
      </trkpt>
      <trkpt lat="46.83253" lon="6.22206">
        <ele>1040</ele>
        <time>2021-09-01T09:56:19Z</time>
      </trkpt>
      <trkpt lat="46.83254" lon="6.22192">
        <ele>1040</ele>
        <time>2021-09-01T09:56:28Z</time>
      </trkpt>
      <trkpt lat="46.83253" lon="6.22184">
        <ele>1040</ele>
        <time>2021-09-01T09:56:32Z</time>
      </trkpt>
      <trkpt lat="46.83258" lon="6.22167">
        <ele>1039</ele>
        <time>2021-09-01T09:56:43Z</time>
      </trkpt>
      <trkpt lat="46.83259" lon="6.22159">
        <ele>1039</ele>
        <time>2021-09-01T09:56:48Z</time>
      </trkpt>
      <trkpt lat="46.83256" lon="6.22151">
        <ele>1038</ele>
        <time>2021-09-01T09:56:53Z</time>
      </trkpt>
      <trkpt lat="46.83252" lon="6.22145">
        <ele>1038</ele>
        <time>2021-09-01T09:56:58Z</time>
      </trkpt>
      <trkpt lat="46.8325" lon="6.22137">
        <ele>1037</ele>
        <time>2021-09-01T09:57:02Z</time>
      </trkpt>
      <trkpt lat="46.83243" lon="6.22078">
        <ele>1034</ele>
        <time>2021-09-01T09:57:41Z</time>
      </trkpt>
      <trkpt lat="46.83242" lon="6.22066">
        <ele>1034</ele>
        <time>2021-09-01T09:57:47Z</time>
      </trkpt>
      <trkpt lat="46.83238" lon="6.22051">
        <ele>1033</ele>
        <time>2021-09-01T09:57:56Z</time>
      </trkpt>
      <trkpt lat="46.83223" lon="6.22022">
        <ele>1032</ele>
        <time>2021-09-01T09:58:20Z</time>
      </trkpt>
      <trkpt lat="46.83218" lon="6.22007">
        <ele>1031</ele>
        <time>2021-09-01T09:58:29Z</time>
      </trkpt>
      <trkpt lat="46.83212" lon="6.22">
        <ele>1030</ele>
        <time>2021-09-01T09:58:36Z</time>
      </trkpt>
      <trkpt lat="46.83202" lon="6.21972">
        <ele>1027</ele>
        <time>2021-09-01T09:59:09Z</time>
      </trkpt>
      <trkpt lat="46.832" lon="6.21965">
        <ele>1029</ele>
        <time>2021-09-01T09:59:14Z</time>
      </trkpt>
      <trkpt lat="46.83204" lon="6.21957">
        <ele>1026</ele>
        <time>2021-09-01T09:59:34Z</time>
      </trkpt>
      <trkpt lat="46.83198" lon="6.21944">
        <ele>1026</ele>
        <time>2021-09-01T09:59:49Z</time>
      </trkpt>
      <trkpt lat="46.83197" lon="6.21933">
        <ele>1024</ele>
        <time>2021-09-01T10:00:07Z</time>
      </trkpt>
      <trkpt lat="46.83206" lon="6.21929">
        <ele>1022</ele>
        <time>2021-09-01T10:00:19Z</time>
      </trkpt>
      <trkpt lat="46.83207" lon="6.21904">
        <ele>1019</ele>
        <time>2021-09-01T10:00:44Z</time>
      </trkpt>
      <trkpt lat="46.83206" lon="6.21881">
        <ele>1018</ele>
        <time>2021-09-01T10:00:59Z</time>
      </trkpt>
      <trkpt lat="46.83217" lon="6.21864">
        <ele>1018</ele>
        <time>2021-09-01T10:01:09Z</time>
      </trkpt>
      <trkpt lat="46.83225" lon="6.21845">
        <ele>1016</ele>
        <time>2021-09-01T10:01:23Z</time>
      </trkpt>
      <trkpt lat="46.83221" lon="6.2182">
        <ele>1016</ele>
        <time>2021-09-01T10:01:32Z</time>
      </trkpt>
      <trkpt lat="46.83215" lon="6.21803">
        <ele>1015</ele>
        <time>2021-09-01T10:01:38Z</time>
      </trkpt>
      <trkpt lat="46.83203" lon="6.2176">
        <ele>1014</ele>
        <time>2021-09-01T10:01:56Z</time>
      </trkpt>
      <trkpt lat="46.83193" lon="6.21749">
        <ele>1014</ele>
        <time>2021-09-01T10:02:11Z</time>
      </trkpt>
      <trkpt lat="46.83179" lon="6.21744">
        <ele>1014</ele>
        <time>2021-09-01T10:02:33Z</time>
      </trkpt>
      <trkpt lat="46.83171" lon="6.2174">
        <ele>1016</ele>
        <time>2021-09-01T10:04:58Z</time>
      </trkpt>
      <trkpt lat="46.83163" lon="6.21732">
        <ele>1016</ele>
        <time>2021-09-01T10:06:23Z</time>
      </trkpt>
      <trkpt lat="46.83164" lon="6.21717">
        <ele>1018</ele>
        <time>2021-09-01T10:06:54Z</time>
      </trkpt>
      <trkpt lat="46.83164" lon="6.21708">
        <ele>1019</ele>
        <time>2021-09-01T10:06:59Z</time>
      </trkpt>
      <trkpt lat="46.83165" lon="6.217">
        <ele>1020</ele>
        <time>2021-09-01T10:07:04Z</time>
      </trkpt>
      <trkpt lat="46.83164" lon="6.21692">
        <ele>1020</ele>
        <time>2021-09-01T10:07:10Z</time>
      </trkpt>
      <trkpt lat="46.83158" lon="6.21686">
        <ele>1020</ele>
        <time>2021-09-01T10:07:27Z</time>
      </trkpt>
      <trkpt lat="46.83146" lon="6.2166">
        <ele>1018</ele>
        <time>2021-09-01T10:07:49Z</time>
      </trkpt>
      <trkpt lat="46.83137" lon="6.21648">
        <ele>1017</ele>
        <time>2021-09-01T10:08:00Z</time>
      </trkpt>
      <trkpt lat="46.83131" lon="6.21636">
        <ele>1014</ele>
        <time>2021-09-01T10:08:14Z</time>
      </trkpt>
      <trkpt lat="46.83128" lon="6.21624">
        <ele>1012</ele>
        <time>2021-09-01T10:08:26Z</time>
      </trkpt>
      <trkpt lat="46.83125" lon="6.21616">
        <ele>1011</ele>
        <time>2021-09-01T10:08:32Z</time>
      </trkpt>
      <trkpt lat="46.83121" lon="6.21609">
        <ele>1010</ele>
        <time>2021-09-01T10:08:40Z</time>
      </trkpt>
      <trkpt lat="46.83109" lon="6.21602">
        <ele>1008</ele>
        <time>2021-09-01T10:08:49Z</time>
      </trkpt>
      <trkpt lat="46.83103" lon="6.21589">
        <ele>1007</ele>
        <time>2021-09-01T10:09:09Z</time>
      </trkpt>
      <trkpt lat="46.831" lon="6.2158">
        <ele>1006</ele>
        <time>2021-09-01T10:09:16Z</time>
      </trkpt>
      <trkpt lat="46.83095" lon="6.21575">
        <ele>1005</ele>
        <time>2021-09-01T10:09:21Z</time>
      </trkpt>
      <trkpt lat="46.83083" lon="6.21568">
        <ele>1005</ele>
        <time>2021-09-01T10:09:31Z</time>
      </trkpt>
      <trkpt lat="46.83081" lon="6.21559">
        <ele>1005</ele>
        <time>2021-09-01T10:10:37Z</time>
      </trkpt>
      <trkpt lat="46.83074" lon="6.21563">
        <ele>1004</ele>
        <time>2021-09-01T10:11:09Z</time>
      </trkpt>
      <trkpt lat="46.83065" lon="6.21563">
        <ele>1004</ele>
        <time>2021-09-01T10:11:27Z</time>
      </trkpt>
      <trkpt lat="46.83058" lon="6.21551">
        <ele>1003</ele>
        <time>2021-09-01T10:12:08Z</time>
      </trkpt>
      <trkpt lat="46.83054" lon="6.21546">
        <ele>1002</ele>
        <time>2021-09-01T10:12:13Z</time>
      </trkpt>
      <trkpt lat="46.8305" lon="6.2154">
        <ele>1002</ele>
        <time>2021-09-01T10:12:21Z</time>
      </trkpt>
      <trkpt lat="46.83036" lon="6.2152">
        <ele>1002</ele>
        <time>2021-09-01T10:12:35Z</time>
      </trkpt>
      <trkpt lat="46.83019" lon="6.21484">
        <ele>998</ele>
        <time>2021-09-01T10:13:05Z</time>
      </trkpt>
      <trkpt lat="46.83019" lon="6.21476">
        <ele>997</ele>
        <time>2021-09-01T10:13:14Z</time>
      </trkpt>
      <trkpt lat="46.83019" lon="6.2146">
        <ele>995</ele>
        <time>2021-09-01T10:13:25Z</time>
      </trkpt>
      <trkpt lat="46.83014" lon="6.21452">
        <ele>995</ele>
        <time>2021-09-01T10:13:29Z</time>
      </trkpt>
      <trkpt lat="46.83012" lon="6.21445">
        <ele>994</ele>
        <time>2021-09-01T10:13:35Z</time>
      </trkpt>
      <trkpt lat="46.8301" lon="6.21431">
        <ele>993</ele>
        <time>2021-09-01T10:13:47Z</time>
      </trkpt>
      <trkpt lat="46.83012" lon="6.21423">
        <ele>992</ele>
        <time>2021-09-01T10:14:06Z</time>
      </trkpt>
      <trkpt lat="46.83019" lon="6.2142">
        <ele>993</ele>
        <time>2021-09-01T10:14:14Z</time>
      </trkpt>
      <trkpt lat="46.83029" lon="6.21422">
        <ele>989</ele>
        <time>2021-09-01T10:14:35Z</time>
      </trkpt>
      <trkpt lat="46.83033" lon="6.21429">
        <ele>987</ele>
        <time>2021-09-01T10:14:43Z</time>
      </trkpt>
      <trkpt lat="46.83046" lon="6.21434">
        <ele>984</ele>
        <time>2021-09-01T10:14:59Z</time>
      </trkpt>
      <trkpt lat="46.83068" lon="6.21457">
        <ele>977</ele>
        <time>2021-09-01T10:15:30Z</time>
      </trkpt>
      <trkpt lat="46.8308" lon="6.21459">
        <ele>974</ele>
        <time>2021-09-01T10:15:43Z</time>
      </trkpt>
      <trkpt lat="46.83087" lon="6.21458">
        <ele>973</ele>
        <time>2021-09-01T10:15:48Z</time>
      </trkpt>
      <trkpt lat="46.83091" lon="6.21454">
        <ele>972</ele>
        <time>2021-09-01T10:15:53Z</time>
      </trkpt>
      <trkpt lat="46.83097" lon="6.21456">
        <ele>971</ele>
        <time>2021-09-01T10:15:58Z</time>
      </trkpt>
      <trkpt lat="46.83103" lon="6.21453">
        <ele>969</ele>
        <time>2021-09-01T10:16:06Z</time>
      </trkpt>
      <trkpt lat="46.83114" lon="6.21459">
        <ele>967</ele>
        <time>2021-09-01T10:16:17Z</time>
      </trkpt>
      <trkpt lat="46.83126" lon="6.21462">
        <ele>965</ele>
        <time>2021-09-01T10:16:28Z</time>
      </trkpt>
      <trkpt lat="46.83143" lon="6.21455">
        <ele>960</ele>
        <time>2021-09-01T10:16:50Z</time>
      </trkpt>
      <trkpt lat="46.83151" lon="6.21458">
        <ele>959</ele>
        <time>2021-09-01T10:16:55Z</time>
      </trkpt>
      <trkpt lat="46.83168" lon="6.21452">
        <ele>955</ele>
        <time>2021-09-01T10:17:14Z</time>
      </trkpt>
      <trkpt lat="46.8318" lon="6.2146">
        <ele>951</ele>
        <time>2021-09-01T10:17:31Z</time>
      </trkpt>
      <trkpt lat="46.83188" lon="6.2146">
        <ele>949</ele>
        <time>2021-09-01T10:17:38Z</time>
      </trkpt>
      <trkpt lat="46.83201" lon="6.21448">
        <ele>946</ele>
        <time>2021-09-01T10:17:53Z</time>
      </trkpt>
      <trkpt lat="46.83224" lon="6.21446">
        <ele>942</ele>
        <time>2021-09-01T10:18:12Z</time>
      </trkpt>
      <trkpt lat="46.83233" lon="6.2145">
        <ele>940</ele>
        <time>2021-09-01T10:18:24Z</time>
      </trkpt>
      <trkpt lat="46.83245" lon="6.21445">
        <ele>936</ele>
        <time>2021-09-01T10:18:43Z</time>
      </trkpt>
      <trkpt lat="46.83251" lon="6.21443">
        <ele>936</ele>
        <time>2021-09-01T10:18:51Z</time>
      </trkpt>
      <trkpt lat="46.83257" lon="6.21444">
        <ele>934</ele>
        <time>2021-09-01T10:19:15Z</time>
      </trkpt>
      <trkpt lat="46.83266" lon="6.21452">
        <ele>929</ele>
        <time>2021-09-01T10:19:38Z</time>
      </trkpt>
      <trkpt lat="46.83274" lon="6.2146">
        <ele>927</ele>
        <time>2021-09-01T10:19:52Z</time>
      </trkpt>
      <trkpt lat="46.8329" lon="6.21477">
        <ele>922</ele>
        <time>2021-09-01T10:20:12Z</time>
      </trkpt>
      <trkpt lat="46.83312" lon="6.21508">
        <ele>916</ele>
        <time>2021-09-01T10:20:46Z</time>
      </trkpt>
      <trkpt lat="46.83321" lon="6.21507">
        <ele>915</ele>
        <time>2021-09-01T10:20:57Z</time>
      </trkpt>
      <trkpt lat="46.83329" lon="6.21512">
        <ele>914</ele>
        <time>2021-09-01T10:21:02Z</time>
      </trkpt>
      <trkpt lat="46.83334" lon="6.21519">
        <ele>913</ele>
        <time>2021-09-01T10:21:06Z</time>
      </trkpt>
      <trkpt lat="46.83355" lon="6.21501">
        <ele>913</ele>
        <time>2021-09-01T10:21:27Z</time>
      </trkpt>
      <trkpt lat="46.83365" lon="6.21477">
        <ele>913</ele>
        <time>2021-09-01T10:21:49Z</time>
      </trkpt>
      <trkpt lat="46.83365" lon="6.21492">
        <ele>912</ele>
        <time>2021-09-01T10:21:54Z</time>
      </trkpt>
      <trkpt lat="46.83375" lon="6.21504">
        <ele>908</ele>
        <time>2021-09-01T10:22:12Z</time>
      </trkpt>
      <trkpt lat="46.83384" lon="6.21507">
        <ele>907</ele>
        <time>2021-09-01T10:22:16Z</time>
      </trkpt>
      <trkpt lat="46.83388" lon="6.21504">
        <ele>905</ele>
        <time>2021-09-01T10:22:21Z</time>
      </trkpt>
      <trkpt lat="46.83403" lon="6.21506">
        <ele>900</ele>
        <time>2021-09-01T10:22:56Z</time>
      </trkpt>
      <trkpt lat="46.83401" lon="6.21481">
        <ele>901</ele>
        <time>2021-09-01T10:23:08Z</time>
      </trkpt>
      <trkpt lat="46.83404" lon="6.2146">
        <ele>898</ele>
        <time>2021-09-01T10:38:08Z</time>
      </trkpt>
      <trkpt lat="46.83409" lon="6.21479">
        <ele>898</ele>
        <time>2021-09-01T11:05:50Z</time>
      </trkpt>
      <trkpt lat="46.83396" lon="6.21439">
        <ele>896</ele>
        <time>2021-09-01T11:06:41Z</time>
      </trkpt>
      <trkpt lat="46.83379" lon="6.21409">
        <ele>891</ele>
        <time>2021-09-01T11:07:12Z</time>
      </trkpt>
      <trkpt lat="46.83373" lon="6.21402">
        <ele>890</ele>
        <time>2021-09-01T11:07:21Z</time>
      </trkpt>
      <trkpt lat="46.83374" lon="6.21371">
        <ele>885</ele>
        <time>2021-09-01T11:07:49Z</time>
      </trkpt>
      <trkpt lat="46.83372" lon="6.2136">
        <ele>884</ele>
        <time>2021-09-01T11:07:55Z</time>
      </trkpt>
      <trkpt lat="46.83389" lon="6.21314">
        <ele>880</ele>
        <time>2021-09-01T11:08:25Z</time>
      </trkpt>
      <trkpt lat="46.83389" lon="6.21303">
        <ele>879</ele>
        <time>2021-09-01T11:08:33Z</time>
      </trkpt>
      <trkpt lat="46.83381" lon="6.21271">
        <ele>876</ele>
        <time>2021-09-01T11:08:45Z</time>
      </trkpt>
      <trkpt lat="46.83368" lon="6.21244">
        <ele>874</ele>
        <time>2021-09-01T11:08:57Z</time>
      </trkpt>
      <trkpt lat="46.83359" lon="6.21242">
        <ele>872</ele>
        <time>2021-09-01T11:09:06Z</time>
      </trkpt>
      <trkpt lat="46.83354" lon="6.21236">
        <ele>871</ele>
        <time>2021-09-01T11:09:12Z</time>
      </trkpt>
      <trkpt lat="46.83347" lon="6.21223">
        <ele>869</ele>
        <time>2021-09-01T11:09:21Z</time>
      </trkpt>
      <trkpt lat="46.83329" lon="6.2121">
        <ele>867</ele>
        <time>2021-09-01T11:09:35Z</time>
      </trkpt>
      <trkpt lat="46.83314" lon="6.2119">
        <ele>863</ele>
        <time>2021-09-01T11:10:01Z</time>
      </trkpt>
      <trkpt lat="46.8331" lon="6.2118">
        <ele>862</ele>
        <time>2021-09-01T11:10:06Z</time>
      </trkpt>
      <trkpt lat="46.83304" lon="6.21173">
        <ele>862</ele>
        <time>2021-09-01T11:10:10Z</time>
      </trkpt>
      <trkpt lat="46.83292" lon="6.21158">
        <ele>860</ele>
        <time>2021-09-01T11:10:23Z</time>
      </trkpt>
      <trkpt lat="46.83283" lon="6.21151">
        <ele>858</ele>
        <time>2021-09-01T11:10:31Z</time>
      </trkpt>
      <trkpt lat="46.83271" lon="6.21147">
        <ele>857</ele>
        <time>2021-09-01T11:10:38Z</time>
      </trkpt>
      <trkpt lat="46.83264" lon="6.21124">
        <ele>855</ele>
        <time>2021-09-01T11:10:54Z</time>
      </trkpt>
      <trkpt lat="46.83265" lon="6.21112">
        <ele>854</ele>
        <time>2021-09-01T11:10:59Z</time>
      </trkpt>
      <trkpt lat="46.83262" lon="6.21101">
        <ele>853</ele>
        <time>2021-09-01T11:11:05Z</time>
      </trkpt>
      <trkpt lat="46.83245" lon="6.21056">
        <ele>848</ele>
        <time>2021-09-01T11:11:37Z</time>
      </trkpt>
      <trkpt lat="46.83238" lon="6.21049">
        <ele>848</ele>
        <time>2021-09-01T11:11:43Z</time>
      </trkpt>
      <trkpt lat="46.8324" lon="6.21036">
        <ele>847</ele>
        <time>2021-09-01T11:11:51Z</time>
      </trkpt>
      <trkpt lat="46.83238" lon="6.21023">
        <ele>846</ele>
        <time>2021-09-01T11:11:56Z</time>
      </trkpt>
      <trkpt lat="46.83235" lon="6.21014">
        <ele>847</ele>
        <time>2021-09-01T11:12:02Z</time>
      </trkpt>
      <trkpt lat="46.83234" lon="6.21002">
        <ele>846</ele>
        <time>2021-09-01T11:12:06Z</time>
      </trkpt>
      <trkpt lat="46.83209" lon="6.21007">
        <ele>845</ele>
        <time>2021-09-01T11:12:13Z</time>
      </trkpt>
      <trkpt lat="46.83198" lon="6.20999">
        <ele>844</ele>
        <time>2021-09-01T11:12:33Z</time>
      </trkpt>
      <trkpt lat="46.83187" lon="6.20994">
        <ele>843</ele>
        <time>2021-09-01T11:12:44Z</time>
      </trkpt>
      <trkpt lat="46.83173" lon="6.21005">
        <ele>842</ele>
        <time>2021-09-01T11:12:59Z</time>
      </trkpt>
      <trkpt lat="46.83165" lon="6.21007">
        <ele>842</ele>
        <time>2021-09-01T11:13:06Z</time>
      </trkpt>
      <trkpt lat="46.83154" lon="6.21009">
        <ele>843</ele>
        <time>2021-09-01T11:13:15Z</time>
      </trkpt>
      <trkpt lat="46.83134" lon="6.20979">
        <ele>842</ele>
        <time>2021-09-01T11:13:46Z</time>
      </trkpt>
      <trkpt lat="46.83131" lon="6.20974">
        <ele>841</ele>
        <time>2021-09-01T11:13:55Z</time>
      </trkpt>
      <trkpt lat="46.83135" lon="6.20962">
        <ele>839</ele>
        <time>2021-09-01T11:14:11Z</time>
      </trkpt>
      <trkpt lat="46.83142" lon="6.20959">
        <ele>838</ele>
        <time>2021-09-01T11:14:19Z</time>
      </trkpt>
      <trkpt lat="46.83157" lon="6.20944">
        <ele>835</ele>
        <time>2021-09-01T11:14:38Z</time>
      </trkpt>
      <trkpt lat="46.83166" lon="6.20929">
        <ele>835</ele>
        <time>2021-09-01T11:14:48Z</time>
      </trkpt>
      <trkpt lat="46.83171" lon="6.20912">
        <ele>834</ele>
        <time>2021-09-01T11:14:56Z</time>
      </trkpt>
      <trkpt lat="46.83175" lon="6.20903">
        <ele>834</ele>
        <time>2021-09-01T11:15:05Z</time>
      </trkpt>
      <trkpt lat="46.83171" lon="6.20896">
        <ele>833</ele>
        <time>2021-09-01T11:15:11Z</time>
      </trkpt>
      <trkpt lat="46.83165" lon="6.20893">
        <ele>834</ele>
        <time>2021-09-01T11:15:49Z</time>
      </trkpt>
      <trkpt lat="46.8316" lon="6.209">
        <ele>830</ele>
        <time>2021-09-01T11:21:15Z</time>
      </trkpt>
      <trkpt lat="46.83153" lon="6.20907">
        <ele>831</ele>
        <time>2021-09-01T11:21:26Z</time>
      </trkpt>
      <trkpt lat="46.83148" lon="6.2091">
        <ele>831</ele>
        <time>2021-09-01T11:21:36Z</time>
      </trkpt>
      <trkpt lat="46.83146" lon="6.2092">
        <ele>831</ele>
        <time>2021-09-01T11:22:29Z</time>
      </trkpt>
      <trkpt lat="46.83143" lon="6.20927">
        <ele>832</ele>
        <time>2021-09-01T11:22:53Z</time>
      </trkpt>
      <trkpt lat="46.83136" lon="6.20933">
        <ele>832</ele>
        <time>2021-09-01T11:23:53Z</time>
      </trkpt>
      <trkpt lat="46.83132" lon="6.20939">
        <ele>833</ele>
        <time>2021-09-01T11:23:59Z</time>
      </trkpt>
      <trkpt lat="46.83118" lon="6.20948">
        <ele>834</ele>
        <time>2021-09-01T11:24:13Z</time>
      </trkpt>
      <trkpt lat="46.83113" lon="6.20955">
        <ele>835</ele>
        <time>2021-09-01T11:24:19Z</time>
      </trkpt>
      <trkpt lat="46.83115" lon="6.20963">
        <ele>836</ele>
        <time>2021-09-01T11:24:25Z</time>
      </trkpt>
      <trkpt lat="46.83124" lon="6.20987">
        <ele>837</ele>
        <time>2021-09-01T11:24:41Z</time>
      </trkpt>
      <trkpt lat="46.83143" lon="6.20994">
        <ele>838</ele>
        <time>2021-09-01T11:24:50Z</time>
      </trkpt>
      <trkpt lat="46.8315" lon="6.21006">
        <ele>838</ele>
        <time>2021-09-01T11:24:56Z</time>
      </trkpt>
      <trkpt lat="46.83167" lon="6.2101">
        <ele>838</ele>
        <time>2021-09-01T11:25:13Z</time>
      </trkpt>
      <trkpt lat="46.83173" lon="6.20999">
        <ele>838</ele>
        <time>2021-09-01T11:25:22Z</time>
      </trkpt>
      <trkpt lat="46.83177" lon="6.20996">
        <ele>838</ele>
        <time>2021-09-01T11:25:26Z</time>
      </trkpt>
      <trkpt lat="46.83184" lon="6.20993">
        <ele>838</ele>
        <time>2021-09-01T11:25:34Z</time>
      </trkpt>
      <trkpt lat="46.83196" lon="6.20976">
        <ele>839</ele>
        <time>2021-09-01T11:25:57Z</time>
      </trkpt>
      <trkpt lat="46.83208" lon="6.2095">
        <ele>843</ele>
        <time>2021-09-01T11:26:23Z</time>
      </trkpt>
      <trkpt lat="46.83212" lon="6.20935">
        <ele>842</ele>
        <time>2021-09-01T11:26:37Z</time>
      </trkpt>
      <trkpt lat="46.83218" lon="6.20927">
        <ele>842</ele>
        <time>2021-09-01T11:26:43Z</time>
      </trkpt>
      <trkpt lat="46.83225" lon="6.20924">
        <ele>843</ele>
        <time>2021-09-01T11:26:51Z</time>
      </trkpt>
      <trkpt lat="46.83232" lon="6.20909">
        <ele>840</ele>
        <time>2021-09-01T11:27:32Z</time>
      </trkpt>
      <trkpt lat="46.83237" lon="6.20904">
        <ele>840</ele>
        <time>2021-09-01T11:27:39Z</time>
      </trkpt>
      <trkpt lat="46.83241" lon="6.20894">
        <ele>840</ele>
        <time>2021-09-01T11:27:47Z</time>
      </trkpt>
      <trkpt lat="46.83245" lon="6.20888">
        <ele>840</ele>
        <time>2021-09-01T11:27:52Z</time>
      </trkpt>
      <trkpt lat="46.8325" lon="6.20879">
        <ele>840</ele>
        <time>2021-09-01T11:28:05Z</time>
      </trkpt>
      <trkpt lat="46.83256" lon="6.2087">
        <ele>840</ele>
        <time>2021-09-01T11:28:17Z</time>
      </trkpt>
      <trkpt lat="46.83261" lon="6.20864">
        <ele>840</ele>
        <time>2021-09-01T11:28:22Z</time>
      </trkpt>
      <trkpt lat="46.83265" lon="6.20855">
        <ele>840</ele>
        <time>2021-09-01T11:29:20Z</time>
      </trkpt>
      <trkpt lat="46.8327" lon="6.2086">
        <ele>840</ele>
        <time>2021-09-01T11:29:57Z</time>
      </trkpt>
      <trkpt lat="46.83266" lon="6.20874">
        <ele>841</ele>
        <time>2021-09-01T11:30:09Z</time>
      </trkpt>
      <trkpt lat="46.83261" lon="6.20883">
        <ele>841</ele>
        <time>2021-09-01T11:30:13Z</time>
      </trkpt>
      <trkpt lat="46.83268" lon="6.20887">
        <ele>840</ele>
        <time>2021-09-01T11:30:42Z</time>
      </trkpt>
      <trkpt lat="46.83275" lon="6.20891">
        <ele>840</ele>
        <time>2021-09-01T11:30:47Z</time>
      </trkpt>
      <trkpt lat="46.83271" lon="6.2089">
        <ele>839</ele>
        <time>2021-09-01T11:31:37Z</time>
      </trkpt>
      <trkpt lat="46.83284" lon="6.20898">
        <ele>839</ele>
        <time>2021-09-01T11:31:59Z</time>
      </trkpt>
      <trkpt lat="46.83287" lon="6.20903">
        <ele>839</ele>
        <time>2021-09-01T11:32:04Z</time>
      </trkpt>
      <trkpt lat="46.83291" lon="6.2091">
        <ele>840</ele>
        <time>2021-09-01T11:32:21Z</time>
      </trkpt>
      <trkpt lat="46.83306" lon="6.2091">
        <ele>840</ele>
        <time>2021-09-01T11:32:45Z</time>
      </trkpt>
      <trkpt lat="46.83311" lon="6.20914">
        <ele>839</ele>
        <time>2021-09-01T11:32:49Z</time>
      </trkpt>
      <trkpt lat="46.83314" lon="6.20923">
        <ele>840</ele>
        <time>2021-09-01T11:32:57Z</time>
      </trkpt>
      <trkpt lat="46.83324" lon="6.20931">
        <ele>839</ele>
        <time>2021-09-01T11:33:06Z</time>
      </trkpt>
      <trkpt lat="46.83329" lon="6.20937">
        <ele>839</ele>
        <time>2021-09-01T11:33:11Z</time>
      </trkpt>
      <trkpt lat="46.8334" lon="6.20944">
        <ele>839</ele>
        <time>2021-09-01T11:33:25Z</time>
      </trkpt>
      <trkpt lat="46.83345" lon="6.2094">
        <ele>838</ele>
        <time>2021-09-01T11:33:56Z</time>
      </trkpt>
      <trkpt lat="46.83344" lon="6.20955">
        <ele>838</ele>
        <time>2021-09-01T11:34:38Z</time>
      </trkpt>
      <trkpt lat="46.83362" lon="6.2097">
        <ele>840</ele>
        <time>2021-09-01T11:35:02Z</time>
      </trkpt>
      <trkpt lat="46.83391" lon="6.21002">
        <ele>842</ele>
        <time>2021-09-01T11:35:31Z</time>
      </trkpt>
      <trkpt lat="46.8341" lon="6.21011">
        <ele>842</ele>
        <time>2021-09-01T11:35:48Z</time>
      </trkpt>
      <trkpt lat="46.83418" lon="6.21009">
        <ele>842</ele>
        <time>2021-09-01T11:35:54Z</time>
      </trkpt>
      <trkpt lat="46.8342" lon="6.21014">
        <ele>841</ele>
        <time>2021-09-01T11:36:39Z</time>
      </trkpt>
      <trkpt lat="46.83417" lon="6.21023">
        <ele>841</ele>
        <time>2021-09-01T11:36:47Z</time>
      </trkpt>
      <trkpt lat="46.83416" lon="6.21032">
        <ele>842</ele>
        <time>2021-09-01T11:36:52Z</time>
      </trkpt>
      <trkpt lat="46.8341" lon="6.21061">
        <ele>841</ele>
        <time>2021-09-01T11:37:11Z</time>
      </trkpt>
      <trkpt lat="46.83412" lon="6.21077">
        <ele>841</ele>
        <time>2021-09-01T11:37:20Z</time>
      </trkpt>
      <trkpt lat="46.8341" lon="6.21086">
        <ele>841</ele>
        <time>2021-09-01T11:37:26Z</time>
      </trkpt>
      <trkpt lat="46.83414" lon="6.21103">
        <ele>842</ele>
        <time>2021-09-01T11:37:35Z</time>
      </trkpt>
      <trkpt lat="46.83415" lon="6.21111">
        <ele>842</ele>
        <time>2021-09-01T11:37:39Z</time>
      </trkpt>
      <trkpt lat="46.8342" lon="6.21127">
        <ele>842</ele>
        <time>2021-09-01T11:37:47Z</time>
      </trkpt>
      <trkpt lat="46.83424" lon="6.21137">
        <ele>842</ele>
        <time>2021-09-01T11:37:52Z</time>
      </trkpt>
      <trkpt lat="46.83431" lon="6.21166">
        <ele>844</ele>
        <time>2021-09-01T11:38:11Z</time>
      </trkpt>
      <trkpt lat="46.83448" lon="6.21193">
        <ele>844</ele>
        <time>2021-09-01T11:38:37Z</time>
      </trkpt>
      <trkpt lat="46.83456" lon="6.21199">
        <ele>844</ele>
        <time>2021-09-01T11:38:44Z</time>
      </trkpt>
      <trkpt lat="46.83468" lon="6.21211">
        <ele>844</ele>
        <time>2021-09-01T11:38:51Z</time>
      </trkpt>
      <trkpt lat="46.83478" lon="6.21219">
        <ele>844</ele>
        <time>2021-09-01T11:38:58Z</time>
      </trkpt>
      <trkpt lat="46.83516" lon="6.21233">
        <ele>845</ele>
        <time>2021-09-01T11:39:31Z</time>
      </trkpt>
      <trkpt lat="46.83523" lon="6.21238">
        <ele>845</ele>
        <time>2021-09-01T11:39:37Z</time>
      </trkpt>
      <trkpt lat="46.83532" lon="6.21242">
        <ele>845</ele>
        <time>2021-09-01T11:39:49Z</time>
      </trkpt>
      <trkpt lat="46.8354" lon="6.21257">
        <ele>847</ele>
        <time>2021-09-01T11:40:02Z</time>
      </trkpt>
      <trkpt lat="46.83559" lon="6.21269">
        <ele>848</ele>
        <time>2021-09-01T11:40:14Z</time>
      </trkpt>
      <trkpt lat="46.83569" lon="6.21284">
        <ele>849</ele>
        <time>2021-09-01T11:40:24Z</time>
      </trkpt>
      <trkpt lat="46.83585" lon="6.21296">
        <ele>850</ele>
        <time>2021-09-01T11:40:39Z</time>
      </trkpt>
      <trkpt lat="46.83614" lon="6.21333">
        <ele>850</ele>
        <time>2021-09-01T11:41:13Z</time>
      </trkpt>
      <trkpt lat="46.83618" lon="6.21338">
        <ele>850</ele>
        <time>2021-09-01T11:41:18Z</time>
      </trkpt>
      <trkpt lat="46.83626" lon="6.21351">
        <ele>850</ele>
        <time>2021-09-01T11:41:29Z</time>
      </trkpt>
      <trkpt lat="46.83628" lon="6.2136">
        <ele>850</ele>
        <time>2021-09-01T11:41:36Z</time>
      </trkpt>
      <trkpt lat="46.83632" lon="6.21369">
        <ele>850</ele>
        <time>2021-09-01T11:41:43Z</time>
      </trkpt>
      <trkpt lat="46.83652" lon="6.21393">
        <ele>851</ele>
        <time>2021-09-01T11:42:04Z</time>
      </trkpt>
      <trkpt lat="46.8366" lon="6.21407">
        <ele>851</ele>
        <time>2021-09-01T11:42:14Z</time>
      </trkpt>
      <trkpt lat="46.83674" lon="6.21449">
        <ele>851</ele>
        <time>2021-09-01T11:42:41Z</time>
      </trkpt>
      <trkpt lat="46.83679" lon="6.21454">
        <ele>852</ele>
        <time>2021-09-01T11:42:46Z</time>
      </trkpt>
      <trkpt lat="46.83681" lon="6.21462">
        <ele>852</ele>
        <time>2021-09-01T11:42:51Z</time>
      </trkpt>
      <trkpt lat="46.83711" lon="6.21516">
        <ele>855</ele>
        <time>2021-09-01T11:43:35Z</time>
      </trkpt>
      <trkpt lat="46.83716" lon="6.21527">
        <ele>855</ele>
        <time>2021-09-01T11:43:41Z</time>
      </trkpt>
      <trkpt lat="46.83733" lon="6.21552">
        <ele>855</ele>
        <time>2021-09-01T11:44:00Z</time>
      </trkpt>
      <trkpt lat="46.83739" lon="6.2156">
        <ele>855</ele>
        <time>2021-09-01T11:44:06Z</time>
      </trkpt>
      <trkpt lat="46.83753" lon="6.21587">
        <ele>856</ele>
        <time>2021-09-01T11:44:26Z</time>
      </trkpt>
      <trkpt lat="46.83768" lon="6.21598">
        <ele>856</ele>
        <time>2021-09-01T11:44:37Z</time>
      </trkpt>
      <trkpt lat="46.83774" lon="6.21604">
        <ele>855</ele>
        <time>2021-09-01T11:44:44Z</time>
      </trkpt>
      <trkpt lat="46.83779" lon="6.21602">
        <ele>854</ele>
        <time>2021-09-01T11:44:49Z</time>
      </trkpt>
      <trkpt lat="46.83796" lon="6.21617">
        <ele>853</ele>
        <time>2021-09-01T11:45:15Z</time>
      </trkpt>
      <trkpt lat="46.83801" lon="6.21622">
        <ele>853</ele>
        <time>2021-09-01T11:45:20Z</time>
      </trkpt>
      <trkpt lat="46.83808" lon="6.21638">
        <ele>852</ele>
        <time>2021-09-01T11:45:30Z</time>
      </trkpt>
      <trkpt lat="46.83814" lon="6.21646">
        <ele>852</ele>
        <time>2021-09-01T11:45:38Z</time>
      </trkpt>
      <trkpt lat="46.8382" lon="6.21664">
        <ele>852</ele>
        <time>2021-09-01T11:45:51Z</time>
      </trkpt>
      <trkpt lat="46.83831" lon="6.21679">
        <ele>852</ele>
        <time>2021-09-01T11:46:00Z</time>
      </trkpt>
      <trkpt lat="46.83842" lon="6.21687">
        <ele>852</ele>
        <time>2021-09-01T11:46:09Z</time>
      </trkpt>
      <trkpt lat="46.83845" lon="6.21695">
        <ele>852</ele>
        <time>2021-09-01T11:46:14Z</time>
      </trkpt>
      <trkpt lat="46.83849" lon="6.217">
        <ele>852</ele>
        <time>2021-09-01T11:46:20Z</time>
      </trkpt>
      <trkpt lat="46.83868" lon="6.21723">
        <ele>853</ele>
        <time>2021-09-01T11:46:39Z</time>
      </trkpt>
      <trkpt lat="46.83873" lon="6.21729">
        <ele>853</ele>
        <time>2021-09-01T11:46:45Z</time>
      </trkpt>
      <trkpt lat="46.83878" lon="6.21735">
        <ele>853</ele>
        <time>2021-09-01T11:46:49Z</time>
      </trkpt>
      <trkpt lat="46.83893" lon="6.21761">
        <ele>854</ele>
        <time>2021-09-01T11:47:09Z</time>
      </trkpt>
      <trkpt lat="46.83896" lon="6.21771">
        <ele>854</ele>
        <time>2021-09-01T11:47:17Z</time>
      </trkpt>
      <trkpt lat="46.83906" lon="6.21787">
        <ele>854</ele>
        <time>2021-09-01T11:47:28Z</time>
      </trkpt>
      <trkpt lat="46.83911" lon="6.21801">
        <ele>855</ele>
        <time>2021-09-01T11:47:37Z</time>
      </trkpt>
      <trkpt lat="46.83917" lon="6.21818">
        <ele>855</ele>
        <time>2021-09-01T11:47:47Z</time>
      </trkpt>
      <trkpt lat="46.83921" lon="6.21825">
        <ele>856</ele>
        <time>2021-09-01T11:47:53Z</time>
      </trkpt>
      <trkpt lat="46.83927" lon="6.2184">
        <ele>856</ele>
        <time>2021-09-01T11:48:04Z</time>
      </trkpt>
      <trkpt lat="46.83931" lon="6.21845">
        <ele>856</ele>
        <time>2021-09-01T11:48:08Z</time>
      </trkpt>
      <trkpt lat="46.83936" lon="6.21857">
        <ele>856</ele>
        <time>2021-09-01T11:48:19Z</time>
      </trkpt>
      <trkpt lat="46.8394" lon="6.21863">
        <ele>856</ele>
        <time>2021-09-01T11:48:24Z</time>
      </trkpt>
      <trkpt lat="46.83949" lon="6.21873">
        <ele>857</ele>
        <time>2021-09-01T11:48:31Z</time>
      </trkpt>
      <trkpt lat="46.83953" lon="6.21877">
        <ele>857</ele>
        <time>2021-09-01T11:48:34Z</time>
      </trkpt>
      <trkpt lat="46.83956" lon="6.21884">
        <ele>857</ele>
        <time>2021-09-01T11:48:38Z</time>
      </trkpt>
      <trkpt lat="46.83973" lon="6.21917">
        <ele>858</ele>
        <time>2021-09-01T11:49:06Z</time>
      </trkpt>
      <trkpt lat="46.83978" lon="6.21931">
        <ele>858</ele>
        <time>2021-09-01T11:49:16Z</time>
      </trkpt>
      <trkpt lat="46.83978" lon="6.21941">
        <ele>859</ele>
        <time>2021-09-01T11:49:24Z</time>
      </trkpt>
      <trkpt lat="46.83987" lon="6.21963">
        <ele>859</ele>
        <time>2021-09-01T11:49:40Z</time>
      </trkpt>
      <trkpt lat="46.83988" lon="6.21977">
        <ele>859</ele>
        <time>2021-09-01T11:49:49Z</time>
      </trkpt>
      <trkpt lat="46.8399" lon="6.21988">
        <ele>859</ele>
        <time>2021-09-01T11:49:56Z</time>
      </trkpt>
      <trkpt lat="46.83992" lon="6.22008">
        <ele>859</ele>
        <time>2021-09-01T11:50:09Z</time>
      </trkpt>
      <trkpt lat="46.83991" lon="6.2206">
        <ele>861</ele>
        <time>2021-09-01T11:50:42Z</time>
      </trkpt>
      <trkpt lat="46.83991" lon="6.22072">
        <ele>861</ele>
        <time>2021-09-01T11:50:48Z</time>
      </trkpt>
      <trkpt lat="46.83994" lon="6.22107">
        <ele>864</ele>
        <time>2021-09-01T11:51:12Z</time>
      </trkpt>
      <trkpt lat="46.83997" lon="6.22117">
        <ele>864</ele>
        <time>2021-09-01T11:51:16Z</time>
      </trkpt>
      <trkpt lat="46.84003" lon="6.22126">
        <ele>865</ele>
        <time>2021-09-01T11:51:20Z</time>
      </trkpt>
      <trkpt lat="46.84009" lon="6.22141">
        <ele>865</ele>
        <time>2021-09-01T11:51:28Z</time>
      </trkpt>
      <trkpt lat="46.84021" lon="6.22161">
        <ele>866</ele>
        <time>2021-09-01T11:51:43Z</time>
      </trkpt>
      <trkpt lat="46.84028" lon="6.22167">
        <ele>866</ele>
        <time>2021-09-01T11:51:50Z</time>
      </trkpt>
      <trkpt lat="46.84029" lon="6.22175">
        <ele>866</ele>
        <time>2021-09-01T11:51:55Z</time>
      </trkpt>
      <trkpt lat="46.84033" lon="6.22184">
        <ele>866</ele>
        <time>2021-09-01T11:52:00Z</time>
      </trkpt>
      <trkpt lat="46.84053" lon="6.22205">
        <ele>865</ele>
        <time>2021-09-01T11:52:19Z</time>
      </trkpt>
      <trkpt lat="46.84057" lon="6.22213">
        <ele>865</ele>
        <time>2021-09-01T11:52:27Z</time>
      </trkpt>
      <trkpt lat="46.84063" lon="6.22219">
        <ele>865</ele>
        <time>2021-09-01T11:52:32Z</time>
      </trkpt>
      <trkpt lat="46.84078" lon="6.22248">
        <ele>866</ele>
        <time>2021-09-01T11:52:54Z</time>
      </trkpt>
      <trkpt lat="46.84083" lon="6.22252">
        <ele>866</ele>
        <time>2021-09-01T11:52:58Z</time>
      </trkpt>
      <trkpt lat="46.84091" lon="6.22264">
        <ele>867</ele>
        <time>2021-09-01T11:53:08Z</time>
      </trkpt>
      <trkpt lat="46.84105" lon="6.22268">
        <ele>867</ele>
        <time>2021-09-01T11:53:20Z</time>
      </trkpt>
      <trkpt lat="46.84111" lon="6.22267">
        <ele>867</ele>
        <time>2021-09-01T11:53:24Z</time>
      </trkpt>
      <trkpt lat="46.84117" lon="6.22264">
        <ele>867</ele>
        <time>2021-09-01T11:53:46Z</time>
      </trkpt>
      <trkpt lat="46.84116" lon="6.22285">
        <ele>867</ele>
        <time>2021-09-01T11:54:29Z</time>
      </trkpt>
      <trkpt lat="46.84123" lon="6.22292">
        <ele>867</ele>
        <time>2021-09-01T11:55:16Z</time>
      </trkpt>
      <trkpt lat="46.84127" lon="6.22306">
        <ele>869</ele>
        <time>2021-09-01T11:56:40Z</time>
      </trkpt>
      <trkpt lat="46.84138" lon="6.22323">
        <ele>869</ele>
        <time>2021-09-01T11:56:52Z</time>
      </trkpt>
      <trkpt lat="46.8414" lon="6.22336">
        <ele>870</ele>
        <time>2021-09-01T11:57:00Z</time>
      </trkpt>
      <trkpt lat="46.84167" lon="6.22362">
        <ele>871</ele>
        <time>2021-09-01T11:57:31Z</time>
      </trkpt>
      <trkpt lat="46.84172" lon="6.2237">
        <ele>872</ele>
        <time>2021-09-01T11:57:36Z</time>
      </trkpt>
      <trkpt lat="46.84204" lon="6.22385">
        <ele>874</ele>
        <time>2021-09-01T11:58:13Z</time>
      </trkpt>
      <trkpt lat="46.84213" lon="6.22382">
        <ele>875</ele>
        <time>2021-09-01T11:58:19Z</time>
      </trkpt>
      <trkpt lat="46.8422" lon="6.22377">
        <ele>876</ele>
        <time>2021-09-01T11:58:25Z</time>
      </trkpt>
      <trkpt lat="46.84227" lon="6.22374">
        <ele>876</ele>
        <time>2021-09-01T11:58:31Z</time>
      </trkpt>
      <trkpt lat="46.84248" lon="6.22383">
        <ele>876</ele>
        <time>2021-09-01T11:58:52Z</time>
      </trkpt>
      <trkpt lat="46.84255" lon="6.22378">
        <ele>876</ele>
        <time>2021-09-01T11:58:58Z</time>
      </trkpt>
      <trkpt lat="46.84273" lon="6.22382">
        <ele>876</ele>
        <time>2021-09-01T11:59:08Z</time>
      </trkpt>
      <trkpt lat="46.84285" lon="6.22371">
        <ele>875</ele>
        <time>2021-09-01T11:59:26Z</time>
      </trkpt>
      <trkpt lat="46.84304" lon="6.22388">
        <ele>873</ele>
        <time>2021-09-01T11:59:41Z</time>
      </trkpt>
      <trkpt lat="46.84311" lon="6.22398">
        <ele>872</ele>
        <time>2021-09-01T11:59:52Z</time>
      </trkpt>
      <trkpt lat="46.84317" lon="6.22401">
        <ele>871</ele>
        <time>2021-09-01T11:59:59Z</time>
      </trkpt>
      <trkpt lat="46.84325" lon="6.22402">
        <ele>870</ele>
        <time>2021-09-01T12:00:05Z</time>
      </trkpt>
      <trkpt lat="46.84335" lon="6.22399">
        <ele>869</ele>
        <time>2021-09-01T12:00:12Z</time>
      </trkpt>
      <trkpt lat="46.84362" lon="6.22379">
        <ele>868</ele>
        <time>2021-09-01T12:00:30Z</time>
      </trkpt>
      <trkpt lat="46.8437" lon="6.22378">
        <ele>867</ele>
        <time>2021-09-01T12:00:35Z</time>
      </trkpt>
      <trkpt lat="46.84394" lon="6.22359">
        <ele>866</ele>
        <time>2021-09-01T12:00:52Z</time>
      </trkpt>
      <trkpt lat="46.84399" lon="6.22355">
        <ele>865</ele>
        <time>2021-09-01T12:00:58Z</time>
      </trkpt>
      <trkpt lat="46.84434" lon="6.22311">
        <ele>862</ele>
        <time>2021-09-01T12:01:38Z</time>
      </trkpt>
      <trkpt lat="46.84442" lon="6.22299">
        <ele>862</ele>
        <time>2021-09-01T12:01:46Z</time>
      </trkpt>
      <trkpt lat="46.84456" lon="6.22274">
        <ele>860</ele>
        <time>2021-09-01T12:02:05Z</time>
      </trkpt>
      <trkpt lat="46.84474" lon="6.22258">
        <ele>859</ele>
        <time>2021-09-01T12:02:23Z</time>
      </trkpt>
      <trkpt lat="46.84478" lon="6.22252">
        <ele>859</ele>
        <time>2021-09-01T12:02:27Z</time>
      </trkpt>
      <trkpt lat="46.84494" lon="6.22224">
        <ele>857</ele>
        <time>2021-09-01T12:02:45Z</time>
      </trkpt>
      <trkpt lat="46.84503" lon="6.22209">
        <ele>856</ele>
        <time>2021-09-01T12:03:03Z</time>
      </trkpt>
      <trkpt lat="46.84518" lon="6.22182">
        <ele>855</ele>
        <time>2021-09-01T12:03:21Z</time>
      </trkpt>
      <trkpt lat="46.84528" lon="6.22154">
        <ele>855</ele>
        <time>2021-09-01T12:03:37Z</time>
      </trkpt>
      <trkpt lat="46.84531" lon="6.22147">
        <ele>854</ele>
        <time>2021-09-01T12:03:40Z</time>
      </trkpt>
      <trkpt lat="46.84547" lon="6.22092">
        <ele>854</ele>
        <time>2021-09-01T12:04:12Z</time>
      </trkpt>
      <trkpt lat="46.84549" lon="6.22085">
        <ele>854</ele>
        <time>2021-09-01T12:04:17Z</time>
      </trkpt>
      <trkpt lat="46.84549" lon="6.22075">
        <ele>854</ele>
        <time>2021-09-01T12:04:22Z</time>
      </trkpt>
      <trkpt lat="46.84553" lon="6.22059">
        <ele>853</ele>
        <time>2021-09-01T12:04:32Z</time>
      </trkpt>
      <trkpt lat="46.84562" lon="6.22042">
        <ele>852</ele>
        <time>2021-09-01T12:04:43Z</time>
      </trkpt>
      <trkpt lat="46.84564" lon="6.22034">
        <ele>851</ele>
        <time>2021-09-01T12:04:48Z</time>
      </trkpt>
      <trkpt lat="46.84569" lon="6.22027">
        <ele>851</ele>
        <time>2021-09-01T12:04:54Z</time>
      </trkpt>
      <trkpt lat="46.8457" lon="6.22019">
        <ele>850</ele>
        <time>2021-09-01T12:04:59Z</time>
      </trkpt>
      <trkpt lat="46.84598" lon="6.21972">
        <ele>848</ele>
        <time>2021-09-01T12:05:31Z</time>
      </trkpt>
      <trkpt lat="46.84601" lon="6.21965">
        <ele>848</ele>
        <time>2021-09-01T12:05:36Z</time>
      </trkpt>
      <trkpt lat="46.84603" lon="6.21957">
        <ele>847</ele>
        <time>2021-09-01T12:05:41Z</time>
      </trkpt>
      <trkpt lat="46.8461" lon="6.21943">
        <ele>847</ele>
        <time>2021-09-01T12:05:51Z</time>
      </trkpt>
      <trkpt lat="46.84623" lon="6.21912">
        <ele>846</ele>
        <time>2021-09-01T12:06:12Z</time>
      </trkpt>
      <trkpt lat="46.84645" lon="6.21887">
        <ele>844</ele>
        <time>2021-09-01T12:06:35Z</time>
      </trkpt>
      <trkpt lat="46.8465" lon="6.21878">
        <ele>843</ele>
        <time>2021-09-01T12:06:41Z</time>
      </trkpt>
      <trkpt lat="46.84654" lon="6.21874">
        <ele>843</ele>
        <time>2021-09-01T12:06:45Z</time>
      </trkpt>
      <trkpt lat="46.8466" lon="6.2187">
        <ele>843</ele>
        <time>2021-09-01T12:06:50Z</time>
      </trkpt>
      <trkpt lat="46.84668" lon="6.21857">
        <ele>842</ele>
        <time>2021-09-01T12:07:00Z</time>
      </trkpt>
      <trkpt lat="46.84679" lon="6.21846">
        <ele>841</ele>
        <time>2021-09-01T12:07:10Z</time>
      </trkpt>
      <trkpt lat="46.84691" lon="6.2184">
        <ele>840</ele>
        <time>2021-09-01T12:07:18Z</time>
      </trkpt>
      <trkpt lat="46.84724" lon="6.21812">
        <ele>839</ele>
        <time>2021-09-01T12:07:51Z</time>
      </trkpt>
      <trkpt lat="46.84736" lon="6.21801">
        <ele>839</ele>
        <time>2021-09-01T12:08:03Z</time>
      </trkpt>
      <trkpt lat="46.84759" lon="6.21789">
        <ele>838</ele>
        <time>2021-09-01T12:08:21Z</time>
      </trkpt>
      <trkpt lat="46.84772" lon="6.21776">
        <ele>838</ele>
        <time>2021-09-01T12:08:37Z</time>
      </trkpt>
      <trkpt lat="46.84775" lon="6.21769">
        <ele>838</ele>
        <time>2021-09-01T12:08:42Z</time>
      </trkpt>
      <trkpt lat="46.84792" lon="6.21759">
        <ele>838</ele>
        <time>2021-09-01T12:08:56Z</time>
      </trkpt>
      <trkpt lat="46.84834" lon="6.21744">
        <ele>838</ele>
        <time>2021-09-01T12:09:28Z</time>
      </trkpt>
      <trkpt lat="46.84841" lon="6.21743">
        <ele>838</ele>
        <time>2021-09-01T12:09:32Z</time>
      </trkpt>
      <trkpt lat="46.84856" lon="6.21731">
        <ele>837</ele>
        <time>2021-09-01T12:09:45Z</time>
      </trkpt>
      <trkpt lat="46.84876" lon="6.21696">
        <ele>835</ele>
        <time>2021-09-01T12:10:11Z</time>
      </trkpt>
      <trkpt lat="46.84892" lon="6.21657">
        <ele>833</ele>
        <time>2021-09-01T12:10:32Z</time>
      </trkpt>
      <trkpt lat="46.84907" lon="6.21599">
        <ele>832</ele>
        <time>2021-09-01T12:11:06Z</time>
      </trkpt>
      <trkpt lat="46.84913" lon="6.21583">
        <ele>832</ele>
        <time>2021-09-01T12:11:15Z</time>
      </trkpt>
      <trkpt lat="46.84916" lon="6.21577">
        <ele>832</ele>
        <time>2021-09-01T12:11:19Z</time>
      </trkpt>
      <trkpt lat="46.84918" lon="6.21569">
        <ele>832</ele>
        <time>2021-09-01T12:11:24Z</time>
      </trkpt>
      <trkpt lat="46.84922" lon="6.21563">
        <ele>832</ele>
        <time>2021-09-01T12:11:28Z</time>
      </trkpt>
      <trkpt lat="46.84941" lon="6.21518">
        <ele>832</ele>
        <time>2021-09-01T12:12:00Z</time>
      </trkpt>
      <trkpt lat="46.84945" lon="6.21513">
        <ele>832</ele>
        <time>2021-09-01T12:12:05Z</time>
      </trkpt>
      <trkpt lat="46.84977" lon="6.21473">
        <ele>832</ele>
        <time>2021-09-01T12:12:37Z</time>
      </trkpt>
      <trkpt lat="46.84985" lon="6.2146">
        <ele>831</ele>
        <time>2021-09-01T12:12:46Z</time>
      </trkpt>
      <trkpt lat="46.85" lon="6.21444">
        <ele>830</ele>
        <time>2021-09-01T12:13:01Z</time>
      </trkpt>
      <trkpt lat="46.85011" lon="6.21438">
        <ele>829</ele>
        <time>2021-09-01T12:13:10Z</time>
      </trkpt>
      <trkpt lat="46.85026" lon="6.21422">
        <ele>829</ele>
        <time>2021-09-01T12:13:25Z</time>
      </trkpt>
      <trkpt lat="46.8505" lon="6.21409">
        <ele>829</ele>
        <time>2021-09-01T12:13:44Z</time>
      </trkpt>
      <trkpt lat="46.85058" lon="6.21398">
        <ele>829</ele>
        <time>2021-09-01T12:13:53Z</time>
      </trkpt>
      <trkpt lat="46.85083" lon="6.21352">
        <ele>829</ele>
        <time>2021-09-01T12:14:28Z</time>
      </trkpt>
      <trkpt lat="46.85103" lon="6.21324">
        <ele>828</ele>
        <time>2021-09-01T12:14:53Z</time>
      </trkpt>
      <trkpt lat="46.85106" lon="6.21324">
        <ele>828</ele>
        <time>2021-09-01T12:15:08Z</time>
      </trkpt>
      <trkpt lat="46.85115" lon="6.21309">
        <ele>828</ele>
        <time>2021-09-01T12:15:33Z</time>
      </trkpt>
      <trkpt lat="46.85138" lon="6.21282">
        <ele>827</ele>
        <time>2021-09-01T12:15:56Z</time>
      </trkpt>
      <trkpt lat="46.85141" lon="6.21275">
        <ele>827</ele>
        <time>2021-09-01T12:16:00Z</time>
      </trkpt>
      <trkpt lat="46.85146" lon="6.21269">
        <ele>827</ele>
        <time>2021-09-01T12:16:05Z</time>
      </trkpt>
      <trkpt lat="46.85146" lon="6.21264">
        <ele>826</ele>
        <time>2021-09-01T12:16:31Z</time>
      </trkpt>
      <trkpt lat="46.85166" lon="6.21235">
        <ele>826</ele>
        <time>2021-09-01T12:17:04Z</time>
      </trkpt>
      <trkpt lat="46.85183" lon="6.21216">
        <ele>826</ele>
        <time>2021-09-01T12:17:22Z</time>
      </trkpt>
      <trkpt lat="46.85186" lon="6.2121">
        <ele>826</ele>
        <time>2021-09-01T12:17:27Z</time>
      </trkpt>
      <trkpt lat="46.85196" lon="6.21197">
        <ele>826</ele>
        <time>2021-09-01T12:17:37Z</time>
      </trkpt>
      <trkpt lat="46.85202" lon="6.21183">
        <ele>825</ele>
        <time>2021-09-01T12:17:46Z</time>
      </trkpt>
      <trkpt lat="46.85205" lon="6.21175">
        <ele>825</ele>
        <time>2021-09-01T12:17:51Z</time>
      </trkpt>
      <trkpt lat="46.85216" lon="6.21155">
        <ele>825</ele>
        <time>2021-09-01T12:18:06Z</time>
      </trkpt>
      <trkpt lat="46.85234" lon="6.21134">
        <ele>825</ele>
        <time>2021-09-01T12:18:24Z</time>
      </trkpt>
      <trkpt lat="46.85237" lon="6.21127">
        <ele>825</ele>
        <time>2021-09-01T12:18:29Z</time>
      </trkpt>
      <trkpt lat="46.85247" lon="6.21115">
        <ele>825</ele>
        <time>2021-09-01T12:18:38Z</time>
      </trkpt>
      <trkpt lat="46.8525" lon="6.21107">
        <ele>825</ele>
        <time>2021-09-01T12:18:43Z</time>
      </trkpt>
      <trkpt lat="46.85256" lon="6.21098">
        <ele>825</ele>
        <time>2021-09-01T12:18:51Z</time>
      </trkpt>
      <trkpt lat="46.85266" lon="6.21077">
        <ele>825</ele>
        <time>2021-09-01T12:19:05Z</time>
      </trkpt>
      <trkpt lat="46.85292" lon="6.21035">
        <ele>824</ele>
        <time>2021-09-01T12:19:40Z</time>
      </trkpt>
      <trkpt lat="46.85296" lon="6.21029">
        <ele>825</ele>
        <time>2021-09-01T12:19:44Z</time>
      </trkpt>
      <trkpt lat="46.853" lon="6.21023">
        <ele>824</ele>
        <time>2021-09-01T12:19:50Z</time>
      </trkpt>
      <trkpt lat="46.85306" lon="6.21017">
        <ele>824</ele>
        <time>2021-09-01T12:19:58Z</time>
      </trkpt>
      <trkpt lat="46.85311" lon="6.21012">
        <ele>825</ele>
        <time>2021-09-01T12:20:02Z</time>
      </trkpt>
      <trkpt lat="46.85314" lon="6.21004">
        <ele>825</ele>
        <time>2021-09-01T12:20:11Z</time>
      </trkpt>
      <trkpt lat="46.85309" lon="6.20992">
        <ele>824</ele>
        <time>2021-09-01T12:20:42Z</time>
      </trkpt>
      <trkpt lat="46.85314" lon="6.20983">
        <ele>824</ele>
        <time>2021-09-01T12:20:49Z</time>
      </trkpt>
      <trkpt lat="46.8532" lon="6.2098">
        <ele>824</ele>
        <time>2021-09-01T12:21:03Z</time>
      </trkpt>
      <trkpt lat="46.85325" lon="6.2096">
        <ele>823</ele>
        <time>2021-09-01T12:22:56Z</time>
      </trkpt>
      <trkpt lat="46.85337" lon="6.20944">
        <ele>823</ele>
        <time>2021-09-01T12:23:48Z</time>
      </trkpt>
      <trkpt lat="46.85342" lon="6.20932">
        <ele>823</ele>
        <time>2021-09-01T12:24:24Z</time>
      </trkpt>
      <trkpt lat="46.85352" lon="6.20923">
        <ele>824</ele>
        <time>2021-09-01T12:24:37Z</time>
      </trkpt>
      <trkpt lat="46.8536" lon="6.20911">
        <ele>825</ele>
        <time>2021-09-01T12:24:47Z</time>
      </trkpt>
      <trkpt lat="46.85376" lon="6.20895">
        <ele>826</ele>
        <time>2021-09-01T12:25:03Z</time>
      </trkpt>
      <trkpt lat="46.85397" lon="6.20867">
        <ele>826</ele>
        <time>2021-09-01T12:25:29Z</time>
      </trkpt>
      <trkpt lat="46.85401" lon="6.20857">
        <ele>827</ele>
        <time>2021-09-01T12:25:38Z</time>
      </trkpt>
      <trkpt lat="46.8541" lon="6.20848">
        <ele>827</ele>
        <time>2021-09-01T12:25:47Z</time>
      </trkpt>
      <trkpt lat="46.85418" lon="6.20859">
        <ele>826</ele>
        <time>2021-09-01T12:25:58Z</time>
      </trkpt>
      <trkpt lat="46.85425" lon="6.2087">
        <ele>827</ele>
        <time>2021-09-01T12:26:19Z</time>
      </trkpt>
      <trkpt lat="46.85432" lon="6.20875">
        <ele>827</ele>
        <time>2021-09-01T12:26:36Z</time>
      </trkpt>
      <trkpt lat="46.8544" lon="6.20883">
        <ele>827</ele>
        <time>2021-09-01T12:26:52Z</time>
      </trkpt>
      <trkpt lat="46.85445" lon="6.20891">
        <ele>827</ele>
        <time>2021-09-01T12:26:59Z</time>
      </trkpt>
      <trkpt lat="46.85456" lon="6.2089">
        <ele>828</ele>
        <time>2021-09-01T12:27:12Z</time>
      </trkpt>
      <trkpt lat="46.85485" lon="6.20908">
        <ele>828</ele>
        <time>2021-09-01T12:27:50Z</time>
      </trkpt>
      <trkpt lat="46.85495" lon="6.20909">
        <ele>828</ele>
        <time>2021-09-01T12:28:00Z</time>
      </trkpt>
      <trkpt lat="46.85501" lon="6.2091">
        <ele>828</ele>
        <time>2021-09-01T12:28:06Z</time>
      </trkpt>
      <trkpt lat="46.85509" lon="6.20914">
        <ele>829</ele>
        <time>2021-09-01T12:28:13Z</time>
      </trkpt>
      <trkpt lat="46.85535" lon="6.20921">
        <ele>828</ele>
        <time>2021-09-01T12:28:34Z</time>
      </trkpt>
      <trkpt lat="46.85552" lon="6.20934">
        <ele>828</ele>
        <time>2021-09-01T12:28:50Z</time>
      </trkpt>
      <trkpt lat="46.85564" lon="6.20933">
        <ele>828</ele>
        <time>2021-09-01T12:29:00Z</time>
      </trkpt>
      <trkpt lat="46.85569" lon="6.2093">
        <ele>828</ele>
        <time>2021-09-01T12:29:05Z</time>
      </trkpt>
      <trkpt lat="46.85567" lon="6.20933">
        <ele>828</ele>
        <time>2021-09-01T12:29:31Z</time>
      </trkpt>
      <trkpt lat="46.85561" lon="6.20934">
        <ele>828</ele>
        <time>2021-09-01T12:29:36Z</time>
      </trkpt>
      <trkpt lat="46.85551" lon="6.20931">
        <ele>829</ele>
        <time>2021-09-01T12:29:50Z</time>
      </trkpt>
      <trkpt lat="46.85546" lon="6.20941">
        <ele>829</ele>
        <time>2021-09-01T12:30:39Z</time>
      </trkpt>
      <trkpt lat="46.85549" lon="6.20948">
        <ele>828</ele>
        <time>2021-09-01T12:30:47Z</time>
      </trkpt>
      <trkpt lat="46.85553" lon="6.20964">
        <ele>828</ele>
        <time>2021-09-01T12:30:56Z</time>
      </trkpt>
      <trkpt lat="46.85557" lon="6.2097">
        <ele>828</ele>
        <time>2021-09-01T12:31:02Z</time>
      </trkpt>
      <trkpt lat="46.85559" lon="6.2098">
        <ele>828</ele>
        <time>2021-09-01T12:31:10Z</time>
      </trkpt>
      <trkpt lat="46.85565" lon="6.20994">
        <ele>828</ele>
        <time>2021-09-01T12:31:20Z</time>
      </trkpt>
      <trkpt lat="46.85572" lon="6.21016">
        <ele>827</ele>
        <time>2021-09-01T12:31:52Z</time>
      </trkpt>
      <trkpt lat="46.85576" lon="6.21022">
        <ele>827</ele>
        <time>2021-09-01T12:32:10Z</time>
      </trkpt>
      <trkpt lat="46.85565" lon="6.21041">
        <ele>827</ele>
        <time>2021-09-01T12:32:25Z</time>
      </trkpt>
      <trkpt lat="46.85565" lon="6.21049">
        <ele>827</ele>
        <time>2021-09-01T12:32:30Z</time>
      </trkpt>
      <trkpt lat="46.85565" lon="6.21067">
        <ele>826</ele>
        <time>2021-09-01T12:32:42Z</time>
      </trkpt>
      <trkpt lat="46.85563" lon="6.21084">
        <ele>825</ele>
        <time>2021-09-01T12:32:52Z</time>
      </trkpt>
      <trkpt lat="46.85559" lon="6.21095">
        <ele>824</ele>
        <time>2021-09-01T12:33:05Z</time>
      </trkpt>
      <trkpt lat="46.85551" lon="6.21128">
        <ele>823</ele>
        <time>2021-09-01T12:33:25Z</time>
      </trkpt>
      <trkpt lat="46.85547" lon="6.21134">
        <ele>823</ele>
        <time>2021-09-01T12:33:30Z</time>
      </trkpt>
      <trkpt lat="46.85535" lon="6.21141">
        <ele>823</ele>
        <time>2021-09-01T12:33:41Z</time>
      </trkpt>
      <trkpt lat="46.85517" lon="6.21146">
        <ele>823</ele>
        <time>2021-09-01T12:33:55Z</time>
      </trkpt>
      <trkpt lat="46.85494" lon="6.21141">
        <ele>823</ele>
        <time>2021-09-01T12:34:15Z</time>
      </trkpt>
      <trkpt lat="46.85489" lon="6.21136">
        <ele>823</ele>
        <time>2021-09-01T12:34:20Z</time>
      </trkpt>
      <trkpt lat="46.85484" lon="6.21133">
        <ele>823</ele>
        <time>2021-09-01T12:34:25Z</time>
      </trkpt>
      <trkpt lat="46.85477" lon="6.21126">
        <ele>823</ele>
        <time>2021-09-01T12:34:34Z</time>
      </trkpt>
      <trkpt lat="46.85472" lon="6.21123">
        <ele>823</ele>
        <time>2021-09-01T12:34:38Z</time>
      </trkpt>
      <trkpt lat="46.85461" lon="6.2112">
        <ele>824</ele>
        <time>2021-09-01T12:34:49Z</time>
      </trkpt>
      <trkpt lat="46.8545" lon="6.21129">
        <ele>823</ele>
        <time>2021-09-01T12:34:59Z</time>
      </trkpt>
      <trkpt lat="46.85446" lon="6.21133">
        <ele>823</ele>
        <time>2021-09-01T12:35:04Z</time>
      </trkpt>
      <trkpt lat="46.85443" lon="6.2114">
        <ele>823</ele>
        <time>2021-09-01T12:35:10Z</time>
      </trkpt>
      <trkpt lat="46.85439" lon="6.21147">
        <ele>824</ele>
        <time>2021-09-01T12:35:14Z</time>
      </trkpt>
      <trkpt lat="46.85436" lon="6.21154">
        <ele>824</ele>
        <time>2021-09-01T12:35:20Z</time>
      </trkpt>
      <trkpt lat="46.8542" lon="6.21181">
        <ele>824</ele>
        <time>2021-09-01T12:35:55Z</time>
      </trkpt>
      <trkpt lat="46.85411" lon="6.21188">
        <ele>823</ele>
        <time>2021-09-01T12:36:20Z</time>
      </trkpt>
      <trkpt lat="46.85403" lon="6.21201">
        <ele>822</ele>
        <time>2021-09-01T12:36:30Z</time>
      </trkpt>
      <trkpt lat="46.85382" lon="6.2122">
        <ele>822</ele>
        <time>2021-09-01T12:36:51Z</time>
      </trkpt>
      <trkpt lat="46.85377" lon="6.21225">
        <ele>823</ele>
        <time>2021-09-01T12:36:56Z</time>
      </trkpt>
      <trkpt lat="46.85367" lon="6.21232">
        <ele>823</ele>
        <time>2021-09-01T12:37:06Z</time>
      </trkpt>
      <trkpt lat="46.85362" lon="6.21236">
        <ele>824</ele>
        <time>2021-09-01T12:37:12Z</time>
      </trkpt>
      <trkpt lat="46.85354" lon="6.21244">
        <ele>824</ele>
        <time>2021-09-01T12:37:25Z</time>
      </trkpt>
      <trkpt lat="46.85344" lon="6.21249">
        <ele>825</ele>
        <time>2021-09-01T12:37:37Z</time>
      </trkpt>
      <trkpt lat="46.8534" lon="6.21255">
        <ele>825</ele>
        <time>2021-09-01T12:37:42Z</time>
      </trkpt>
      <trkpt lat="46.85323" lon="6.21261">
        <ele>825</ele>
        <time>2021-09-01T12:38:04Z</time>
      </trkpt>
      <trkpt lat="46.85307" lon="6.21272">
        <ele>825</ele>
        <time>2021-09-01T12:38:18Z</time>
      </trkpt>
      <trkpt lat="46.85295" lon="6.21276">
        <ele>825</ele>
        <time>2021-09-01T12:38:28Z</time>
      </trkpt>
      <trkpt lat="46.8529" lon="6.21283">
        <ele>825</ele>
        <time>2021-09-01T12:38:33Z</time>
      </trkpt>
      <trkpt lat="46.85284" lon="6.21287">
        <ele>825</ele>
        <time>2021-09-01T12:38:38Z</time>
      </trkpt>
      <trkpt lat="46.85276" lon="6.21298">
        <ele>825</ele>
        <time>2021-09-01T12:38:49Z</time>
      </trkpt>
      <trkpt lat="46.85269" lon="6.21302">
        <ele>825</ele>
        <time>2021-09-01T12:38:55Z</time>
      </trkpt>
      <trkpt lat="46.85263" lon="6.21305">
        <ele>825</ele>
        <time>2021-09-01T12:39:00Z</time>
      </trkpt>
      <trkpt lat="46.85258" lon="6.21309">
        <ele>825</ele>
        <time>2021-09-01T12:39:04Z</time>
      </trkpt>
      <trkpt lat="46.85226" lon="6.21336">
        <ele>826</ele>
        <time>2021-09-01T12:39:37Z</time>
      </trkpt>
      <trkpt lat="46.85216" lon="6.21345">
        <ele>826</ele>
        <time>2021-09-01T12:39:48Z</time>
      </trkpt>
      <trkpt lat="46.85211" lon="6.21351">
        <ele>826</ele>
        <time>2021-09-01T12:39:53Z</time>
      </trkpt>
      <trkpt lat="46.85206" lon="6.21357">
        <ele>827</ele>
        <time>2021-09-01T12:39:58Z</time>
      </trkpt>
      <trkpt lat="46.85201" lon="6.21359">
        <ele>827</ele>
        <time>2021-09-01T12:40:04Z</time>
      </trkpt>
      <trkpt lat="46.85191" lon="6.21369">
        <ele>827</ele>
        <time>2021-09-01T12:40:13Z</time>
      </trkpt>
      <trkpt lat="46.85185" lon="6.21371">
        <ele>828</ele>
        <time>2021-09-01T12:40:18Z</time>
      </trkpt>
      <trkpt lat="46.85174" lon="6.21379">
        <ele>828</ele>
        <time>2021-09-01T12:40:28Z</time>
      </trkpt>
      <trkpt lat="46.8517" lon="6.21385">
        <ele>828</ele>
        <time>2021-09-01T12:40:32Z</time>
      </trkpt>
      <trkpt lat="46.85148" lon="6.214">
        <ele>829</ele>
        <time>2021-09-01T12:40:53Z</time>
      </trkpt>
      <trkpt lat="46.85125" lon="6.21402">
        <ele>829</ele>
        <time>2021-09-01T12:41:15Z</time>
      </trkpt>
      <trkpt lat="46.85112" lon="6.21407">
        <ele>828</ele>
        <time>2021-09-01T12:41:26Z</time>
      </trkpt>
      <trkpt lat="46.85102" lon="6.21404">
        <ele>828</ele>
        <time>2021-09-01T12:41:36Z</time>
      </trkpt>
      <trkpt lat="46.85079" lon="6.21397">
        <ele>828</ele>
        <time>2021-09-01T12:41:59Z</time>
      </trkpt>
      <trkpt lat="46.85073" lon="6.21408">
        <ele>828</ele>
        <time>2021-09-01T12:42:17Z</time>
      </trkpt>
      <trkpt lat="46.85074" lon="6.21419">
        <ele>828</ele>
        <time>2021-09-01T12:42:24Z</time>
      </trkpt>
      <trkpt lat="46.85077" lon="6.2143">
        <ele>828</ele>
        <time>2021-09-01T12:42:32Z</time>
      </trkpt>
      <trkpt lat="46.85079" lon="6.21443">
        <ele>828</ele>
        <time>2021-09-01T12:42:41Z</time>
      </trkpt>
      <trkpt lat="46.8508" lon="6.21453">
        <ele>828</ele>
        <time>2021-09-01T12:42:46Z</time>
      </trkpt>
      <trkpt lat="46.85085" lon="6.21487">
        <ele>828</ele>
        <time>2021-09-01T12:43:09Z</time>
      </trkpt>
      <trkpt lat="46.85083" lon="6.21495">
        <ele>828</ele>
        <time>2021-09-01T12:43:14Z</time>
      </trkpt>
      <trkpt lat="46.85078" lon="6.21523">
        <ele>829</ele>
        <time>2021-09-01T12:43:29Z</time>
      </trkpt>
      <trkpt lat="46.85071" lon="6.21536">
        <ele>830</ele>
        <time>2021-09-01T12:43:37Z</time>
      </trkpt>
      <trkpt lat="46.85051" lon="6.21589">
        <ele>830</ele>
        <time>2021-09-01T12:44:12Z</time>
      </trkpt>
      <trkpt lat="46.85048" lon="6.21601">
        <ele>830</ele>
        <time>2021-09-01T12:44:18Z</time>
      </trkpt>
      <trkpt lat="46.85046" lon="6.2161">
        <ele>830</ele>
        <time>2021-09-01T12:44:23Z</time>
      </trkpt>
      <trkpt lat="46.85039" lon="6.21625">
        <ele>830</ele>
        <time>2021-09-01T12:44:33Z</time>
      </trkpt>
      <trkpt lat="46.85031" lon="6.21666">
        <ele>830</ele>
        <time>2021-09-01T12:44:56Z</time>
      </trkpt>
      <trkpt lat="46.85032" lon="6.21682">
        <ele>830</ele>
        <time>2021-09-01T12:45:06Z</time>
      </trkpt>
      <trkpt lat="46.85031" lon="6.21742">
        <ele>830</ele>
        <time>2021-09-01T12:45:37Z</time>
      </trkpt>
      <trkpt lat="46.85029" lon="6.2175">
        <ele>830</ele>
        <time>2021-09-01T12:45:41Z</time>
      </trkpt>
      <trkpt lat="46.8503" lon="6.21784">
        <ele>830</ele>
        <time>2021-09-01T12:45:59Z</time>
      </trkpt>
      <trkpt lat="46.85028" lon="6.21793">
        <ele>830</ele>
        <time>2021-09-01T12:46:04Z</time>
      </trkpt>
      <trkpt lat="46.85028" lon="6.21802">
        <ele>830</ele>
        <time>2021-09-01T12:46:08Z</time>
      </trkpt>
      <trkpt lat="46.85027" lon="6.2181">
        <ele>830</ele>
        <time>2021-09-01T12:46:12Z</time>
      </trkpt>
      <trkpt lat="46.85029" lon="6.21831">
        <ele>830</ele>
        <time>2021-09-01T12:46:24Z</time>
      </trkpt>
      <trkpt lat="46.85027" lon="6.21848">
        <ele>830</ele>
        <time>2021-09-01T12:46:33Z</time>
      </trkpt>
      <trkpt lat="46.85027" lon="6.21882">
        <ele>831</ele>
        <time>2021-09-01T12:46:52Z</time>
      </trkpt>
      <trkpt lat="46.85025" lon="6.2189">
        <ele>831</ele>
        <time>2021-09-01T12:46:57Z</time>
      </trkpt>
      <trkpt lat="46.8502" lon="6.21926">
        <ele>831</ele>
        <time>2021-09-01T12:47:16Z</time>
      </trkpt>
      <trkpt lat="46.85017" lon="6.21942">
        <ele>831</ele>
        <time>2021-09-01T12:47:25Z</time>
      </trkpt>
      <trkpt lat="46.85016" lon="6.2195">
        <ele>832</ele>
        <time>2021-09-01T12:47:30Z</time>
      </trkpt>
      <trkpt lat="46.8501" lon="6.21975">
        <ele>832</ele>
        <time>2021-09-01T12:47:43Z</time>
      </trkpt>
      <trkpt lat="46.8501" lon="6.21985">
        <ele>833</ele>
        <time>2021-09-01T12:47:49Z</time>
      </trkpt>
      <trkpt lat="46.85008" lon="6.21994">
        <ele>833</ele>
        <time>2021-09-01T12:47:54Z</time>
      </trkpt>
      <trkpt lat="46.85" lon="6.22056">
        <ele>835</ele>
        <time>2021-09-01T12:48:30Z</time>
      </trkpt>
      <trkpt lat="46.84995" lon="6.22107">
        <ele>834</ele>
        <time>2021-09-01T12:48:58Z</time>
      </trkpt>
      <trkpt lat="46.84989" lon="6.2213">
        <ele>835</ele>
        <time>2021-09-01T12:49:11Z</time>
      </trkpt>
      <trkpt lat="46.84986" lon="6.22184">
        <ele>835</ele>
        <time>2021-09-01T12:49:40Z</time>
      </trkpt>
      <trkpt lat="46.84979" lon="6.22236">
        <ele>836</ele>
        <time>2021-09-01T12:50:09Z</time>
      </trkpt>
      <trkpt lat="46.84978" lon="6.22242">
        <ele>837</ele>
        <time>2021-09-01T12:50:13Z</time>
      </trkpt>
      <trkpt lat="46.84978" lon="6.22253">
        <ele>837</ele>
        <time>2021-09-01T12:50:20Z</time>
      </trkpt>
      <trkpt lat="46.84977" lon="6.22261">
        <ele>837</ele>
        <time>2021-09-01T12:50:25Z</time>
      </trkpt>
      <trkpt lat="46.84976" lon="6.2227">
        <ele>837</ele>
        <time>2021-09-01T12:50:31Z</time>
      </trkpt>
      <trkpt lat="46.84974" lon="6.22288">
        <ele>837</ele>
        <time>2021-09-01T12:50:42Z</time>
      </trkpt>
      <trkpt lat="46.84971" lon="6.22295">
        <ele>838</ele>
        <time>2021-09-01T12:50:46Z</time>
      </trkpt>
      <trkpt lat="46.84962" lon="6.2231">
        <ele>838</ele>
        <time>2021-09-01T12:50:58Z</time>
      </trkpt>
      <trkpt lat="46.84951" lon="6.22331">
        <ele>839</ele>
        <time>2021-09-01T12:51:12Z</time>
      </trkpt>
      <trkpt lat="46.84942" lon="6.22342">
        <ele>840</ele>
        <time>2021-09-01T12:51:21Z</time>
      </trkpt>
      <trkpt lat="46.84928" lon="6.22374">
        <ele>841</ele>
        <time>2021-09-01T12:51:44Z</time>
      </trkpt>
      <trkpt lat="46.84909" lon="6.22405">
        <ele>843</ele>
        <time>2021-09-01T12:52:08Z</time>
      </trkpt>
      <trkpt lat="46.84907" lon="6.22413">
        <ele>844</ele>
        <time>2021-09-01T12:52:14Z</time>
      </trkpt>
      <trkpt lat="46.84903" lon="6.22419">
        <ele>844</ele>
        <time>2021-09-01T12:52:19Z</time>
      </trkpt>
      <trkpt lat="46.84901" lon="6.22427">
        <ele>844</ele>
        <time>2021-09-01T12:52:25Z</time>
      </trkpt>
      <trkpt lat="46.84896" lon="6.22433">
        <ele>845</ele>
        <time>2021-09-01T12:52:30Z</time>
      </trkpt>
      <trkpt lat="46.84893" lon="6.2244">
        <ele>845</ele>
        <time>2021-09-01T12:52:35Z</time>
      </trkpt>
      <trkpt lat="46.8489" lon="6.22447">
        <ele>845</ele>
        <time>2021-09-01T12:52:40Z</time>
      </trkpt>
      <trkpt lat="46.84894" lon="6.22445">
        <ele>845</ele>
        <time>2021-09-01T12:55:15Z</time>
      </trkpt>
      <trkpt lat="46.8489" lon="6.22446">
        <ele>845</ele>
        <time>2021-09-01T12:57:15Z</time>
      </trkpt>
      <trkpt lat="46.84895" lon="6.2246">
        <ele>845</ele>
        <time>2021-09-01T12:58:47Z</time>
      </trkpt>
      <trkpt lat="46.84901" lon="6.22463">
        <ele>845</ele>
        <time>2021-09-01T12:58:52Z</time>
      </trkpt>
      <trkpt lat="46.84912" lon="6.22472">
        <ele>844</ele>
        <time>2021-09-01T12:59:06Z</time>
      </trkpt>
      <trkpt lat="46.84917" lon="6.22478">
        <ele>844</ele>
        <time>2021-09-01T12:59:10Z</time>
      </trkpt>
      <trkpt lat="46.84919" lon="6.22487">
        <ele>844</ele>
        <time>2021-09-01T12:59:16Z</time>
      </trkpt>
      <trkpt lat="46.84927" lon="6.225">
        <ele>844</ele>
        <time>2021-09-01T12:59:25Z</time>
      </trkpt>
      <trkpt lat="46.8493" lon="6.22507">
        <ele>845</ele>
        <time>2021-09-01T12:59:31Z</time>
      </trkpt>
      <trkpt lat="46.84935" lon="6.22514">
        <ele>844</ele>
        <time>2021-09-01T12:59:41Z</time>
      </trkpt>
      <trkpt lat="46.84939" lon="6.2252">
        <ele>844</ele>
        <time>2021-09-01T12:59:47Z</time>
      </trkpt>
      <trkpt lat="46.84942" lon="6.22533">
        <ele>844</ele>
        <time>2021-09-01T12:59:58Z</time>
      </trkpt>
      <trkpt lat="46.84944" lon="6.22541">
        <ele>844</ele>
        <time>2021-09-01T13:00:03Z</time>
      </trkpt>
      <trkpt lat="46.84947" lon="6.2255">
        <ele>844</ele>
        <time>2021-09-01T13:00:07Z</time>
      </trkpt>
      <trkpt lat="46.84953" lon="6.22571">
        <ele>845</ele>
        <time>2021-09-01T13:00:22Z</time>
      </trkpt>
      <trkpt lat="46.84955" lon="6.2258">
        <ele>845</ele>
        <time>2021-09-01T13:00:26Z</time>
      </trkpt>
      <trkpt lat="46.84958" lon="6.22588">
        <ele>845</ele>
        <time>2021-09-01T13:00:32Z</time>
      </trkpt>
      <trkpt lat="46.84966" lon="6.22604">
        <ele>846</ele>
        <time>2021-09-01T13:00:46Z</time>
      </trkpt>
      <trkpt lat="46.8497" lon="6.22617">
        <ele>847</ele>
        <time>2021-09-01T13:00:59Z</time>
      </trkpt>
      <trkpt lat="46.84975" lon="6.22624">
        <ele>847</ele>
        <time>2021-09-01T13:01:07Z</time>
      </trkpt>
      <trkpt lat="46.84979" lon="6.22646">
        <ele>846</ele>
        <time>2021-09-01T13:01:21Z</time>
      </trkpt>
      <trkpt lat="46.84979" lon="6.22663">
        <ele>845</ele>
        <time>2021-09-01T13:01:32Z</time>
      </trkpt>
      <trkpt lat="46.84981" lon="6.22677">
        <ele>846</ele>
        <time>2021-09-01T13:01:42Z</time>
      </trkpt>
      <trkpt lat="46.8498" lon="6.22692">
        <ele>846</ele>
        <time>2021-09-01T13:01:55Z</time>
      </trkpt>
      <trkpt lat="46.84975" lon="6.22702">
        <ele>846</ele>
        <time>2021-09-01T13:02:03Z</time>
      </trkpt>
      <trkpt lat="46.84971" lon="6.22708">
        <ele>847</ele>
        <time>2021-09-01T13:02:08Z</time>
      </trkpt>
      <trkpt lat="46.84967" lon="6.22715">
        <ele>847</ele>
        <time>2021-09-01T13:02:14Z</time>
      </trkpt>
      <trkpt lat="46.84959" lon="6.2273">
        <ele>848</ele>
        <time>2021-09-01T13:02:27Z</time>
      </trkpt>
      <trkpt lat="46.84958" lon="6.22739">
        <ele>849</ele>
        <time>2021-09-01T13:02:35Z</time>
      </trkpt>
      <trkpt lat="46.84951" lon="6.22749">
        <ele>849</ele>
        <time>2021-09-01T13:02:54Z</time>
      </trkpt>
      <trkpt lat="46.84948" lon="6.22756">
        <ele>850</ele>
        <time>2021-09-01T13:02:58Z</time>
      </trkpt>
      <trkpt lat="46.84942" lon="6.2277">
        <ele>850</ele>
        <time>2021-09-01T13:03:08Z</time>
      </trkpt>
      <trkpt lat="46.84934" lon="6.22777">
        <ele>851</ele>
        <time>2021-09-01T13:03:18Z</time>
      </trkpt>
      <trkpt lat="46.84924" lon="6.22793">
        <ele>853</ele>
        <time>2021-09-01T13:03:33Z</time>
      </trkpt>
      <trkpt lat="46.84918" lon="6.22821">
        <ele>857</ele>
        <time>2021-09-01T13:03:55Z</time>
      </trkpt>
      <trkpt lat="46.84918" lon="6.22833">
        <ele>857</ele>
        <time>2021-09-01T13:04:05Z</time>
      </trkpt>
      <trkpt lat="46.84915" lon="6.22841">
        <ele>858</ele>
        <time>2021-09-01T13:04:10Z</time>
      </trkpt>
      <trkpt lat="46.84915" lon="6.22849">
        <ele>858</ele>
        <time>2021-09-01T13:04:15Z</time>
      </trkpt>
      <trkpt lat="46.84913" lon="6.22856">
        <ele>859</ele>
        <time>2021-09-01T13:04:21Z</time>
      </trkpt>
      <trkpt lat="46.84907" lon="6.22861">
        <ele>859</ele>
        <time>2021-09-01T13:04:34Z</time>
      </trkpt>
      <trkpt lat="46.84901" lon="6.22868">
        <ele>859</ele>
        <time>2021-09-01T13:04:45Z</time>
      </trkpt>
      <trkpt lat="46.84896" lon="6.22873">
        <ele>859</ele>
        <time>2021-09-01T13:04:49Z</time>
      </trkpt>
      <trkpt lat="46.84892" lon="6.2288">
        <ele>860</ele>
        <time>2021-09-01T13:04:54Z</time>
      </trkpt>
      <trkpt lat="46.84885" lon="6.2289">
        <ele>859</ele>
        <time>2021-09-01T13:05:06Z</time>
      </trkpt>
      <trkpt lat="46.84881" lon="6.22895">
        <ele>859</ele>
        <time>2021-09-01T13:05:10Z</time>
      </trkpt>
      <trkpt lat="46.84871" lon="6.22904">
        <ele>859</ele>
        <time>2021-09-01T13:05:19Z</time>
      </trkpt>
      <trkpt lat="46.84867" lon="6.2291">
        <ele>860</ele>
        <time>2021-09-01T13:05:29Z</time>
      </trkpt>
      <trkpt lat="46.84867" lon="6.2292">
        <ele>861</ele>
        <time>2021-09-01T13:05:36Z</time>
      </trkpt>
      <trkpt lat="46.84877" lon="6.22958">
        <ele>864</ele>
        <time>2021-09-01T13:06:00Z</time>
      </trkpt>
      <trkpt lat="46.84881" lon="6.22972">
        <ele>866</ele>
        <time>2021-09-01T13:06:13Z</time>
      </trkpt>
      <trkpt lat="46.84882" lon="6.2298">
        <ele>866</ele>
        <time>2021-09-01T13:06:19Z</time>
      </trkpt>
      <trkpt lat="46.84887" lon="6.22987">
        <ele>867</ele>
        <time>2021-09-01T13:06:27Z</time>
      </trkpt>
      <trkpt lat="46.84891" lon="6.22993">
        <ele>868</ele>
        <time>2021-09-01T13:06:31Z</time>
      </trkpt>
      <trkpt lat="46.84893" lon="6.23001">
        <ele>868</ele>
        <time>2021-09-01T13:06:36Z</time>
      </trkpt>
      <trkpt lat="46.84897" lon="6.23009">
        <ele>867</ele>
        <time>2021-09-01T13:06:42Z</time>
      </trkpt>
      <trkpt lat="46.84901" lon="6.23015">
        <ele>867</ele>
        <time>2021-09-01T13:06:48Z</time>
      </trkpt>
      <trkpt lat="46.84906" lon="6.2302">
        <ele>867</ele>
        <time>2021-09-01T13:06:52Z</time>
      </trkpt>
      <trkpt lat="46.84908" lon="6.23028">
        <ele>867</ele>
        <time>2021-09-01T13:07:00Z</time>
      </trkpt>
      <trkpt lat="46.84918" lon="6.23051">
        <ele>867</ele>
        <time>2021-09-01T13:07:19Z</time>
      </trkpt>
      <trkpt lat="46.84922" lon="6.23059">
        <ele>867</ele>
        <time>2021-09-01T13:07:25Z</time>
      </trkpt>
      <trkpt lat="46.84942" lon="6.23086">
        <ele>866</ele>
        <time>2021-09-01T13:07:48Z</time>
      </trkpt>
      <trkpt lat="46.84953" lon="6.23092">
        <ele>865</ele>
        <time>2021-09-01T13:07:57Z</time>
      </trkpt>
      <trkpt lat="46.84957" lon="6.23097">
        <ele>865</ele>
        <time>2021-09-01T13:08:02Z</time>
      </trkpt>
      <trkpt lat="46.84968" lon="6.23111">
        <ele>866</ele>
        <time>2021-09-01T13:08:21Z</time>
      </trkpt>
      <trkpt lat="46.84973" lon="6.23115">
        <ele>866</ele>
        <time>2021-09-01T13:08:27Z</time>
      </trkpt>
      <trkpt lat="46.84978" lon="6.23122">
        <ele>865</ele>
        <time>2021-09-01T13:08:33Z</time>
      </trkpt>
      <trkpt lat="46.84982" lon="6.23129">
        <ele>866</ele>
        <time>2021-09-01T13:08:38Z</time>
      </trkpt>
      <trkpt lat="46.84993" lon="6.23135">
        <ele>866</ele>
        <time>2021-09-01T13:08:48Z</time>
      </trkpt>
      <trkpt lat="46.85006" lon="6.23139">
        <ele>866</ele>
        <time>2021-09-01T13:08:59Z</time>
      </trkpt>
      <trkpt lat="46.85013" lon="6.23138">
        <ele>866</ele>
        <time>2021-09-01T13:09:04Z</time>
      </trkpt>
      <trkpt lat="46.85027" lon="6.23148">
        <ele>864</ele>
        <time>2021-09-01T13:09:19Z</time>
      </trkpt>
      <trkpt lat="46.85032" lon="6.2315">
        <ele>863</ele>
        <time>2021-09-01T13:09:24Z</time>
      </trkpt>
      <trkpt lat="46.85044" lon="6.23144">
        <ele>862</ele>
        <time>2021-09-01T13:09:36Z</time>
      </trkpt>
      <trkpt lat="46.85048" lon="6.2314">
        <ele>862</ele>
        <time>2021-09-01T13:09:46Z</time>
      </trkpt>
      <trkpt lat="46.85055" lon="6.23131">
        <ele>861</ele>
        <time>2021-09-01T13:13:36Z</time>
      </trkpt>
      <trkpt lat="46.85061" lon="6.23127">
        <ele>861</ele>
        <time>2021-09-01T13:13:40Z</time>
      </trkpt>
      <trkpt lat="46.85065" lon="6.23122">
        <ele>861</ele>
        <time>2021-09-01T13:13:46Z</time>
      </trkpt>
      <trkpt lat="46.85068" lon="6.23115">
        <ele>860</ele>
        <time>2021-09-01T13:13:51Z</time>
      </trkpt>
      <trkpt lat="46.85078" lon="6.23103">
        <ele>860</ele>
        <time>2021-09-01T13:14:05Z</time>
      </trkpt>
      <trkpt lat="46.85084" lon="6.23094">
        <ele>859</ele>
        <time>2021-09-01T13:14:11Z</time>
      </trkpt>
      <trkpt lat="46.85086" lon="6.23086">
        <ele>859</ele>
        <time>2021-09-01T13:14:16Z</time>
      </trkpt>
      <trkpt lat="46.85096" lon="6.23072">
        <ele>858</ele>
        <time>2021-09-01T13:14:29Z</time>
      </trkpt>
      <trkpt lat="46.85131" lon="6.23041">
        <ele>855</ele>
        <time>2021-09-01T13:15:03Z</time>
      </trkpt>
      <trkpt lat="46.85136" lon="6.23038">
        <ele>855</ele>
        <time>2021-09-01T13:15:07Z</time>
      </trkpt>
      <trkpt lat="46.85141" lon="6.23033">
        <ele>855</ele>
        <time>2021-09-01T13:15:13Z</time>
      </trkpt>
      <trkpt lat="46.85153" lon="6.23027">
        <ele>854</ele>
        <time>2021-09-01T13:15:23Z</time>
      </trkpt>
      <trkpt lat="46.85187" lon="6.22997">
        <ele>852</ele>
        <time>2021-09-01T13:15:55Z</time>
      </trkpt>
      <trkpt lat="46.85192" lon="6.22994">
        <ele>852</ele>
        <time>2021-09-01T13:16:02Z</time>
      </trkpt>
      <trkpt lat="46.8521" lon="6.22984">
        <ele>850</ele>
        <time>2021-09-01T13:16:16Z</time>
      </trkpt>
      <trkpt lat="46.85215" lon="6.2298">
        <ele>850</ele>
        <time>2021-09-01T13:16:22Z</time>
      </trkpt>
      <trkpt lat="46.8522" lon="6.22973">
        <ele>849</ele>
        <time>2021-09-01T13:16:26Z</time>
      </trkpt>
      <trkpt lat="46.85231" lon="6.22965">
        <ele>849</ele>
        <time>2021-09-01T13:16:35Z</time>
      </trkpt>
      <trkpt lat="46.85236" lon="6.2296">
        <ele>848</ele>
        <time>2021-09-01T13:16:39Z</time>
      </trkpt>
      <trkpt lat="46.85242" lon="6.22957">
        <ele>848</ele>
        <time>2021-09-01T13:16:44Z</time>
      </trkpt>
      <trkpt lat="46.85274" lon="6.22921">
        <ele>845</ele>
        <time>2021-09-01T13:17:18Z</time>
      </trkpt>
      <trkpt lat="46.85279" lon="6.22915">
        <ele>845</ele>
        <time>2021-09-01T13:17:24Z</time>
      </trkpt>
      <trkpt lat="46.8531" lon="6.22886">
        <ele>843</ele>
        <time>2021-09-01T13:17:55Z</time>
      </trkpt>
      <trkpt lat="46.85316" lon="6.2288">
        <ele>843</ele>
        <time>2021-09-01T13:17:59Z</time>
      </trkpt>
      <trkpt lat="46.85347" lon="6.22856">
        <ele>840</ele>
        <time>2021-09-01T13:18:29Z</time>
      </trkpt>
      <trkpt lat="46.85352" lon="6.2285">
        <ele>840</ele>
        <time>2021-09-01T13:18:35Z</time>
      </trkpt>
      <trkpt lat="46.85368" lon="6.22838">
        <ele>839</ele>
        <time>2021-09-01T13:18:48Z</time>
      </trkpt>
      <trkpt lat="46.85378" lon="6.22829">
        <ele>838</ele>
        <time>2021-09-01T13:18:57Z</time>
      </trkpt>
      <trkpt lat="46.85381" lon="6.22822">
        <ele>838</ele>
        <time>2021-09-01T13:19:02Z</time>
      </trkpt>
      <trkpt lat="46.85403" lon="6.22794">
        <ele>837</ele>
        <time>2021-09-01T13:19:25Z</time>
      </trkpt>
      <trkpt lat="46.85413" lon="6.22783">
        <ele>837</ele>
        <time>2021-09-01T13:19:34Z</time>
      </trkpt>
      <trkpt lat="46.85426" lon="6.22763">
        <ele>836</ele>
        <time>2021-09-01T13:19:47Z</time>
      </trkpt>
      <trkpt lat="46.85431" lon="6.2276">
        <ele>836</ele>
        <time>2021-09-01T13:19:54Z</time>
      </trkpt>
      <trkpt lat="46.85445" lon="6.2274">
        <ele>836</ele>
        <time>2021-09-01T13:20:10Z</time>
      </trkpt>
      <trkpt lat="46.8545" lon="6.22738">
        <ele>836</ele>
        <time>2021-09-01T13:20:14Z</time>
      </trkpt>
      <trkpt lat="46.85464" lon="6.22719">
        <ele>835</ele>
        <time>2021-09-01T13:20:30Z</time>
      </trkpt>
      <trkpt lat="46.85467" lon="6.22709">
        <ele>834</ele>
        <time>2021-09-01T13:20:35Z</time>
      </trkpt>
      <trkpt lat="46.85484" lon="6.22683">
        <ele>834</ele>
        <time>2021-09-01T13:20:52Z</time>
      </trkpt>
      <trkpt lat="46.85492" lon="6.22674">
        <ele>834</ele>
        <time>2021-09-01T13:20:58Z</time>
      </trkpt>
      <trkpt lat="46.85517" lon="6.22636">
        <ele>833</ele>
        <time>2021-09-01T13:21:29Z</time>
      </trkpt>
      <trkpt lat="46.85524" lon="6.22625">
        <ele>832</ele>
        <time>2021-09-01T13:21:39Z</time>
      </trkpt>
      <trkpt lat="46.85534" lon="6.22615">
        <ele>832</ele>
        <time>2021-09-01T13:21:48Z</time>
      </trkpt>
      <trkpt lat="46.85543" lon="6.226">
        <ele>832</ele>
        <time>2021-09-01T13:21:58Z</time>
      </trkpt>
      <trkpt lat="46.85555" lon="6.22583">
        <ele>832</ele>
        <time>2021-09-01T13:22:12Z</time>
      </trkpt>
      <trkpt lat="46.85558" lon="6.22578">
        <ele>832</ele>
        <time>2021-09-01T13:22:16Z</time>
      </trkpt>
      <trkpt lat="46.85565" lon="6.2257">
        <ele>832</ele>
        <time>2021-09-01T13:22:23Z</time>
      </trkpt>
      <trkpt lat="46.85588" lon="6.22531">
        <ele>830</ele>
        <time>2021-09-01T13:22:51Z</time>
      </trkpt>
      <trkpt lat="46.85612" lon="6.22506">
        <ele>829</ele>
        <time>2021-09-01T13:23:13Z</time>
      </trkpt>
      <trkpt lat="46.85635" lon="6.22469">
        <ele>829</ele>
        <time>2021-09-01T13:23:40Z</time>
      </trkpt>
      <trkpt lat="46.85646" lon="6.22459">
        <ele>829</ele>
        <time>2021-09-01T13:23:50Z</time>
      </trkpt>
      <trkpt lat="46.85649" lon="6.22454">
        <ele>829</ele>
        <time>2021-09-01T13:23:54Z</time>
      </trkpt>
      <trkpt lat="46.85656" lon="6.22451">
        <ele>828</ele>
        <time>2021-09-01T13:24:00Z</time>
      </trkpt>
      <trkpt lat="46.85661" lon="6.22452">
        <ele>828</ele>
        <time>2021-09-01T13:24:03Z</time>
      </trkpt>
      <trkpt lat="46.85672" lon="6.22446">
        <ele>828</ele>
        <time>2021-09-01T13:24:12Z</time>
      </trkpt>
      <trkpt lat="46.85694" lon="6.22444">
        <ele>828</ele>
        <time>2021-09-01T13:24:29Z</time>
      </trkpt>
      <trkpt lat="46.85706" lon="6.22438">
        <ele>828</ele>
        <time>2021-09-01T13:24:41Z</time>
      </trkpt>
      <trkpt lat="46.85712" lon="6.22438">
        <ele>828</ele>
        <time>2021-09-01T13:24:45Z</time>
      </trkpt>
      <trkpt lat="46.85724" lon="6.22432">
        <ele>827</ele>
        <time>2021-09-01T13:24:53Z</time>
      </trkpt>
      <trkpt lat="46.85729" lon="6.22434">
        <ele>827</ele>
        <time>2021-09-01T13:24:57Z</time>
      </trkpt>
      <trkpt lat="46.85757" lon="6.22423">
        <ele>827</ele>
        <time>2021-09-01T13:25:18Z</time>
      </trkpt>
      <trkpt lat="46.85763" lon="6.22425">
        <ele>827</ele>
        <time>2021-09-01T13:25:24Z</time>
      </trkpt>
      <trkpt lat="46.85788" lon="6.22423">
        <ele>826</ele>
        <time>2021-09-01T13:25:42Z</time>
      </trkpt>
      <trkpt lat="46.858" lon="6.22415">
        <ele>826</ele>
        <time>2021-09-01T13:25:51Z</time>
      </trkpt>
      <trkpt lat="46.8581" lon="6.22417">
        <ele>826</ele>
        <time>2021-09-01T13:25:58Z</time>
      </trkpt>
      <trkpt lat="46.8582" lon="6.22413">
        <ele>826</ele>
        <time>2021-09-01T13:26:06Z</time>
      </trkpt>
      <trkpt lat="46.85824" lon="6.22413">
        <ele>826</ele>
        <time>2021-09-01T13:26:09Z</time>
      </trkpt>
      <trkpt lat="46.85827" lon="6.2241">
        <ele>826</ele>
        <time>2021-09-01T13:26:13Z</time>
      </trkpt>
      <trkpt lat="46.8586" lon="6.22403">
        <ele>826</ele>
        <time>2021-09-01T13:26:38Z</time>
      </trkpt>
      <trkpt lat="46.85866" lon="6.22404">
        <ele>826</ele>
        <time>2021-09-01T13:26:43Z</time>
      </trkpt>
      <trkpt lat="46.85872" lon="6.22403">
        <ele>826</ele>
        <time>2021-09-01T13:26:48Z</time>
      </trkpt>
      <trkpt lat="46.85885" lon="6.22397">
        <ele>826</ele>
        <time>2021-09-01T13:26:57Z</time>
      </trkpt>
      <trkpt lat="46.85906" lon="6.22396">
        <ele>826</ele>
        <time>2021-09-01T13:27:13Z</time>
      </trkpt>
      <trkpt lat="46.85921" lon="6.22391">
        <ele>825</ele>
        <time>2021-09-01T13:27:25Z</time>
      </trkpt>
      <trkpt lat="46.85967" lon="6.2238">
        <ele>825</ele>
        <time>2021-09-01T13:27:58Z</time>
      </trkpt>
      <trkpt lat="46.8597" lon="6.22379">
        <ele>825</ele>
        <time>2021-09-01T13:28:01Z</time>
      </trkpt>
      <trkpt lat="46.85981" lon="6.22376">
        <ele>825</ele>
        <time>2021-09-01T13:28:09Z</time>
      </trkpt>
      <trkpt lat="46.85989" lon="6.22375">
        <ele>824</ele>
        <time>2021-09-01T13:28:16Z</time>
      </trkpt>
      <trkpt lat="46.85999" lon="6.22367">
        <ele>825</ele>
        <time>2021-09-01T13:28:23Z</time>
      </trkpt>
      <trkpt lat="46.86002" lon="6.22365">
        <ele>824</ele>
        <time>2021-09-01T13:28:27Z</time>
      </trkpt>
      <trkpt lat="46.86006" lon="6.22366">
        <ele>824</ele>
        <time>2021-09-01T13:28:36Z</time>
      </trkpt>
      <trkpt lat="46.8602" lon="6.22366">
        <ele>824</ele>
        <time>2021-09-01T13:28:48Z</time>
      </trkpt>
      <trkpt lat="46.86023" lon="6.22364">
        <ele>824</ele>
        <time>2021-09-01T13:28:51Z</time>
      </trkpt>
      <trkpt lat="46.86032" lon="6.22365">
        <ele>824</ele>
        <time>2021-09-01T13:28:59Z</time>
      </trkpt>
      <trkpt lat="46.86043" lon="6.2236">
        <ele>824</ele>
        <time>2021-09-01T13:29:08Z</time>
      </trkpt>
      <trkpt lat="46.86047" lon="6.22361">
        <ele>824</ele>
        <time>2021-09-01T13:29:11Z</time>
      </trkpt>
      <trkpt lat="46.86092" lon="6.22369">
        <ele>824</ele>
        <time>2021-09-01T13:29:43Z</time>
      </trkpt>
      <trkpt lat="46.86104" lon="6.22372">
        <ele>824</ele>
        <time>2021-09-01T13:29:52Z</time>
      </trkpt>
      <trkpt lat="46.86116" lon="6.22373">
        <ele>824</ele>
        <time>2021-09-01T13:30:01Z</time>
      </trkpt>
      <trkpt lat="46.86136" lon="6.22383">
        <ele>824</ele>
        <time>2021-09-01T13:30:17Z</time>
      </trkpt>
      <trkpt lat="46.8614" lon="6.22383">
        <ele>824</ele>
        <time>2021-09-01T13:30:20Z</time>
      </trkpt>
      <trkpt lat="46.86164" lon="6.22392">
        <ele>824</ele>
        <time>2021-09-01T13:30:40Z</time>
      </trkpt>
      <trkpt lat="46.86175" lon="6.22391">
        <ele>823</ele>
        <time>2021-09-01T13:30:50Z</time>
      </trkpt>
      <trkpt lat="46.86184" lon="6.22389">
        <ele>823</ele>
        <time>2021-09-01T13:30:57Z</time>
      </trkpt>
      <trkpt lat="46.86193" lon="6.2238">
        <ele>823</ele>
        <time>2021-09-01T13:31:05Z</time>
      </trkpt>
      <trkpt lat="46.86195" lon="6.22375">
        <ele>823</ele>
        <time>2021-09-01T13:31:08Z</time>
      </trkpt>
      <trkpt lat="46.86198" lon="6.22372">
        <ele>823</ele>
        <time>2021-09-01T13:31:11Z</time>
      </trkpt>
      <trkpt lat="46.86219" lon="6.22338">
        <ele>823</ele>
        <time>2021-09-01T13:31:34Z</time>
      </trkpt>
      <trkpt lat="46.86223" lon="6.22327">
        <ele>823</ele>
        <time>2021-09-01T13:31:40Z</time>
      </trkpt>
      <trkpt lat="46.86225" lon="6.22313">
        <ele>823</ele>
        <time>2021-09-01T13:31:47Z</time>
      </trkpt>
      <trkpt lat="46.86231" lon="6.22297">
        <ele>823</ele>
        <time>2021-09-01T13:31:56Z</time>
      </trkpt>
      <trkpt lat="46.86242" lon="6.22252">
        <ele>823</ele>
        <time>2021-09-01T13:32:22Z</time>
      </trkpt>
      <trkpt lat="46.86246" lon="6.22246">
        <ele>823</ele>
        <time>2021-09-01T13:32:28Z</time>
      </trkpt>
      <trkpt lat="46.86252" lon="6.22248">
        <ele>823</ele>
        <time>2021-09-01T13:32:31Z</time>
      </trkpt>
      <trkpt lat="46.86256" lon="6.22252">
        <ele>823</ele>
        <time>2021-09-01T13:32:34Z</time>
      </trkpt>
      <trkpt lat="46.86258" lon="6.22257">
        <ele>823</ele>
        <time>2021-09-01T13:32:38Z</time>
      </trkpt>
      <trkpt lat="46.8626" lon="6.22266">
        <ele>823</ele>
        <time>2021-09-01T13:32:43Z</time>
      </trkpt>
      <trkpt lat="46.86265" lon="6.22272">
        <ele>823</ele>
        <time>2021-09-01T13:32:48Z</time>
      </trkpt>
      <trkpt lat="46.8628" lon="6.22289">
        <ele>823</ele>
        <time>2021-09-01T13:33:05Z</time>
      </trkpt>
      <trkpt lat="46.86286" lon="6.22292">
        <ele>823</ele>
        <time>2021-09-01T13:33:10Z</time>
      </trkpt>
      <trkpt lat="46.86292" lon="6.22288">
        <ele>823</ele>
        <time>2021-09-01T13:33:16Z</time>
      </trkpt>
      <trkpt lat="46.86296" lon="6.22281">
        <ele>823</ele>
        <time>2021-09-01T13:33:21Z</time>
      </trkpt>
      <trkpt lat="46.86302" lon="6.22257">
        <ele>824</ele>
        <time>2021-09-01T13:33:36Z</time>
      </trkpt>
      <trkpt lat="46.86305" lon="6.22253">
        <ele>824</ele>
        <time>2021-09-01T13:33:40Z</time>
      </trkpt>
      <trkpt lat="46.86307" lon="6.22249">
        <ele>824</ele>
        <time>2021-09-01T13:33:43Z</time>
      </trkpt>
      <trkpt lat="46.8633" lon="6.22202">
        <ele>824</ele>
        <time>2021-09-01T13:34:16Z</time>
      </trkpt>
      <trkpt lat="46.86347" lon="6.22168">
        <ele>824</ele>
        <time>2021-09-01T13:34:40Z</time>
      </trkpt>
      <trkpt lat="46.8635" lon="6.22157">
        <ele>824</ele>
        <time>2021-09-01T13:34:46Z</time>
      </trkpt>
      <trkpt lat="46.86353" lon="6.2215">
        <ele>824</ele>
        <time>2021-09-01T13:34:51Z</time>
      </trkpt>
      <trkpt lat="46.86357" lon="6.22143">
        <ele>824</ele>
        <time>2021-09-01T13:34:56Z</time>
      </trkpt>
      <trkpt lat="46.86358" lon="6.22136">
        <ele>825</ele>
        <time>2021-09-01T13:35:02Z</time>
      </trkpt>
      <trkpt lat="46.86363" lon="6.2213">
        <ele>825</ele>
        <time>2021-09-01T13:35:44Z</time>
      </trkpt>
      <trkpt lat="46.86381" lon="6.22106">
        <ele>826</ele>
        <time>2021-09-01T13:36:04Z</time>
      </trkpt>
      <trkpt lat="46.86402" lon="6.22059">
        <ele>826</ele>
        <time>2021-09-01T13:36:39Z</time>
      </trkpt>
      <trkpt lat="46.86405" lon="6.22056">
        <ele>826</ele>
        <time>2021-09-01T13:36:42Z</time>
      </trkpt>
      <trkpt lat="46.86409" lon="6.22045">
        <ele>826</ele>
        <time>2021-09-01T13:36:49Z</time>
      </trkpt>
      <trkpt lat="46.86413" lon="6.22039">
        <ele>827</ele>
        <time>2021-09-01T13:37:09Z</time>
      </trkpt>
      <trkpt lat="46.86417" lon="6.22032">
        <ele>827</ele>
        <time>2021-09-01T13:37:29Z</time>
      </trkpt>
      <trkpt lat="46.8642" lon="6.22026">
        <ele>827</ele>
        <time>2021-09-01T13:37:34Z</time>
      </trkpt>
      <trkpt lat="46.86423" lon="6.22022">
        <ele>827</ele>
        <time>2021-09-01T13:37:36Z</time>
      </trkpt>
      <trkpt lat="46.86426" lon="6.2202">
        <ele>827</ele>
        <time>2021-09-01T13:37:40Z</time>
      </trkpt>
      <trkpt lat="46.86429" lon="6.22014">
        <ele>827</ele>
        <time>2021-09-01T13:37:46Z</time>
      </trkpt>
      <trkpt lat="46.86437" lon="6.21996">
        <ele>828</ele>
        <time>2021-09-01T13:38:00Z</time>
      </trkpt>
      <trkpt lat="46.86438" lon="6.21989">
        <ele>828</ele>
        <time>2021-09-01T13:38:06Z</time>
      </trkpt>
      <trkpt lat="46.86441" lon="6.21986">
        <ele>828</ele>
        <time>2021-09-01T13:38:10Z</time>
      </trkpt>
      <trkpt lat="46.86448" lon="6.21976">
        <ele>828</ele>
        <time>2021-09-01T13:38:17Z</time>
      </trkpt>
      <trkpt lat="46.86456" lon="6.21968">
        <ele>827</ele>
        <time>2021-09-01T13:38:26Z</time>
      </trkpt>
      <trkpt lat="46.86463" lon="6.21957">
        <ele>826</ele>
        <time>2021-09-01T13:38:35Z</time>
      </trkpt>
      <trkpt lat="46.86467" lon="6.21951">
        <ele>826</ele>
        <time>2021-09-01T13:38:41Z</time>
      </trkpt>
      <trkpt lat="46.86472" lon="6.21945">
        <ele>826</ele>
        <time>2021-09-01T13:38:46Z</time>
      </trkpt>
      <trkpt lat="46.86479" lon="6.21932">
        <ele>825</ele>
        <time>2021-09-01T13:38:56Z</time>
      </trkpt>
      <trkpt lat="46.86484" lon="6.21928">
        <ele>825</ele>
        <time>2021-09-01T13:39:00Z</time>
      </trkpt>
      <trkpt lat="46.86493" lon="6.21914">
        <ele>824</ele>
        <time>2021-09-01T13:39:16Z</time>
      </trkpt>
      <trkpt lat="46.86508" lon="6.2191">
        <ele>823</ele>
        <time>2021-09-01T13:39:31Z</time>
      </trkpt>
      <trkpt lat="46.86512" lon="6.21912">
        <ele>823</ele>
        <time>2021-09-01T13:39:36Z</time>
      </trkpt>
      <trkpt lat="46.8652" lon="6.21911">
        <ele>823</ele>
        <time>2021-09-01T13:39:42Z</time>
      </trkpt>
      <trkpt lat="46.86525" lon="6.21907">
        <ele>823</ele>
        <time>2021-09-01T13:39:50Z</time>
      </trkpt>
      <trkpt lat="46.86531" lon="6.21903">
        <ele>822</ele>
        <time>2021-09-01T13:39:58Z</time>
      </trkpt>
      <trkpt lat="46.86537" lon="6.21903">
        <ele>823</ele>
        <time>2021-09-01T13:40:05Z</time>
      </trkpt>
      <trkpt lat="46.86562" lon="6.21897">
        <ele>823</ele>
        <time>2021-09-01T13:40:29Z</time>
      </trkpt>
      <trkpt lat="46.86571" lon="6.21883">
        <ele>823</ele>
        <time>2021-09-01T13:40:40Z</time>
      </trkpt>
      <trkpt lat="46.86578" lon="6.21884">
        <ele>823</ele>
        <time>2021-09-01T13:40:49Z</time>
      </trkpt>
      <trkpt lat="46.86585" lon="6.21883">
        <ele>823</ele>
        <time>2021-09-01T13:40:54Z</time>
      </trkpt>
      <trkpt lat="46.8659" lon="6.21879">
        <ele>823</ele>
        <time>2021-09-01T13:41:00Z</time>
      </trkpt>
      <trkpt lat="46.86615" lon="6.21849">
        <ele>823</ele>
        <time>2021-09-01T13:41:30Z</time>
      </trkpt>
      <trkpt lat="46.86618" lon="6.21844">
        <ele>823</ele>
        <time>2021-09-01T13:41:34Z</time>
      </trkpt>
      <trkpt lat="46.86625" lon="6.21842">
        <ele>822</ele>
        <time>2021-09-01T13:41:42Z</time>
      </trkpt>
      <trkpt lat="46.86629" lon="6.21837">
        <ele>822</ele>
        <time>2021-09-01T13:42:14Z</time>
      </trkpt>
    </trkseg>
  </trk>
</gpx>